<?xml version="1.0" encoding="UTF-8" standalone="no" ?>
<gpx xmlns="http://www.topografix.com/GPX/1/1" xmlns:xsi="http://www.w3.org/2001/XMLSchema-instance" xsi:schemaLocation="http://www.topografix.com/GPX/1/1 http://www.topografix.com/GPX/1/1/gpx.xsd" version="1.1" creator="VisuGPX - https://www.visugpx.com">
  <metadata>
    <name>sortie fond</name>
    <desc><![CDATA[entrainement aux glieres pour preparer  la nocturne du hibou]]></desc>
  </metadata>
  <trk>
    <name><![CDATA[Tracé 4 mars 2018 9:15:30 AM]]></name>
    <trkseg>
      <trkpt lat="45.9633" lon="6.32755">
        <ele>1404.9544662798</ele>
        <time>2018-03-04T08:15:30Z</time>
      </trkpt>
      <trkpt lat="45.9633" lon="6.32755">
        <ele>1404.9544662798</ele>
        <time>2018-03-04T08:15:33Z</time>
      </trkpt>
      <trkpt lat="45.96352" lon="6.32744">
        <ele>1437.9548011715</ele>
        <time>2018-03-04T08:15:36Z</time>
      </trkpt>
      <trkpt lat="45.96349" lon="6.32771">
        <ele>1429.9546094962</ele>
        <time>2018-03-04T08:16:05Z</time>
      </trkpt>
      <trkpt lat="45.96337" lon="6.32746">
        <ele>1420.9545988582</ele>
        <time>2018-03-04T08:16:10Z</time>
      </trkpt>
      <trkpt lat="45.96342" lon="6.32759">
        <ele>1430.9545945417</ele>
        <time>2018-03-04T08:16:15Z</time>
      </trkpt>
      <trkpt lat="45.96336" lon="6.32741">
        <ele>1427.954616129</ele>
        <time>2018-03-04T08:16:19Z</time>
      </trkpt>
      <trkpt lat="45.96341" lon="6.32751">
        <ele>1432.9546245772</ele>
        <time>2018-03-04T08:18:37Z</time>
      </trkpt>
      <trkpt lat="45.96338" lon="6.32761">
        <ele>1436.9545183945</ele>
        <time>2018-03-04T08:24:19Z</time>
      </trkpt>
      <trkpt lat="45.96339" lon="6.32774">
        <ele>1433.9544571676</ele>
        <time>2018-03-04T08:24:26Z</time>
      </trkpt>
      <trkpt lat="45.96342" lon="6.32785">
        <ele>1431.9544416646</ele>
        <time>2018-03-04T08:24:32Z</time>
      </trkpt>
      <trkpt lat="45.96345" lon="6.32798">
        <ele>1429.9543945944</ele>
        <time>2018-03-04T08:24:36Z</time>
      </trkpt>
      <trkpt lat="45.96353" lon="6.32825">
        <ele>1427.9543369359</ele>
        <time>2018-03-04T08:24:41Z</time>
      </trkpt>
      <trkpt lat="45.96361" lon="6.32855">
        <ele>1425.954268823</ele>
        <time>2018-03-04T08:24:45Z</time>
      </trkpt>
      <trkpt lat="45.9637" lon="6.32881">
        <ele>1423.9542228945</ele>
        <time>2018-03-04T08:24:49Z</time>
      </trkpt>
      <trkpt lat="45.96381" lon="6.32906">
        <ele>1420.9542181738</ele>
        <time>2018-03-04T08:24:53Z</time>
      </trkpt>
      <trkpt lat="45.96392" lon="6.32934">
        <ele>1418.954200129</ele>
        <time>2018-03-04T08:24:57Z</time>
      </trkpt>
      <trkpt lat="45.964" lon="6.32975">
        <ele>1415.954063241</ele>
        <time>2018-03-04T08:25:02Z</time>
      </trkpt>
      <trkpt lat="45.96396" lon="6.33023">
        <ele>1411.9537349284</ele>
        <time>2018-03-04T08:25:07Z</time>
      </trkpt>
      <trkpt lat="45.96387" lon="6.3306">
        <ele>1414.9534056155</ele>
        <time>2018-03-04T08:25:12Z</time>
      </trkpt>
      <trkpt lat="45.96389" lon="6.33075">
        <ele>1415.9533467257</ele>
        <time>2018-03-04T08:25:16Z</time>
      </trkpt>
      <trkpt lat="45.96391" lon="6.3309">
        <ele>1417.9532834254</ele>
        <time>2018-03-04T08:25:20Z</time>
      </trkpt>
      <trkpt lat="45.96395" lon="6.33102">
        <ele>1418.953265648</ele>
        <time>2018-03-04T08:25:24Z</time>
      </trkpt>
      <trkpt lat="45.96401" lon="6.33111">
        <ele>1418.9532930635</ele>
        <time>2018-03-04T08:25:28Z</time>
      </trkpt>
      <trkpt lat="45.96413" lon="6.33132">
        <ele>1420.9533272541</ele>
        <time>2018-03-04T08:25:33Z</time>
      </trkpt>
      <trkpt lat="45.96416" lon="6.33148">
        <ele>1421.953279393</ele>
        <time>2018-03-04T08:25:38Z</time>
      </trkpt>
      <trkpt lat="45.96422" lon="6.33165">
        <ele>1421.9532638679</ele>
        <time>2018-03-04T08:25:43Z</time>
      </trkpt>
      <trkpt lat="45.96431" lon="6.33174">
        <ele>1422.9533198755</ele>
        <time>2018-03-04T08:25:47Z</time>
      </trkpt>
      <trkpt lat="45.96447" lon="6.33188">
        <ele>1424.9534551819</ele>
        <time>2018-03-04T08:25:52Z</time>
      </trkpt>
      <trkpt lat="45.9646" lon="6.33196">
        <ele>1420.9535751361</ele>
        <time>2018-03-04T08:25:56Z</time>
      </trkpt>
      <trkpt lat="45.96473" lon="6.33207">
        <ele>1421.9536820767</ele>
        <time>2018-03-04T08:26:00Z</time>
      </trkpt>
      <trkpt lat="45.96486" lon="6.33218">
        <ele>1424.9537996924</ele>
        <time>2018-03-04T08:26:05Z</time>
      </trkpt>
      <trkpt lat="45.96496" lon="6.33226">
        <ele>1421.953879513</ele>
        <time>2018-03-04T08:26:10Z</time>
      </trkpt>
      <trkpt lat="45.96509" lon="6.33235">
        <ele>1426.9539940362</ele>
        <time>2018-03-04T08:26:14Z</time>
      </trkpt>
      <trkpt lat="45.96518" lon="6.33242">
        <ele>1427.9540856008</ele>
        <time>2018-03-04T08:26:18Z</time>
      </trkpt>
      <trkpt lat="45.96526" lon="6.33249">
        <ele>1427.9541489317</ele>
        <time>2018-03-04T08:26:22Z</time>
      </trkpt>
      <trkpt lat="45.96535" lon="6.33262">
        <ele>1428.954200494</ele>
        <time>2018-03-04T08:26:27Z</time>
      </trkpt>
      <trkpt lat="45.96535" lon="6.33273">
        <ele>1427.9541372715</ele>
        <time>2018-03-04T08:26:31Z</time>
      </trkpt>
      <trkpt lat="45.96536" lon="6.33285">
        <ele>1426.9540790322</ele>
        <time>2018-03-04T08:26:36Z</time>
      </trkpt>
      <trkpt lat="45.9654" lon="6.33298">
        <ele>1427.9540575498</ele>
        <time>2018-03-04T08:26:40Z</time>
      </trkpt>
      <trkpt lat="45.96543" lon="6.33313">
        <ele>1426.9540183154</ele>
        <time>2018-03-04T08:26:45Z</time>
      </trkpt>
      <trkpt lat="45.96546" lon="6.33328">
        <ele>1426.9539709736</ele>
        <time>2018-03-04T08:26:49Z</time>
      </trkpt>
      <trkpt lat="45.96548" lon="6.33345">
        <ele>1427.9539009115</ele>
        <time>2018-03-04T08:26:53Z</time>
      </trkpt>
      <trkpt lat="45.96552" lon="6.33361">
        <ele>1428.9538734084</ele>
        <time>2018-03-04T08:26:57Z</time>
      </trkpt>
      <trkpt lat="45.9656" lon="6.33382">
        <ele>1429.9538607038</ele>
        <time>2018-03-04T08:27:02Z</time>
      </trkpt>
      <trkpt lat="45.96571" lon="6.33395">
        <ele>1430.9539369173</ele>
        <time>2018-03-04T08:27:06Z</time>
      </trkpt>
      <trkpt lat="45.96579" lon="6.33402">
        <ele>1430.9540087548</ele>
        <time>2018-03-04T08:27:10Z</time>
      </trkpt>
      <trkpt lat="45.96592" lon="6.33402">
        <ele>1430.9541847105</ele>
        <time>2018-03-04T08:27:15Z</time>
      </trkpt>
      <trkpt lat="45.966" lon="6.33399">
        <ele>1429.9543087305</ele>
        <time>2018-03-04T08:27:19Z</time>
      </trkpt>
      <trkpt lat="45.96607" lon="6.334">
        <ele>1428.9544034686</ele>
        <time>2018-03-04T08:27:23Z</time>
      </trkpt>
      <trkpt lat="45.96619" lon="6.334">
        <ele>1429.9545508442</ele>
        <time>2018-03-04T08:27:28Z</time>
      </trkpt>
      <trkpt lat="45.96631" lon="6.33401">
        <ele>1429.9547146524</ele>
        <time>2018-03-04T08:27:33Z</time>
      </trkpt>
      <trkpt lat="45.96641" lon="6.33402">
        <ele>1429.9548371393</ele>
        <time>2018-03-04T08:27:37Z</time>
      </trkpt>
      <trkpt lat="45.96652" lon="6.33404">
        <ele>1430.9549764512</ele>
        <time>2018-03-04T08:27:41Z</time>
      </trkpt>
      <trkpt lat="45.96669" lon="6.33411">
        <ele>1431.9551790508</ele>
        <time>2018-03-04T08:27:46Z</time>
      </trkpt>
      <trkpt lat="45.96684" lon="6.33421">
        <ele>1431.9553185293</ele>
        <time>2018-03-04T08:27:51Z</time>
      </trkpt>
      <trkpt lat="45.96698" lon="6.33432">
        <ele>1430.9554464997</ele>
        <time>2018-03-04T08:27:55Z</time>
      </trkpt>
      <trkpt lat="45.96715" lon="6.33447">
        <ele>1429.9555939495</ele>
        <time>2018-03-04T08:28:00Z</time>
      </trkpt>
      <trkpt lat="45.96724" lon="6.33457">
        <ele>1427.9556664694</ele>
        <time>2018-03-04T08:28:04Z</time>
      </trkpt>
      <trkpt lat="45.96742" lon="6.33476">
        <ele>1427.9558172243</ele>
        <time>2018-03-04T08:28:09Z</time>
      </trkpt>
      <trkpt lat="45.96757" lon="6.33493">
        <ele>1426.9559399467</ele>
        <time>2018-03-04T08:28:13Z</time>
      </trkpt>
      <trkpt lat="45.96779" lon="6.33518">
        <ele>1425.9560975582</ele>
        <time>2018-03-04T08:28:18Z</time>
      </trkpt>
      <trkpt lat="45.96799" lon="6.33543">
        <ele>1425.9562459127</ele>
        <time>2018-03-04T08:28:23Z</time>
      </trkpt>
      <trkpt lat="45.96819" lon="6.33568">
        <ele>1424.9563911451</ele>
        <time>2018-03-04T08:28:28Z</time>
      </trkpt>
      <trkpt lat="45.96832" lon="6.33583">
        <ele>1421.9564904544</ele>
        <time>2018-03-04T08:28:32Z</time>
      </trkpt>
      <trkpt lat="45.96845" lon="6.33598">
        <ele>1420.9565907519</ele>
        <time>2018-03-04T08:28:36Z</time>
      </trkpt>
      <trkpt lat="45.96857" lon="6.33619">
        <ele>1420.9566579188</ele>
        <time>2018-03-04T08:28:41Z</time>
      </trkpt>
      <trkpt lat="45.96872" lon="6.33642">
        <ele>1420.9567490186</ele>
        <time>2018-03-04T08:28:46Z</time>
      </trkpt>
      <trkpt lat="45.96886" lon="6.33658">
        <ele>1418.9568575374</ele>
        <time>2018-03-04T08:28:50Z</time>
      </trkpt>
      <trkpt lat="45.9689" lon="6.33692">
        <ele>1416.9567483921</ele>
        <time>2018-03-04T08:28:55Z</time>
      </trkpt>
      <trkpt lat="45.96892" lon="6.33721">
        <ele>1414.9566384934</ele>
        <time>2018-03-04T08:28:59Z</time>
      </trkpt>
      <trkpt lat="45.969" lon="6.33757">
        <ele>1413.9565677843</ele>
        <time>2018-03-04T08:29:04Z</time>
      </trkpt>
      <trkpt lat="45.96912" lon="6.33792">
        <ele>1412.9565646718</ele>
        <time>2018-03-04T08:29:09Z</time>
      </trkpt>
      <trkpt lat="45.96925" lon="6.33818">
        <ele>1410.9566210299</ele>
        <time>2018-03-04T08:29:13Z</time>
      </trkpt>
      <trkpt lat="45.9694" lon="6.33855">
        <ele>1409.9566503466</ele>
        <time>2018-03-04T08:29:18Z</time>
      </trkpt>
      <trkpt lat="45.96956" lon="6.33886">
        <ele>1406.9567164122</ele>
        <time>2018-03-04T08:29:22Z</time>
      </trkpt>
      <trkpt lat="45.96972" lon="6.33928">
        <ele>1406.9567420399</ele>
        <time>2018-03-04T08:29:27Z</time>
      </trkpt>
      <trkpt lat="45.96988" lon="6.33968">
        <ele>1407.9567817622</ele>
        <time>2018-03-04T08:29:32Z</time>
      </trkpt>
      <trkpt lat="45.96997" lon="6.33997">
        <ele>1407.9567737215</ele>
        <time>2018-03-04T08:29:36Z</time>
      </trkpt>
      <trkpt lat="45.97007" lon="6.34023">
        <ele>1407.9567847728</ele>
        <time>2018-03-04T08:29:40Z</time>
      </trkpt>
      <trkpt lat="45.97016" lon="6.3405">
        <ele>1406.9567919682</ele>
        <time>2018-03-04T08:29:44Z</time>
      </trkpt>
      <trkpt lat="45.97024" lon="6.34075">
        <ele>1406.9567877278</ele>
        <time>2018-03-04T08:29:48Z</time>
      </trkpt>
      <trkpt lat="45.97032" lon="6.34103">
        <ele>1405.9567737794</ele>
        <time>2018-03-04T08:29:52Z</time>
      </trkpt>
      <trkpt lat="45.97045" lon="6.34132">
        <ele>1403.9568270409</ele>
        <time>2018-03-04T08:29:57Z</time>
      </trkpt>
      <trkpt lat="45.97053" lon="6.34155">
        <ele>1404.9568394179</ele>
        <time>2018-03-04T08:30:01Z</time>
      </trkpt>
      <trkpt lat="45.9706" lon="6.3418">
        <ele>1405.956819976</ele>
        <time>2018-03-04T08:30:05Z</time>
      </trkpt>
      <trkpt lat="45.9707" lon="6.34211">
        <ele>1405.9568131438</ele>
        <time>2018-03-04T08:30:10Z</time>
      </trkpt>
      <trkpt lat="45.9708" lon="6.34228">
        <ele>1406.956884881</ele>
        <time>2018-03-04T08:30:14Z</time>
      </trkpt>
      <trkpt lat="45.971" lon="6.34246">
        <ele>1406.9571013904</ele>
        <time>2018-03-04T08:30:19Z</time>
      </trkpt>
      <trkpt lat="45.97123" lon="6.34242">
        <ele>1401.9574496644</ele>
        <time>2018-03-04T08:30:24Z</time>
      </trkpt>
      <trkpt lat="45.9714" lon="6.34233">
        <ele>1400.9577501667</ele>
        <time>2018-03-04T08:30:28Z</time>
      </trkpt>
      <trkpt lat="45.97162" lon="6.34229">
        <ele>1398.9580969708</ele>
        <time>2018-03-04T08:30:33Z</time>
      </trkpt>
      <trkpt lat="45.97175" lon="6.34244">
        <ele>1396.9582238698</ele>
        <time>2018-03-04T08:30:37Z</time>
      </trkpt>
      <trkpt lat="45.97191" lon="6.34276">
        <ele>1396.9583084296</ele>
        <time>2018-03-04T08:30:42Z</time>
      </trkpt>
      <trkpt lat="45.9721" lon="6.343">
        <ele>1396.958489987</ele>
        <time>2018-03-04T08:30:46Z</time>
      </trkpt>
      <trkpt lat="45.97236" lon="6.34311">
        <ele>1396.958820826</ele>
        <time>2018-03-04T08:30:50Z</time>
      </trkpt>
      <trkpt lat="45.97259" lon="6.34318">
        <ele>1397.9591343767</ele>
        <time>2018-03-04T08:30:54Z</time>
      </trkpt>
      <trkpt lat="45.97276" lon="6.34328">
        <ele>1399.959336305</ele>
        <time>2018-03-04T08:30:58Z</time>
      </trkpt>
      <trkpt lat="45.97297" lon="6.34341">
        <ele>1397.9596055815</ele>
        <time>2018-03-04T08:31:03Z</time>
      </trkpt>
      <trkpt lat="45.97313" lon="6.34354">
        <ele>1396.9597826096</ele>
        <time>2018-03-04T08:31:08Z</time>
      </trkpt>
      <trkpt lat="45.97328" lon="6.34367">
        <ele>1397.9599570037</ele>
        <time>2018-03-04T08:31:13Z</time>
      </trkpt>
      <trkpt lat="45.97344" lon="6.34376">
        <ele>1397.9601589623</ele>
        <time>2018-03-04T08:31:17Z</time>
      </trkpt>
      <trkpt lat="45.97359" lon="6.34384">
        <ele>1397.9603527974</ele>
        <time>2018-03-04T08:31:21Z</time>
      </trkpt>
      <trkpt lat="45.97368" lon="6.34389">
        <ele>1395.9604671035</ele>
        <time>2018-03-04T08:31:25Z</time>
      </trkpt>
      <trkpt lat="45.97384" lon="6.34396">
        <ele>1397.9606666771</ele>
        <time>2018-03-04T08:31:29Z</time>
      </trkpt>
      <trkpt lat="45.97398" lon="6.34406">
        <ele>1396.9608336688</ele>
        <time>2018-03-04T08:31:34Z</time>
      </trkpt>
      <trkpt lat="45.97416" lon="6.34416">
        <ele>1394.9610665678</ele>
        <time>2018-03-04T08:31:39Z</time>
      </trkpt>
      <trkpt lat="45.97434" lon="6.34428">
        <ele>1395.9612914726</ele>
        <time>2018-03-04T08:31:44Z</time>
      </trkpt>
      <trkpt lat="45.97442" lon="6.34441">
        <ele>1393.9613552859</ele>
        <time>2018-03-04T08:31:48Z</time>
      </trkpt>
      <trkpt lat="45.97448" lon="6.34468">
        <ele>1396.9613434551</ele>
        <time>2018-03-04T08:31:53Z</time>
      </trkpt>
      <trkpt lat="45.97461" lon="6.34484">
        <ele>1396.9614664187</ele>
        <time>2018-03-04T08:31:57Z</time>
      </trkpt>
      <trkpt lat="45.97473" lon="6.34499">
        <ele>1397.9615975153</ele>
        <time>2018-03-04T08:32:01Z</time>
      </trkpt>
      <trkpt lat="45.97485" lon="6.34516">
        <ele>1397.9617077414</ele>
        <time>2018-03-04T08:32:05Z</time>
      </trkpt>
      <trkpt lat="45.97495" lon="6.34532">
        <ele>1398.9618001452</ele>
        <time>2018-03-04T08:32:09Z</time>
      </trkpt>
      <trkpt lat="45.97508" lon="6.3455">
        <ele>1397.9619140298</ele>
        <time>2018-03-04T08:32:14Z</time>
      </trkpt>
      <trkpt lat="45.97523" lon="6.34573">
        <ele>1397.9620557845</ele>
        <time>2018-03-04T08:32:19Z</time>
      </trkpt>
      <trkpt lat="45.97536" lon="6.34592">
        <ele>1398.9621880542</ele>
        <time>2018-03-04T08:32:24Z</time>
      </trkpt>
      <trkpt lat="45.97548" lon="6.34607">
        <ele>1399.9623049818</ele>
        <time>2018-03-04T08:32:28Z</time>
      </trkpt>
      <trkpt lat="45.97558" lon="6.34623">
        <ele>1400.9623997688</ele>
        <time>2018-03-04T08:32:33Z</time>
      </trkpt>
      <trkpt lat="45.97573" lon="6.34642">
        <ele>1401.962562146</ele>
        <time>2018-03-04T08:32:38Z</time>
      </trkpt>
      <trkpt lat="45.97583" lon="6.34659">
        <ele>1401.9626507955</ele>
        <time>2018-03-04T08:32:42Z</time>
      </trkpt>
      <trkpt lat="45.97596" lon="6.34677">
        <ele>1400.9627830185</ele>
        <time>2018-03-04T08:32:47Z</time>
      </trkpt>
      <trkpt lat="45.9761" lon="6.34693">
        <ele>1401.9629322325</ele>
        <time>2018-03-04T08:32:51Z</time>
      </trkpt>
      <trkpt lat="45.9762" lon="6.34707">
        <ele>1401.9630334633</ele>
        <time>2018-03-04T08:32:55Z</time>
      </trkpt>
      <trkpt lat="45.97628" lon="6.3472">
        <ele>1402.9631123411</ele>
        <time>2018-03-04T08:32:59Z</time>
      </trkpt>
      <trkpt lat="45.97638" lon="6.34735">
        <ele>1404.9632082275</ele>
        <time>2018-03-04T08:33:03Z</time>
      </trkpt>
      <trkpt lat="45.9765" lon="6.34753">
        <ele>1404.9633273679</ele>
        <time>2018-03-04T08:33:08Z</time>
      </trkpt>
      <trkpt lat="45.97656" lon="6.34766">
        <ele>1401.9633769875</ele>
        <time>2018-03-04T08:33:12Z</time>
      </trkpt>
      <trkpt lat="45.97664" lon="6.34781">
        <ele>1398.963446082</ele>
        <time>2018-03-04T08:33:17Z</time>
      </trkpt>
      <trkpt lat="45.97675" lon="6.34795">
        <ele>1399.9635660435</ele>
        <time>2018-03-04T08:33:21Z</time>
      </trkpt>
      <trkpt lat="45.97686" lon="6.34811">
        <ele>1399.9636711342</ele>
        <time>2018-03-04T08:33:26Z</time>
      </trkpt>
      <trkpt lat="45.97696" lon="6.34824">
        <ele>1398.9637827706</ele>
        <time>2018-03-04T08:33:30Z</time>
      </trkpt>
      <trkpt lat="45.97705" lon="6.3484">
        <ele>1399.9638759172</ele>
        <time>2018-03-04T08:33:34Z</time>
      </trkpt>
      <trkpt lat="45.97715" lon="6.34855">
        <ele>1399.9639758425</ele>
        <time>2018-03-04T08:33:38Z</time>
      </trkpt>
      <trkpt lat="45.97728" lon="6.34874">
        <ele>1399.9641069312</ele>
        <time>2018-03-04T08:33:43Z</time>
      </trkpt>
      <trkpt lat="45.97739" lon="6.3489">
        <ele>1400.9642257875</ele>
        <time>2018-03-04T08:33:47Z</time>
      </trkpt>
      <trkpt lat="45.97752" lon="6.34912">
        <ele>1401.9643491093</ele>
        <time>2018-03-04T08:33:51Z</time>
      </trkpt>
      <trkpt lat="45.97767" lon="6.34941">
        <ele>1402.9644802987</ele>
        <time>2018-03-04T08:33:56Z</time>
      </trkpt>
      <trkpt lat="45.97771" lon="6.3497">
        <ele>1401.9644475664</ele>
        <time>2018-03-04T08:34:01Z</time>
      </trkpt>
      <trkpt lat="45.97778" lon="6.34997">
        <ele>1401.9644543707</ele>
        <time>2018-03-04T08:34:05Z</time>
      </trkpt>
      <trkpt lat="45.9779" lon="6.35028">
        <ele>1402.9645353646</ele>
        <time>2018-03-04T08:34:09Z</time>
      </trkpt>
      <trkpt lat="45.97792" lon="6.35069">
        <ele>1394.9644249819</ele>
        <time>2018-03-04T08:34:14Z</time>
      </trkpt>
      <trkpt lat="45.97803" lon="6.3511">
        <ele>1391.9644536552</ele>
        <time>2018-03-04T08:34:18Z</time>
      </trkpt>
      <trkpt lat="45.97815" lon="6.35157">
        <ele>1390.9644850073</ele>
        <time>2018-03-04T08:34:22Z</time>
      </trkpt>
      <trkpt lat="45.97831" lon="6.35224">
        <ele>1387.9645259684</ele>
        <time>2018-03-04T08:34:27Z</time>
      </trkpt>
      <trkpt lat="45.97851" lon="6.35257">
        <ele>1385.9647387868</ele>
        <time>2018-03-04T08:34:31Z</time>
      </trkpt>
      <trkpt lat="45.97869" lon="6.35288">
        <ele>1380.9649206083</ele>
        <time>2018-03-04T08:34:35Z</time>
      </trkpt>
      <trkpt lat="45.97886" lon="6.35323">
        <ele>1379.9650888228</ele>
        <time>2018-03-04T08:34:40Z</time>
      </trkpt>
      <trkpt lat="45.97898" lon="6.35349">
        <ele>1381.9652020723</ele>
        <time>2018-03-04T08:34:44Z</time>
      </trkpt>
      <trkpt lat="45.97913" lon="6.35375">
        <ele>1382.9653487715</ele>
        <time>2018-03-04T08:34:48Z</time>
      </trkpt>
      <trkpt lat="45.97932" lon="6.35412">
        <ele>1388.9655478433</ele>
        <time>2018-03-04T08:34:53Z</time>
      </trkpt>
      <trkpt lat="45.97946" lon="6.35441">
        <ele>1387.9656822946</ele>
        <time>2018-03-04T08:34:57Z</time>
      </trkpt>
      <trkpt lat="45.97957" lon="6.35483">
        <ele>1385.965736697</ele>
        <time>2018-03-04T08:35:02Z</time>
      </trkpt>
      <trkpt lat="45.97959" lon="6.35517">
        <ele>1383.9656515173</ele>
        <time>2018-03-04T08:35:06Z</time>
      </trkpt>
      <trkpt lat="45.97978" lon="6.35555">
        <ele>1382.9658602241</ele>
        <time>2018-03-04T08:35:11Z</time>
      </trkpt>
      <trkpt lat="45.97996" lon="6.35577">
        <ele>1384.9660777434</ele>
        <time>2018-03-04T08:35:15Z</time>
      </trkpt>
      <trkpt lat="45.98011" lon="6.35599">
        <ele>1383.9662697364</ele>
        <time>2018-03-04T08:35:19Z</time>
      </trkpt>
      <trkpt lat="45.98024" lon="6.35621">
        <ele>1381.9664140687</ele>
        <time>2018-03-04T08:35:23Z</time>
      </trkpt>
      <trkpt lat="45.98036" lon="6.35643">
        <ele>1381.9665567299</ele>
        <time>2018-03-04T08:35:27Z</time>
      </trkpt>
      <trkpt lat="45.98052" lon="6.35672">
        <ele>1381.966736091</ele>
        <time>2018-03-04T08:35:32Z</time>
      </trkpt>
      <trkpt lat="45.98068" lon="6.35705">
        <ele>1379.9669123136</ele>
        <time>2018-03-04T08:35:37Z</time>
      </trkpt>
      <trkpt lat="45.98078" lon="6.35732">
        <ele>1376.9670034367</ele>
        <time>2018-03-04T08:35:41Z</time>
      </trkpt>
      <trkpt lat="45.98093" lon="6.35761">
        <ele>1379.967159905</ele>
        <time>2018-03-04T08:35:45Z</time>
      </trkpt>
      <trkpt lat="45.98104" lon="6.35789">
        <ele>1380.9672639745</ele>
        <time>2018-03-04T08:35:49Z</time>
      </trkpt>
      <trkpt lat="45.98118" lon="6.35823">
        <ele>1381.967405457</ele>
        <time>2018-03-04T08:35:54Z</time>
      </trkpt>
      <trkpt lat="45.98128" lon="6.35847">
        <ele>1381.9675186215</ele>
        <time>2018-03-04T08:35:58Z</time>
      </trkpt>
      <trkpt lat="45.98141" lon="6.35867">
        <ele>1382.9676723425</ele>
        <time>2018-03-04T08:36:02Z</time>
      </trkpt>
      <trkpt lat="45.98153" lon="6.35882">
        <ele>1379.9678362677</ele>
        <time>2018-03-04T08:36:06Z</time>
      </trkpt>
      <trkpt lat="45.98163" lon="6.35894">
        <ele>1375.9679860293</ele>
        <time>2018-03-04T08:36:10Z</time>
      </trkpt>
      <trkpt lat="45.98179" lon="6.35904">
        <ele>1377.9682215215</ele>
        <time>2018-03-04T08:36:14Z</time>
      </trkpt>
      <trkpt lat="45.98188" lon="6.35917">
        <ele>1374.9683439693</ele>
        <time>2018-03-04T08:36:19Z</time>
      </trkpt>
      <trkpt lat="45.98189" lon="6.35928">
        <ele>1367.9683284825</ele>
        <time>2018-03-04T08:36:23Z</time>
      </trkpt>
      <trkpt lat="45.98199" lon="6.35946">
        <ele>1366.9684576979</ele>
        <time>2018-03-04T08:36:28Z</time>
      </trkpt>
      <trkpt lat="45.98207" lon="6.35965">
        <ele>1365.9685376486</ele>
        <time>2018-03-04T08:36:32Z</time>
      </trkpt>
      <trkpt lat="45.98221" lon="6.3599">
        <ele>1364.9687131194</ele>
        <time>2018-03-04T08:36:37Z</time>
      </trkpt>
      <trkpt lat="45.98229" lon="6.36015">
        <ele>1364.9687831312</ele>
        <time>2018-03-04T08:36:41Z</time>
      </trkpt>
      <trkpt lat="45.98236" lon="6.36032">
        <ele>1362.9688671162</ele>
        <time>2018-03-04T08:36:45Z</time>
      </trkpt>
      <trkpt lat="45.98246" lon="6.36051">
        <ele>1365.9689815702</ele>
        <time>2018-03-04T08:36:49Z</time>
      </trkpt>
      <trkpt lat="45.98252" lon="6.3607">
        <ele>1361.9690319741</ele>
        <time>2018-03-04T08:36:53Z</time>
      </trkpt>
      <trkpt lat="45.98264" lon="6.36099">
        <ele>1364.9691643866</ele>
        <time>2018-03-04T08:36:57Z</time>
      </trkpt>
      <trkpt lat="45.98279" lon="6.36131">
        <ele>1364.9693410125</ele>
        <time>2018-03-04T08:37:02Z</time>
      </trkpt>
      <trkpt lat="45.98289" lon="6.3616">
        <ele>1361.9694523414</ele>
        <time>2018-03-04T08:37:07Z</time>
      </trkpt>
      <trkpt lat="45.98301" lon="6.36177">
        <ele>1359.9696244963</ele>
        <time>2018-03-04T08:37:11Z</time>
      </trkpt>
      <trkpt lat="45.98317" lon="6.36201">
        <ele>1359.9698403514</ele>
        <time>2018-03-04T08:37:16Z</time>
      </trkpt>
      <trkpt lat="45.98327" lon="6.36222">
        <ele>1358.9699520377</ele>
        <time>2018-03-04T08:37:20Z</time>
      </trkpt>
      <trkpt lat="45.98338" lon="6.36252">
        <ele>1360.9700718053</ele>
        <time>2018-03-04T08:37:25Z</time>
      </trkpt>
      <trkpt lat="45.98324" lon="6.36268">
        <ele>1357.9697814233</ele>
        <time>2018-03-04T08:37:29Z</time>
      </trkpt>
      <trkpt lat="45.98308" lon="6.36263">
        <ele>1356.9695044299</ele>
        <time>2018-03-04T08:37:33Z</time>
      </trkpt>
      <trkpt lat="45.98295" lon="6.36242">
        <ele>1356.9693398907</ele>
        <time>2018-03-04T08:37:38Z</time>
      </trkpt>
      <trkpt lat="45.98287" lon="6.36224">
        <ele>1357.9692310568</ele>
        <time>2018-03-04T08:37:42Z</time>
      </trkpt>
      <trkpt lat="45.9827" lon="6.36205">
        <ele>1360.968990732</ele>
        <time>2018-03-04T08:37:47Z</time>
      </trkpt>
      <trkpt lat="45.98255" lon="6.36193">
        <ele>1359.9687422106</ele>
        <time>2018-03-04T08:37:51Z</time>
      </trkpt>
      <trkpt lat="45.98246" lon="6.36179">
        <ele>1356.9686353264</ele>
        <time>2018-03-04T08:37:55Z</time>
      </trkpt>
      <trkpt lat="45.9824" lon="6.36159">
        <ele>1357.9685703958</ele>
        <time>2018-03-04T08:38:00Z</time>
      </trkpt>
      <trkpt lat="45.98234" lon="6.36138">
        <ele>1357.9685322839</ele>
        <time>2018-03-04T08:38:04Z</time>
      </trkpt>
      <trkpt lat="45.98228" lon="6.3612">
        <ele>1355.9684662193</ele>
        <time>2018-03-04T08:38:08Z</time>
      </trkpt>
      <trkpt lat="45.98222" lon="6.36105">
        <ele>1357.9684114725</ele>
        <time>2018-03-04T08:38:12Z</time>
      </trkpt>
      <trkpt lat="45.98215" lon="6.3609">
        <ele>1360.9683275644</ele>
        <time>2018-03-04T08:38:16Z</time>
      </trkpt>
      <trkpt lat="45.98207" lon="6.36076">
        <ele>1361.9682207994</ele>
        <time>2018-03-04T08:38:21Z</time>
      </trkpt>
      <trkpt lat="45.98199" lon="6.36067">
        <ele>1360.9681080154</ele>
        <time>2018-03-04T08:38:25Z</time>
      </trkpt>
      <trkpt lat="45.98185" lon="6.36057">
        <ele>1363.9678917717</ele>
        <time>2018-03-04T08:38:30Z</time>
      </trkpt>
      <trkpt lat="45.98176" lon="6.36046">
        <ele>1363.9677621351</ele>
        <time>2018-03-04T08:38:34Z</time>
      </trkpt>
      <trkpt lat="45.98166" lon="6.36028">
        <ele>1365.9676480087</ele>
        <time>2018-03-04T08:38:38Z</time>
      </trkpt>
      <trkpt lat="45.98157" lon="6.36008">
        <ele>1364.9675404612</ele>
        <time>2018-03-04T08:38:43Z</time>
      </trkpt>
      <trkpt lat="45.98149" lon="6.35992">
        <ele>1364.9674490033</ele>
        <time>2018-03-04T08:38:47Z</time>
      </trkpt>
      <trkpt lat="45.98144" lon="6.35971">
        <ele>1361.967426397</ele>
        <time>2018-03-04T08:38:52Z</time>
      </trkpt>
      <trkpt lat="45.9814" lon="6.35947">
        <ele>1360.9674173112</ele>
        <time>2018-03-04T08:38:56Z</time>
      </trkpt>
      <trkpt lat="45.98126" lon="6.35916">
        <ele>1359.9672667641</ele>
        <time>2018-03-04T08:39:01Z</time>
      </trkpt>
      <trkpt lat="45.98114" lon="6.35894">
        <ele>1360.9671206124</ele>
        <time>2018-03-04T08:39:05Z</time>
      </trkpt>
      <trkpt lat="45.98104" lon="6.35874">
        <ele>1360.9670104198</ele>
        <time>2018-03-04T08:39:09Z</time>
      </trkpt>
      <trkpt lat="45.98095" lon="6.35858">
        <ele>1362.9669114847</ele>
        <time>2018-03-04T08:39:13Z</time>
      </trkpt>
      <trkpt lat="45.98084" lon="6.35838">
        <ele>1361.9667741395</ele>
        <time>2018-03-04T08:39:18Z</time>
      </trkpt>
      <trkpt lat="45.98073" lon="6.3582">
        <ele>1362.9666449885</ele>
        <time>2018-03-04T08:39:23Z</time>
      </trkpt>
      <trkpt lat="45.98026" lon="6.35708">
        <ele>1348.9661738334</ele>
        <time>2018-03-04T08:39:55Z</time>
      </trkpt>
      <trkpt lat="45.9801" lon="6.35698">
        <ele>1362.9659291076</ele>
        <time>2018-03-04T08:39:59Z</time>
      </trkpt>
      <trkpt lat="45.98003" lon="6.35688">
        <ele>1360.9658519124</ele>
        <time>2018-03-04T08:40:03Z</time>
      </trkpt>
      <trkpt lat="45.97995" lon="6.35677">
        <ele>1360.9657547163</ele>
        <time>2018-03-04T08:40:08Z</time>
      </trkpt>
      <trkpt lat="45.97987" lon="6.35664">
        <ele>1361.9656532559</ele>
        <time>2018-03-04T08:40:12Z</time>
      </trkpt>
      <trkpt lat="45.97976" lon="6.35648">
        <ele>1360.965525104</ele>
        <time>2018-03-04T08:40:17Z</time>
      </trkpt>
      <trkpt lat="45.97966" lon="6.35634">
        <ele>1360.9653845643</ele>
        <time>2018-03-04T08:40:21Z</time>
      </trkpt>
      <trkpt lat="45.97955" lon="6.35623">
        <ele>1362.9652412743</ele>
        <time>2018-03-04T08:40:25Z</time>
      </trkpt>
      <trkpt lat="45.97941" lon="6.35611">
        <ele>1363.9650499338</ele>
        <time>2018-03-04T08:40:30Z</time>
      </trkpt>
      <trkpt lat="45.97932" lon="6.35601">
        <ele>1362.9649213823</ele>
        <time>2018-03-04T08:40:34Z</time>
      </trkpt>
      <trkpt lat="45.97922" lon="6.3559">
        <ele>1360.9647951404</ele>
        <time>2018-03-04T08:40:38Z</time>
      </trkpt>
      <trkpt lat="45.97912" lon="6.35572">
        <ele>1363.9646794458</ele>
        <time>2018-03-04T08:40:43Z</time>
      </trkpt>
      <trkpt lat="45.97905" lon="6.35561">
        <ele>1363.9645923282</ele>
        <time>2018-03-04T08:40:47Z</time>
      </trkpt>
      <trkpt lat="45.97897" lon="6.35547">
        <ele>1364.9645141563</ele>
        <time>2018-03-04T08:40:52Z</time>
      </trkpt>
      <trkpt lat="45.97893" lon="6.35537">
        <ele>1364.964483657</ele>
        <time>2018-03-04T08:40:56Z</time>
      </trkpt>
      <trkpt lat="45.97886" lon="6.3552">
        <ele>1364.9644140854</ele>
        <time>2018-03-04T08:41:01Z</time>
      </trkpt>
      <trkpt lat="45.97884" lon="6.35504">
        <ele>1363.9644372841</ele>
        <time>2018-03-04T08:41:05Z</time>
      </trkpt>
      <trkpt lat="45.97884" lon="6.3548">
        <ele>1363.9645266924</ele>
        <time>2018-03-04T08:41:09Z</time>
      </trkpt>
      <trkpt lat="45.97884" lon="6.35448">
        <ele>1365.964622763</ele>
        <time>2018-03-04T08:41:14Z</time>
      </trkpt>
      <trkpt lat="45.97881" lon="6.35432">
        <ele>1366.9646301869</ele>
        <time>2018-03-04T08:41:18Z</time>
      </trkpt>
      <trkpt lat="45.97877" lon="6.3542">
        <ele>1366.9646039372</ele>
        <time>2018-03-04T08:41:22Z</time>
      </trkpt>
      <trkpt lat="45.9787" lon="6.35404">
        <ele>1367.9645457221</ele>
        <time>2018-03-04T08:41:27Z</time>
      </trkpt>
      <trkpt lat="45.97864" lon="6.35393">
        <ele>1367.9644847019</ele>
        <time>2018-03-04T08:41:31Z</time>
      </trkpt>
      <trkpt lat="45.97855" lon="6.35381">
        <ele>1366.964374315</ele>
        <time>2018-03-04T08:41:36Z</time>
      </trkpt>
      <trkpt lat="45.97847" lon="6.35369">
        <ele>1367.9642752539</ele>
        <time>2018-03-04T08:41:40Z</time>
      </trkpt>
      <trkpt lat="45.97838" lon="6.35358">
        <ele>1367.9641757215</ele>
        <time>2018-03-04T08:41:44Z</time>
      </trkpt>
      <trkpt lat="45.97829" lon="6.35343">
        <ele>1369.9640636971</ele>
        <time>2018-03-04T08:41:49Z</time>
      </trkpt>
      <trkpt lat="45.97818" lon="6.35328">
        <ele>1371.9639434445</ele>
        <time>2018-03-04T08:41:54Z</time>
      </trkpt>
      <trkpt lat="45.97812" lon="6.35318">
        <ele>1370.9638749923</ele>
        <time>2018-03-04T08:41:58Z</time>
      </trkpt>
      <trkpt lat="45.97804" lon="6.35306">
        <ele>1371.9637849386</ele>
        <time>2018-03-04T08:42:02Z</time>
      </trkpt>
      <trkpt lat="45.97793" lon="6.35292">
        <ele>1372.9636625209</ele>
        <time>2018-03-04T08:42:07Z</time>
      </trkpt>
      <trkpt lat="45.97787" lon="6.35283">
        <ele>1373.96358588</ele>
        <time>2018-03-04T08:42:11Z</time>
      </trkpt>
      <trkpt lat="45.97779" lon="6.35272">
        <ele>1373.9634916298</ele>
        <time>2018-03-04T08:42:15Z</time>
      </trkpt>
      <trkpt lat="45.97769" lon="6.35259">
        <ele>1374.9633699546</ele>
        <time>2018-03-04T08:42:20Z</time>
      </trkpt>
      <trkpt lat="45.97762" lon="6.35248">
        <ele>1375.9633041772</ele>
        <time>2018-03-04T08:42:24Z</time>
      </trkpt>
      <trkpt lat="45.97752" lon="6.35234">
        <ele>1375.9631965503</ele>
        <time>2018-03-04T08:42:29Z</time>
      </trkpt>
      <trkpt lat="45.97744" lon="6.35223">
        <ele>1376.9631017127</ele>
        <time>2018-03-04T08:42:33Z</time>
      </trkpt>
      <trkpt lat="45.97734" lon="6.35213">
        <ele>1378.9629746489</ele>
        <time>2018-03-04T08:42:38Z</time>
      </trkpt>
      <trkpt lat="45.97724" lon="6.35206">
        <ele>1380.9628259525</ele>
        <time>2018-03-04T08:42:42Z</time>
      </trkpt>
      <trkpt lat="45.97715" lon="6.35199">
        <ele>1380.9627091984</ele>
        <time>2018-03-04T08:42:46Z</time>
      </trkpt>
      <trkpt lat="45.97709" lon="6.35193">
        <ele>1381.9626343862</ele>
        <time>2018-03-04T08:42:50Z</time>
      </trkpt>
      <trkpt lat="45.97702" lon="6.35181">
        <ele>1381.9625660702</ele>
        <time>2018-03-04T08:42:54Z</time>
      </trkpt>
      <trkpt lat="45.97695" lon="6.35171">
        <ele>1382.9624870588</ele>
        <time>2018-03-04T08:42:58Z</time>
      </trkpt>
      <trkpt lat="45.97685" lon="6.35158">
        <ele>1383.9623761991</ele>
        <time>2018-03-04T08:43:03Z</time>
      </trkpt>
      <trkpt lat="45.97679" lon="6.35151">
        <ele>1384.962306644</ele>
        <time>2018-03-04T08:43:07Z</time>
      </trkpt>
      <trkpt lat="45.97671" lon="6.35136">
        <ele>1385.962235815</ele>
        <time>2018-03-04T08:43:12Z</time>
      </trkpt>
      <trkpt lat="45.97664" lon="6.35121">
        <ele>1385.9621719259</ele>
        <time>2018-03-04T08:43:17Z</time>
      </trkpt>
      <trkpt lat="45.97656" lon="6.35108">
        <ele>1385.9620974595</ele>
        <time>2018-03-04T08:43:22Z</time>
      </trkpt>
      <trkpt lat="45.9765" lon="6.35096">
        <ele>1384.9620351972</ele>
        <time>2018-03-04T08:43:26Z</time>
      </trkpt>
      <trkpt lat="45.97643" lon="6.35085">
        <ele>1385.961973094</ele>
        <time>2018-03-04T08:43:30Z</time>
      </trkpt>
      <trkpt lat="45.97637" lon="6.35073">
        <ele>1387.9619105894</ele>
        <time>2018-03-04T08:43:34Z</time>
      </trkpt>
      <trkpt lat="45.97631" lon="6.3506">
        <ele>1387.9618657578</ele>
        <time>2018-03-04T08:43:39Z</time>
      </trkpt>
      <trkpt lat="45.97625" lon="6.35048">
        <ele>1388.9618230993</ele>
        <time>2018-03-04T08:43:43Z</time>
      </trkpt>
      <trkpt lat="45.9762" lon="6.35032">
        <ele>1387.9617895131</ele>
        <time>2018-03-04T08:43:48Z</time>
      </trkpt>
      <trkpt lat="45.97615" lon="6.3502">
        <ele>1386.9617658726</ele>
        <time>2018-03-04T08:43:52Z</time>
      </trkpt>
      <trkpt lat="45.97611" lon="6.35007">
        <ele>1387.9617525128</ele>
        <time>2018-03-04T08:43:56Z</time>
      </trkpt>
      <trkpt lat="45.97608" lon="6.34995">
        <ele>1387.9617434439</ele>
        <time>2018-03-04T08:44:00Z</time>
      </trkpt>
      <trkpt lat="45.97604" lon="6.34984">
        <ele>1387.9617233485</ele>
        <time>2018-03-04T08:44:04Z</time>
      </trkpt>
      <trkpt lat="45.97596" lon="6.34969">
        <ele>1388.961652526</ele>
        <time>2018-03-04T08:44:09Z</time>
      </trkpt>
      <trkpt lat="45.9759" lon="6.34957">
        <ele>1387.9615981839</ele>
        <time>2018-03-04T08:44:13Z</time>
      </trkpt>
      <trkpt lat="45.97579" lon="6.34944">
        <ele>1389.9614742702</ele>
        <time>2018-03-04T08:44:18Z</time>
      </trkpt>
      <trkpt lat="45.97568" lon="6.3493">
        <ele>1390.9613588237</ele>
        <time>2018-03-04T08:44:22Z</time>
      </trkpt>
      <trkpt lat="45.97556" lon="6.34918">
        <ele>1391.961216374</ele>
        <time>2018-03-04T08:44:26Z</time>
      </trkpt>
      <trkpt lat="45.97539" lon="6.34915">
        <ele>1393.9609644853</ele>
        <time>2018-03-04T08:44:31Z</time>
      </trkpt>
      <trkpt lat="45.97521" lon="6.3492">
        <ele>1393.9606547889</ele>
        <time>2018-03-04T08:44:36Z</time>
      </trkpt>
      <trkpt lat="45.97509" lon="6.34927">
        <ele>1392.9604402943</ele>
        <time>2018-03-04T08:44:40Z</time>
      </trkpt>
      <trkpt lat="45.97496" lon="6.34932">
        <ele>1392.9602142724</ele>
        <time>2018-03-04T08:44:44Z</time>
      </trkpt>
      <trkpt lat="45.97479" lon="6.34939">
        <ele>1393.9599126124</ele>
        <time>2018-03-04T08:44:49Z</time>
      </trkpt>
      <trkpt lat="45.97467" lon="6.34943">
        <ele>1393.9597008535</ele>
        <time>2018-03-04T08:44:53Z</time>
      </trkpt>
      <trkpt lat="45.97456" lon="6.34947">
        <ele>1393.9595030297</ele>
        <time>2018-03-04T08:44:57Z</time>
      </trkpt>
      <trkpt lat="45.97446" lon="6.34951">
        <ele>1395.9593419642</ele>
        <time>2018-03-04T08:45:02Z</time>
      </trkpt>
      <trkpt lat="45.97435" lon="6.34955">
        <ele>1395.9591483111</ele>
        <time>2018-03-04T08:45:07Z</time>
      </trkpt>
      <trkpt lat="45.97424" lon="6.3495">
        <ele>1394.9589887412</ele>
        <time>2018-03-04T08:45:11Z</time>
      </trkpt>
      <trkpt lat="45.97418" lon="6.34936">
        <ele>1394.9589460214</ele>
        <time>2018-03-04T08:45:15Z</time>
      </trkpt>
      <trkpt lat="45.97417" lon="6.34909">
        <ele>1390.9590459036</ele>
        <time>2018-03-04T08:45:20Z</time>
      </trkpt>
      <trkpt lat="45.97415" lon="6.34877">
        <ele>1388.9591556895</ele>
        <time>2018-03-04T08:45:24Z</time>
      </trkpt>
      <trkpt lat="45.97415" lon="6.34847">
        <ele>1388.9592683119</ele>
        <time>2018-03-04T08:45:28Z</time>
      </trkpt>
      <trkpt lat="45.97411" lon="6.34811">
        <ele>1386.9593585833</ele>
        <time>2018-03-04T08:45:33Z</time>
      </trkpt>
      <trkpt lat="45.97402" lon="6.3479">
        <ele>1387.9592996196</ele>
        <time>2018-03-04T08:45:37Z</time>
      </trkpt>
      <trkpt lat="45.97386" lon="6.3476">
        <ele>1386.9591713302</ele>
        <time>2018-03-04T08:45:42Z</time>
      </trkpt>
      <trkpt lat="45.97371" lon="6.34734">
        <ele>1386.9590461702</ele>
        <time>2018-03-04T08:45:47Z</time>
      </trkpt>
      <trkpt lat="45.97357" lon="6.34714">
        <ele>1385.9589225855</ele>
        <time>2018-03-04T08:45:51Z</time>
      </trkpt>
      <trkpt lat="45.97345" lon="6.34692">
        <ele>1385.9588318839</ele>
        <time>2018-03-04T08:45:55Z</time>
      </trkpt>
      <trkpt lat="45.97336" lon="6.34676">
        <ele>1382.9587605136</ele>
        <time>2018-03-04T08:45:59Z</time>
      </trkpt>
      <trkpt lat="45.97326" lon="6.34659">
        <ele>1382.9586691434</ele>
        <time>2018-03-04T08:46:03Z</time>
      </trkpt>
      <trkpt lat="45.9731" lon="6.34638">
        <ele>1382.958517207</ele>
        <time>2018-03-04T08:46:08Z</time>
      </trkpt>
      <trkpt lat="45.97294" lon="6.34619">
        <ele>1382.9583476739</ele>
        <time>2018-03-04T08:46:13Z</time>
      </trkpt>
      <trkpt lat="45.97281" lon="6.34604">
        <ele>1383.9582150809</ele>
        <time>2018-03-04T08:46:17Z</time>
      </trkpt>
      <trkpt lat="45.97267" lon="6.34589">
        <ele>1383.9580624098</ele>
        <time>2018-03-04T08:46:22Z</time>
      </trkpt>
      <trkpt lat="45.97252" lon="6.34577">
        <ele>1384.9578850195</ele>
        <time>2018-03-04T08:46:27Z</time>
      </trkpt>
      <trkpt lat="45.97239" lon="6.34572">
        <ele>1383.9577156099</ele>
        <time>2018-03-04T08:46:31Z</time>
      </trkpt>
      <trkpt lat="45.97221" lon="6.34571">
        <ele>1384.9574402594</ele>
        <time>2018-03-04T08:46:36Z</time>
      </trkpt>
      <trkpt lat="45.97206" lon="6.34573">
        <ele>1386.9572096725</ele>
        <time>2018-03-04T08:46:41Z</time>
      </trkpt>
      <trkpt lat="45.97195" lon="6.34573">
        <ele>1387.9570346561</ele>
        <time>2018-03-04T08:46:45Z</time>
      </trkpt>
      <trkpt lat="45.97185" lon="6.34569">
        <ele>1387.9569066159</ele>
        <time>2018-03-04T08:46:49Z</time>
      </trkpt>
      <trkpt lat="45.97172" lon="6.34563">
        <ele>1386.9567274184</ele>
        <time>2018-03-04T08:46:54Z</time>
      </trkpt>
      <trkpt lat="45.97157" lon="6.34551">
        <ele>1384.9565570169</ele>
        <time>2018-03-04T08:46:59Z</time>
      </trkpt>
      <trkpt lat="45.97146" lon="6.34544">
        <ele>1383.9564163743</ele>
        <time>2018-03-04T08:47:03Z</time>
      </trkpt>
      <trkpt lat="45.97133" lon="6.34536">
        <ele>1384.9562539649</ele>
        <time>2018-03-04T08:47:07Z</time>
      </trkpt>
      <trkpt lat="45.97122" lon="6.34532">
        <ele>1384.9561094995</ele>
        <time>2018-03-04T08:47:11Z</time>
      </trkpt>
      <trkpt lat="45.97108" lon="6.34527">
        <ele>1386.9559170239</ele>
        <time>2018-03-04T08:47:16Z</time>
      </trkpt>
      <trkpt lat="45.97096" lon="6.34533">
        <ele>1386.9557064842</ele>
        <time>2018-03-04T08:47:20Z</time>
      </trkpt>
      <trkpt lat="45.9708" lon="6.34537">
        <ele>1384.9554495456</ele>
        <time>2018-03-04T08:47:25Z</time>
      </trkpt>
      <trkpt lat="45.97063" lon="6.34535">
        <ele>1388.9551950105</ele>
        <time>2018-03-04T08:47:30Z</time>
      </trkpt>
      <trkpt lat="45.97051" lon="6.34535">
        <ele>1387.9550125234</ele>
        <time>2018-03-04T08:47:34Z</time>
      </trkpt>
      <trkpt lat="45.97039" lon="6.34529">
        <ele>1388.9548479024</ele>
        <time>2018-03-04T08:47:38Z</time>
      </trkpt>
      <trkpt lat="45.97028" lon="6.34515">
        <ele>1387.9547613731</ele>
        <time>2018-03-04T08:47:43Z</time>
      </trkpt>
      <trkpt lat="45.97023" lon="6.34502">
        <ele>1387.9547358011</ele>
        <time>2018-03-04T08:47:47Z</time>
      </trkpt>
      <trkpt lat="45.97017" lon="6.34487">
        <ele>1387.9547180642</ele>
        <time>2018-03-04T08:47:51Z</time>
      </trkpt>
      <trkpt lat="45.97012" lon="6.34474">
        <ele>1385.9547069902</ele>
        <time>2018-03-04T08:47:55Z</time>
      </trkpt>
      <trkpt lat="45.97006" lon="6.34465">
        <ele>1386.9546649883</ele>
        <time>2018-03-04T08:48:06Z</time>
      </trkpt>
      <trkpt lat="45.97" lon="6.34459">
        <ele>1390.9545877158</ele>
        <time>2018-03-04T08:48:34Z</time>
      </trkpt>
      <trkpt lat="45.96988" lon="6.34459">
        <ele>1389.9544149608</ele>
        <time>2018-03-04T08:48:38Z</time>
      </trkpt>
      <trkpt lat="45.96969" lon="6.34458">
        <ele>1390.9541356125</ele>
        <time>2018-03-04T08:48:43Z</time>
      </trkpt>
      <trkpt lat="45.96952" lon="6.34463">
        <ele>1388.9538516636</ele>
        <time>2018-03-04T08:48:48Z</time>
      </trkpt>
      <trkpt lat="45.96937" lon="6.34464">
        <ele>1389.9536162762</ele>
        <time>2018-03-04T08:48:52Z</time>
      </trkpt>
      <trkpt lat="45.96921" lon="6.34464">
        <ele>1391.9533852446</ele>
        <time>2018-03-04T08:48:57Z</time>
      </trkpt>
      <trkpt lat="45.969" lon="6.34467">
        <ele>1392.9530400505</ele>
        <time>2018-03-04T08:49:01Z</time>
      </trkpt>
      <trkpt lat="45.96883" lon="6.34475">
        <ele>1391.9527433011</ele>
        <time>2018-03-04T08:49:05Z</time>
      </trkpt>
      <trkpt lat="45.96872" lon="6.34501">
        <ele>1388.9524531262</ele>
        <time>2018-03-04T08:49:10Z</time>
      </trkpt>
      <trkpt lat="45.96887" lon="6.34542">
        <ele>1388.952465509</ele>
        <time>2018-03-04T08:49:14Z</time>
      </trkpt>
      <trkpt lat="45.96896" lon="6.34579">
        <ele>1388.9524180658</ele>
        <time>2018-03-04T08:49:18Z</time>
      </trkpt>
      <trkpt lat="45.96897" lon="6.34607">
        <ele>1389.9522984869</ele>
        <time>2018-03-04T08:49:23Z</time>
      </trkpt>
      <trkpt lat="45.96894" lon="6.3462">
        <ele>1391.952185664</ele>
        <time>2018-03-04T08:49:27Z</time>
      </trkpt>
      <trkpt lat="45.96891" lon="6.34634">
        <ele>1392.952080398</ele>
        <time>2018-03-04T08:49:31Z</time>
      </trkpt>
      <trkpt lat="45.96899" lon="6.34651">
        <ele>1394.9521187227</ele>
        <time>2018-03-04T08:49:36Z</time>
      </trkpt>
      <trkpt lat="45.96903" lon="6.34663">
        <ele>1393.9521222055</ele>
        <time>2018-03-04T08:49:40Z</time>
      </trkpt>
      <trkpt lat="45.96902" lon="6.34684">
        <ele>1394.9520022495</ele>
        <time>2018-03-04T08:49:45Z</time>
      </trkpt>
      <trkpt lat="45.96911" lon="6.34712">
        <ele>1393.9520021551</ele>
        <time>2018-03-04T08:49:50Z</time>
      </trkpt>
      <trkpt lat="45.96918" lon="6.3473">
        <ele>1394.9520175897</ele>
        <time>2018-03-04T08:49:55Z</time>
      </trkpt>
      <trkpt lat="45.96922" lon="6.34741">
        <ele>1398.9520361456</ele>
        <time>2018-03-04T08:49:59Z</time>
      </trkpt>
      <trkpt lat="45.96931" lon="6.34747">
        <ele>1400.9521390432</ele>
        <time>2018-03-04T08:50:03Z</time>
      </trkpt>
      <trkpt lat="45.96932" lon="6.34759">
        <ele>1399.952102857</ele>
        <time>2018-03-04T08:50:07Z</time>
      </trkpt>
      <trkpt lat="45.96944" lon="6.34778">
        <ele>1394.9521901628</ele>
        <time>2018-03-04T08:50:12Z</time>
      </trkpt>
      <trkpt lat="45.96952" lon="6.348">
        <ele>1395.9522132278</ele>
        <time>2018-03-04T08:50:16Z</time>
      </trkpt>
      <trkpt lat="45.96964" lon="6.34832">
        <ele>1397.9522437289</ele>
        <time>2018-03-04T08:50:21Z</time>
      </trkpt>
      <trkpt lat="45.96961" lon="6.34846">
        <ele>1396.9521174953</ele>
        <time>2018-03-04T08:50:25Z</time>
      </trkpt>
      <trkpt lat="45.96957" lon="6.34859">
        <ele>1394.9519990326</ele>
        <time>2018-03-04T08:50:29Z</time>
      </trkpt>
      <trkpt lat="45.96957" lon="6.34872">
        <ele>1392.9519400972</ele>
        <time>2018-03-04T08:50:33Z</time>
      </trkpt>
      <trkpt lat="45.96955" lon="6.34889">
        <ele>1387.9518253234</ele>
        <time>2018-03-04T08:50:37Z</time>
      </trkpt>
      <trkpt lat="45.96959" lon="6.3491">
        <ele>1389.9517744506</ele>
        <time>2018-03-04T08:50:41Z</time>
      </trkpt>
      <trkpt lat="45.96969" lon="6.34935">
        <ele>1391.9518267203</ele>
        <time>2018-03-04T08:50:46Z</time>
      </trkpt>
      <trkpt lat="45.96981" lon="6.34954">
        <ele>1395.9519187151</ele>
        <time>2018-03-04T08:50:50Z</time>
      </trkpt>
      <trkpt lat="45.96996" lon="6.34959">
        <ele>1396.9521253426</ele>
        <time>2018-03-04T08:50:54Z</time>
      </trkpt>
      <trkpt lat="45.97021" lon="6.34964">
        <ele>1398.9525072271</ele>
        <time>2018-03-04T08:50:59Z</time>
      </trkpt>
      <trkpt lat="45.97033" lon="6.34981">
        <ele>1398.9526173326</ele>
        <time>2018-03-04T08:51:03Z</time>
      </trkpt>
      <trkpt lat="45.9704" lon="6.35001">
        <ele>1397.9526403905</ele>
        <time>2018-03-04T08:51:08Z</time>
      </trkpt>
      <trkpt lat="45.97046" lon="6.3502">
        <ele>1398.9526345844</ele>
        <time>2018-03-04T08:51:12Z</time>
      </trkpt>
      <trkpt lat="45.97053" lon="6.35039">
        <ele>1399.9526638788</ele>
        <time>2018-03-04T08:51:17Z</time>
      </trkpt>
      <trkpt lat="45.97062" lon="6.35053">
        <ele>1397.9527402416</ele>
        <time>2018-03-04T08:51:21Z</time>
      </trkpt>
      <trkpt lat="45.97069" lon="6.35067">
        <ele>1395.9527893246</ele>
        <time>2018-03-04T08:51:25Z</time>
      </trkpt>
      <trkpt lat="45.97072" lon="6.35078">
        <ele>1393.952790555</ele>
        <time>2018-03-04T08:51:29Z</time>
      </trkpt>
      <trkpt lat="45.97071" lon="6.35099">
        <ele>1395.952669189</ele>
        <time>2018-03-04T08:51:33Z</time>
      </trkpt>
      <trkpt lat="45.97072" lon="6.35113">
        <ele>1393.9526168307</ele>
        <time>2018-03-04T08:51:37Z</time>
      </trkpt>
      <trkpt lat="45.97074" lon="6.35146">
        <ele>1390.9524978566</ele>
        <time>2018-03-04T08:51:42Z</time>
      </trkpt>
      <trkpt lat="45.97062" lon="6.35176">
        <ele>1389.9521598339</ele>
        <time>2018-03-04T08:51:46Z</time>
      </trkpt>
      <trkpt lat="45.97025" lon="6.35187">
        <ele>1385.9515038229</ele>
        <time>2018-03-04T08:51:51Z</time>
      </trkpt>
      <trkpt lat="45.97011" lon="6.3523">
        <ele>1378.9510766673</ele>
        <time>2018-03-04T08:51:56Z</time>
      </trkpt>
      <trkpt lat="45.97036" lon="6.35276">
        <ele>1378.9512694294</ele>
        <time>2018-03-04T08:52:00Z</time>
      </trkpt>
      <trkpt lat="45.97024" lon="6.35317">
        <ele>1377.9508713482</ele>
        <time>2018-03-04T08:52:04Z</time>
      </trkpt>
      <trkpt lat="45.97007" lon="6.35326">
        <ele>1374.9505529409</ele>
        <time>2018-03-04T08:52:08Z</time>
      </trkpt>
      <trkpt lat="45.96984" lon="6.3531">
        <ele>1374.9502496445</ele>
        <time>2018-03-04T08:52:13Z</time>
      </trkpt>
      <trkpt lat="45.96987" lon="6.35289">
        <ele>1372.9503927964</ele>
        <time>2018-03-04T08:52:17Z</time>
      </trkpt>
      <trkpt lat="45.96994" lon="6.35275">
        <ele>1370.9505832296</ele>
        <time>2018-03-04T08:52:21Z</time>
      </trkpt>
      <trkpt lat="45.96998" lon="6.35261">
        <ele>1368.9507104192</ele>
        <time>2018-03-04T08:52:25Z</time>
      </trkpt>
      <trkpt lat="45.96996" lon="6.35246">
        <ele>1369.9507516518</ele>
        <time>2018-03-04T08:52:29Z</time>
      </trkpt>
      <trkpt lat="45.96991" lon="6.35234">
        <ele>1367.9507232945</ele>
        <time>2018-03-04T08:52:34Z</time>
      </trkpt>
      <trkpt lat="45.96976" lon="6.35223">
        <ele>1367.9505369042</ele>
        <time>2018-03-04T08:52:39Z</time>
      </trkpt>
      <trkpt lat="45.96967" lon="6.35214">
        <ele>1363.9504242866</ele>
        <time>2018-03-04T08:52:43Z</time>
      </trkpt>
      <trkpt lat="45.9696" lon="6.35201">
        <ele>1364.9503851666</ele>
        <time>2018-03-04T08:52:47Z</time>
      </trkpt>
      <trkpt lat="45.96952" lon="6.3519">
        <ele>1366.9502992286</ele>
        <time>2018-03-04T08:52:52Z</time>
      </trkpt>
      <trkpt lat="45.96948" lon="6.35177">
        <ele>1369.9502980418</ele>
        <time>2018-03-04T08:52:57Z</time>
      </trkpt>
      <trkpt lat="45.96945" lon="6.3516">
        <ele>1379.9503400663</ele>
        <time>2018-03-04T08:53:02Z</time>
      </trkpt>
      <trkpt lat="45.96949" lon="6.35149">
        <ele>1383.9504629253</ele>
        <time>2018-03-04T08:53:08Z</time>
      </trkpt>
      <trkpt lat="45.96959" lon="6.35155">
        <ele>1380.9505833675</ele>
        <time>2018-03-04T08:53:13Z</time>
      </trkpt>
      <trkpt lat="45.96976" lon="6.35183">
        <ele>1379.9507331686</ele>
        <time>2018-03-04T08:53:18Z</time>
      </trkpt>
      <trkpt lat="45.96994" lon="6.35199">
        <ele>1382.9509390757</ele>
        <time>2018-03-04T08:53:22Z</time>
      </trkpt>
      <trkpt lat="45.97" lon="6.35192">
        <ele>1379.9510821496</ele>
        <time>2018-03-04T08:53:27Z</time>
      </trkpt>
      <trkpt lat="45.97003" lon="6.35181">
        <ele>1379.9511835232</ele>
        <time>2018-03-04T08:53:32Z</time>
      </trkpt>
      <trkpt lat="45.97001" lon="6.35169">
        <ele>1381.9512014478</ele>
        <time>2018-03-04T08:53:38Z</time>
      </trkpt>
      <trkpt lat="45.97001" lon="6.35157">
        <ele>1383.9512552093</ele>
        <time>2018-03-04T08:53:43Z</time>
      </trkpt>
      <trkpt lat="45.96998" lon="6.35146">
        <ele>1383.9512722874</ele>
        <time>2018-03-04T08:53:48Z</time>
      </trkpt>
      <trkpt lat="45.96995" lon="6.35132">
        <ele>1384.951290997</ele>
        <time>2018-03-04T08:53:53Z</time>
      </trkpt>
      <trkpt lat="45.96993" lon="6.3512">
        <ele>1385.9513122515</ele>
        <time>2018-03-04T08:53:59Z</time>
      </trkpt>
      <trkpt lat="45.96994" lon="6.35111">
        <ele>1386.9513678295</ele>
        <time>2018-03-04T08:54:03Z</time>
      </trkpt>
      <trkpt lat="45.96995" lon="6.351">
        <ele>1385.9514352522</ele>
        <time>2018-03-04T08:54:07Z</time>
      </trkpt>
      <trkpt lat="45.96995" lon="6.35085">
        <ele>1385.951504317</ele>
        <time>2018-03-04T08:54:12Z</time>
      </trkpt>
      <trkpt lat="45.96993" lon="6.35073">
        <ele>1384.9515316984</ele>
        <time>2018-03-04T08:54:20Z</time>
      </trkpt>
      <trkpt lat="45.96985" lon="6.35066">
        <ele>1384.9514454754</ele>
        <time>2018-03-04T08:54:28Z</time>
      </trkpt>
      <trkpt lat="45.9698" lon="6.35057">
        <ele>1383.9514078352</ele>
        <time>2018-03-04T08:54:33Z</time>
      </trkpt>
      <trkpt lat="45.96975" lon="6.35047">
        <ele>1379.9513781621</ele>
        <time>2018-03-04T08:54:39Z</time>
      </trkpt>
      <trkpt lat="45.9697" lon="6.35033">
        <ele>1381.9513503039</ele>
        <time>2018-03-04T08:54:44Z</time>
      </trkpt>
      <trkpt lat="45.96966" lon="6.35022">
        <ele>1382.9513462542</ele>
        <time>2018-03-04T08:54:48Z</time>
      </trkpt>
      <trkpt lat="45.96962" lon="6.35008">
        <ele>1383.9513452783</ele>
        <time>2018-03-04T08:54:53Z</time>
      </trkpt>
      <trkpt lat="45.96957" lon="6.34997">
        <ele>1383.9513270494</ele>
        <time>2018-03-04T08:54:57Z</time>
      </trkpt>
      <trkpt lat="45.96951" lon="6.34982">
        <ele>1385.9513097421</ele>
        <time>2018-03-04T08:55:02Z</time>
      </trkpt>
      <trkpt lat="45.96943" lon="6.34965">
        <ele>1390.9512637913</ele>
        <time>2018-03-04T08:55:07Z</time>
      </trkpt>
      <trkpt lat="45.96934" lon="6.34948">
        <ele>1392.9512065339</ele>
        <time>2018-03-04T08:55:12Z</time>
      </trkpt>
      <trkpt lat="45.9693" lon="6.34936">
        <ele>1389.9511898652</ele>
        <time>2018-03-04T08:55:16Z</time>
      </trkpt>
      <trkpt lat="45.96924" lon="6.34923">
        <ele>1386.9511599127</ele>
        <time>2018-03-04T08:55:20Z</time>
      </trkpt>
      <trkpt lat="45.96917" lon="6.34909">
        <ele>1384.9511197098</ele>
        <time>2018-03-04T08:55:24Z</time>
      </trkpt>
      <trkpt lat="45.9691" lon="6.34894">
        <ele>1384.9510802863</ele>
        <time>2018-03-04T08:55:28Z</time>
      </trkpt>
      <trkpt lat="45.96902" lon="6.34876">
        <ele>1386.9510485607</ele>
        <time>2018-03-04T08:55:32Z</time>
      </trkpt>
      <trkpt lat="45.96892" lon="6.34855">
        <ele>1386.9509970797</ele>
        <time>2018-03-04T08:55:37Z</time>
      </trkpt>
      <trkpt lat="45.96884" lon="6.34833">
        <ele>1387.950973461</ele>
        <time>2018-03-04T08:55:42Z</time>
      </trkpt>
      <trkpt lat="45.96876" lon="6.34814">
        <ele>1390.9509413265</ele>
        <time>2018-03-04T08:55:46Z</time>
      </trkpt>
      <trkpt lat="45.96865" lon="6.34794">
        <ele>1389.9508728023</ele>
        <time>2018-03-04T08:55:51Z</time>
      </trkpt>
      <trkpt lat="45.96854" lon="6.34778">
        <ele>1388.9507782111</ele>
        <time>2018-03-04T08:55:56Z</time>
      </trkpt>
      <trkpt lat="45.96845" lon="6.34763">
        <ele>1389.9507121247</ele>
        <time>2018-03-04T08:56:00Z</time>
      </trkpt>
      <trkpt lat="45.96834" lon="6.34751">
        <ele>1391.9505993199</ele>
        <time>2018-03-04T08:56:04Z</time>
      </trkpt>
      <trkpt lat="45.96821" lon="6.34745">
        <ele>1391.950428001</ele>
        <time>2018-03-04T08:56:09Z</time>
      </trkpt>
      <trkpt lat="45.9681" lon="6.34736">
        <ele>1392.9503128434</ele>
        <time>2018-03-04T08:56:13Z</time>
      </trkpt>
      <trkpt lat="45.96801" lon="6.34728">
        <ele>1393.9502147141</ele>
        <time>2018-03-04T08:56:17Z</time>
      </trkpt>
      <trkpt lat="45.96794" lon="6.34714">
        <ele>1393.9501623669</ele>
        <time>2018-03-04T08:56:22Z</time>
      </trkpt>
      <trkpt lat="45.96788" lon="6.34701">
        <ele>1396.9501453271</ele>
        <time>2018-03-04T08:56:27Z</time>
      </trkpt>
      <trkpt lat="45.96787" lon="6.3469">
        <ele>1395.9501823777</ele>
        <time>2018-03-04T08:56:31Z</time>
      </trkpt>
      <trkpt lat="45.96786" lon="6.34675">
        <ele>1398.9502547222</ele>
        <time>2018-03-04T08:56:35Z</time>
      </trkpt>
      <trkpt lat="45.96786" lon="6.34657">
        <ele>1399.9503351447</ele>
        <time>2018-03-04T08:56:40Z</time>
      </trkpt>
      <trkpt lat="45.96785" lon="6.34641">
        <ele>1400.9504128867</ele>
        <time>2018-03-04T08:56:45Z</time>
      </trkpt>
      <trkpt lat="45.96785" lon="6.34627">
        <ele>1399.9504823366</ele>
        <time>2018-03-04T08:56:49Z</time>
      </trkpt>
      <trkpt lat="45.96784" lon="6.34609">
        <ele>1397.9505548828</ele>
        <time>2018-03-04T08:56:53Z</time>
      </trkpt>
      <trkpt lat="45.96783" lon="6.34588">
        <ele>1398.9506492112</ele>
        <time>2018-03-04T08:56:58Z</time>
      </trkpt>
      <trkpt lat="45.96779" lon="6.3456">
        <ele>1398.9507368084</ele>
        <time>2018-03-04T08:57:02Z</time>
      </trkpt>
      <trkpt lat="45.96775" lon="6.34537">
        <ele>1401.9507907429</ele>
        <time>2018-03-04T08:57:07Z</time>
      </trkpt>
      <trkpt lat="45.96772" lon="6.34509">
        <ele>1402.9508841273</ele>
        <time>2018-03-04T08:57:12Z</time>
      </trkpt>
      <trkpt lat="45.96772" lon="6.3449">
        <ele>1399.9509937963</ele>
        <time>2018-03-04T08:57:16Z</time>
      </trkpt>
      <trkpt lat="45.96765" lon="6.34466">
        <ele>1398.9509995243</ele>
        <time>2018-03-04T08:57:21Z</time>
      </trkpt>
      <trkpt lat="45.96759" lon="6.34443">
        <ele>1401.9510353808</ele>
        <time>2018-03-04T08:57:25Z</time>
      </trkpt>
      <trkpt lat="45.96754" lon="6.3442">
        <ele>1410.9510815281</ele>
        <time>2018-03-04T08:57:29Z</time>
      </trkpt>
      <trkpt lat="45.96748" lon="6.34412">
        <ele>1413.9510295144</ele>
        <time>2018-03-04T08:57:34Z</time>
      </trkpt>
      <trkpt lat="45.96741" lon="6.34409">
        <ele>1410.9509303913</ele>
        <time>2018-03-04T08:57:38Z</time>
      </trkpt>
      <trkpt lat="45.9673" lon="6.34406">
        <ele>1411.9507811313</ele>
        <time>2018-03-04T08:57:42Z</time>
      </trkpt>
      <trkpt lat="45.96722" lon="6.34402">
        <ele>1412.9506832796</ele>
        <time>2018-03-04T08:57:50Z</time>
      </trkpt>
      <trkpt lat="45.96714" lon="6.34402">
        <ele>1415.9505703604</ele>
        <time>2018-03-04T08:57:57Z</time>
      </trkpt>
      <trkpt lat="45.96706" lon="6.344">
        <ele>1414.9504564834</ele>
        <time>2018-03-04T08:58:02Z</time>
      </trkpt>
      <trkpt lat="45.96697" lon="6.34398">
        <ele>1411.9503304912</ele>
        <time>2018-03-04T08:58:06Z</time>
      </trkpt>
      <trkpt lat="45.96689" lon="6.34394">
        <ele>1410.9502341461</ele>
        <time>2018-03-04T08:58:13Z</time>
      </trkpt>
      <trkpt lat="45.96681" lon="6.3439">
        <ele>1411.9501376918</ele>
        <time>2018-03-04T08:58:18Z</time>
      </trkpt>
      <trkpt lat="45.96673" lon="6.34391">
        <ele>1413.9500130273</ele>
        <time>2018-03-04T08:58:23Z</time>
      </trkpt>
      <trkpt lat="45.96665" lon="6.34391">
        <ele>1413.9498823179</ele>
        <time>2018-03-04T08:58:29Z</time>
      </trkpt>
      <trkpt lat="45.96654" lon="6.3439">
        <ele>1414.9497245142</ele>
        <time>2018-03-04T08:58:34Z</time>
      </trkpt>
      <trkpt lat="45.96641" lon="6.34383">
        <ele>1413.9495776504</ele>
        <time>2018-03-04T08:58:38Z</time>
      </trkpt>
      <trkpt lat="45.96628" lon="6.34369">
        <ele>1412.949446738</ele>
        <time>2018-03-04T08:58:43Z</time>
      </trkpt>
      <trkpt lat="45.96617" lon="6.3436">
        <ele>1415.9493376616</ele>
        <time>2018-03-04T08:58:47Z</time>
      </trkpt>
      <trkpt lat="45.96606" lon="6.34349">
        <ele>1413.9492238785</ele>
        <time>2018-03-04T08:58:52Z</time>
      </trkpt>
      <trkpt lat="45.96598" lon="6.34342">
        <ele>1412.9491467821</ele>
        <time>2018-03-04T08:58:56Z</time>
      </trkpt>
      <trkpt lat="45.96592" lon="6.34333">
        <ele>1411.9491085355</ele>
        <time>2018-03-04T08:59:00Z</time>
      </trkpt>
      <trkpt lat="45.96583" lon="6.34324">
        <ele>1415.9490213433</ele>
        <time>2018-03-04T08:59:05Z</time>
      </trkpt>
      <trkpt lat="45.96582" lon="6.34317">
        <ele>1415.9490459598</ele>
        <time>2018-03-04T08:59:09Z</time>
      </trkpt>
      <trkpt lat="45.96597" lon="6.34288">
        <ele>1420.9494306358</ele>
        <time>2018-03-04T08:59:14Z</time>
      </trkpt>
      <trkpt lat="45.96632" lon="6.34297">
        <ele>1418.9498925426</ele>
        <time>2018-03-04T08:59:18Z</time>
      </trkpt>
      <trkpt lat="45.96652" lon="6.34286">
        <ele>1412.9502563471</ele>
        <time>2018-03-04T08:59:22Z</time>
      </trkpt>
      <trkpt lat="45.9666" lon="6.34257">
        <ele>1408.9505269607</ele>
        <time>2018-03-04T08:59:26Z</time>
      </trkpt>
      <trkpt lat="45.96653" lon="6.34214">
        <ele>1405.950656204</ele>
        <time>2018-03-04T08:59:31Z</time>
      </trkpt>
      <trkpt lat="45.96644" lon="6.34199">
        <ele>1406.9506069083</ele>
        <time>2018-03-04T08:59:35Z</time>
      </trkpt>
      <trkpt lat="45.96639" lon="6.34192">
        <ele>1407.9505600196</ele>
        <time>2018-03-04T08:59:39Z</time>
      </trkpt>
      <trkpt lat="45.96635" lon="6.34179">
        <ele>1410.9505760327</ele>
        <time>2018-03-04T08:59:44Z</time>
      </trkpt>
      <trkpt lat="45.96631" lon="6.34164">
        <ele>1415.9505998741</ele>
        <time>2018-03-04T08:59:48Z</time>
      </trkpt>
      <trkpt lat="45.96626" lon="6.34151">
        <ele>1413.9506028118</ele>
        <time>2018-03-04T08:59:53Z</time>
      </trkpt>
      <trkpt lat="45.9662" lon="6.34143">
        <ele>1415.9505521882</ele>
        <time>2018-03-04T08:59:57Z</time>
      </trkpt>
      <trkpt lat="45.96616" lon="6.34132">
        <ele>1418.9505620599</ele>
        <time>2018-03-04T09:00:01Z</time>
      </trkpt>
      <trkpt lat="45.96607" lon="6.34122">
        <ele>1422.9504786906</ele>
        <time>2018-03-04T09:00:05Z</time>
      </trkpt>
      <trkpt lat="45.96601" lon="6.34113">
        <ele>1417.9504442564</ele>
        <time>2018-03-04T09:00:12Z</time>
      </trkpt>
      <trkpt lat="45.96597" lon="6.34105">
        <ele>1413.9504225413</ele>
        <time>2018-03-04T09:00:17Z</time>
      </trkpt>
      <trkpt lat="45.96597" lon="6.34092">
        <ele>1417.9504997388</ele>
        <time>2018-03-04T09:00:32Z</time>
      </trkpt>
      <trkpt lat="45.96604" lon="6.34085">
        <ele>1416.9506382531</ele>
        <time>2018-03-04T09:02:05Z</time>
      </trkpt>
      <trkpt lat="45.96605" lon="6.34072">
        <ele>1412.9507258337</ele>
        <time>2018-03-04T09:02:09Z</time>
      </trkpt>
      <trkpt lat="45.96598" lon="6.34053">
        <ele>1406.9507183594</ele>
        <time>2018-03-04T09:02:13Z</time>
      </trkpt>
      <trkpt lat="45.96572" lon="6.3403">
        <ele>1404.9504713858</ele>
        <time>2018-03-04T09:02:18Z</time>
      </trkpt>
      <trkpt lat="45.96562" lon="6.34006">
        <ele>1402.9504611792</ele>
        <time>2018-03-04T09:02:22Z</time>
      </trkpt>
      <trkpt lat="45.9656" lon="6.33964">
        <ele>1403.9506599708</ele>
        <time>2018-03-04T09:02:26Z</time>
      </trkpt>
      <trkpt lat="45.96551" lon="6.33938">
        <ele>1408.9506744413</ele>
        <time>2018-03-04T09:02:31Z</time>
      </trkpt>
      <trkpt lat="45.96543" lon="6.33927">
        <ele>1410.9506163507</ele>
        <time>2018-03-04T09:02:35Z</time>
      </trkpt>
      <trkpt lat="45.96536" lon="6.33915">
        <ele>1410.9505921997</ele>
        <time>2018-03-04T09:02:40Z</time>
      </trkpt>
      <trkpt lat="45.96531" lon="6.33909">
        <ele>1410.9505466807</ele>
        <time>2018-03-04T09:02:44Z</time>
      </trkpt>
      <trkpt lat="45.96521" lon="6.33897">
        <ele>1410.9504843132</ele>
        <time>2018-03-04T09:02:49Z</time>
      </trkpt>
      <trkpt lat="45.96517" lon="6.33884">
        <ele>1412.9504871348</ele>
        <time>2018-03-04T09:02:53Z</time>
      </trkpt>
      <trkpt lat="45.96511" lon="6.33876">
        <ele>1410.9504545678</ele>
        <time>2018-03-04T09:02:58Z</time>
      </trkpt>
      <trkpt lat="45.96506" lon="6.33866">
        <ele>1409.9504401342</ele>
        <time>2018-03-04T09:03:03Z</time>
      </trkpt>
      <trkpt lat="45.96502" lon="6.33859">
        <ele>1409.950413037</ele>
        <time>2018-03-04T09:03:07Z</time>
      </trkpt>
      <trkpt lat="45.96495" lon="6.33847">
        <ele>1412.9503858447</ele>
        <time>2018-03-04T09:03:11Z</time>
      </trkpt>
      <trkpt lat="45.96492" lon="6.33832">
        <ele>1414.9504218469</ele>
        <time>2018-03-04T09:03:16Z</time>
      </trkpt>
      <trkpt lat="45.96488" lon="6.33818">
        <ele>1417.9504513586</ele>
        <time>2018-03-04T09:03:21Z</time>
      </trkpt>
      <trkpt lat="45.96491" lon="6.33808">
        <ele>1419.9505536863</ele>
        <time>2018-03-04T09:03:25Z</time>
      </trkpt>
      <trkpt lat="45.96493" lon="6.33796">
        <ele>1414.9506377428</ele>
        <time>2018-03-04T09:03:31Z</time>
      </trkpt>
      <trkpt lat="45.96493" lon="6.33784">
        <ele>1414.9507095367</ele>
        <time>2018-03-04T09:03:36Z</time>
      </trkpt>
      <trkpt lat="45.96487" lon="6.33767">
        <ele>1417.9507274184</ele>
        <time>2018-03-04T09:03:41Z</time>
      </trkpt>
      <trkpt lat="45.96484" lon="6.33752">
        <ele>1419.9507671978</ele>
        <time>2018-03-04T09:03:45Z</time>
      </trkpt>
      <trkpt lat="45.96481" lon="6.33738">
        <ele>1421.9507945845</ele>
        <time>2018-03-04T09:03:50Z</time>
      </trkpt>
      <trkpt lat="45.96476" lon="6.33728">
        <ele>1421.9507927033</ele>
        <time>2018-03-04T09:03:55Z</time>
      </trkpt>
      <trkpt lat="45.96469" lon="6.33719">
        <ele>1421.9507463561</ele>
        <time>2018-03-04T09:04:00Z</time>
      </trkpt>
      <trkpt lat="45.96459" lon="6.33714">
        <ele>1421.950631671</ele>
        <time>2018-03-04T09:04:04Z</time>
      </trkpt>
      <trkpt lat="45.96458" lon="6.33701">
        <ele>1418.9506879847</ele>
        <time>2018-03-04T09:04:09Z</time>
      </trkpt>
      <trkpt lat="45.96453" lon="6.33691">
        <ele>1416.9506827201</ele>
        <time>2018-03-04T09:04:14Z</time>
      </trkpt>
      <trkpt lat="45.96449" lon="6.33682">
        <ele>1414.9506709734</ele>
        <time>2018-03-04T09:04:19Z</time>
      </trkpt>
      <trkpt lat="45.96439" lon="6.33671">
        <ele>1419.9505990566</ele>
        <time>2018-03-04T09:04:23Z</time>
      </trkpt>
      <trkpt lat="45.96434" lon="6.33665">
        <ele>1419.9505645663</ele>
        <time>2018-03-04T09:04:27Z</time>
      </trkpt>
      <trkpt lat="45.96427" lon="6.33655">
        <ele>1422.9505267897</ele>
        <time>2018-03-04T09:04:31Z</time>
      </trkpt>
      <trkpt lat="45.96421" lon="6.33644">
        <ele>1422.9505088929</ele>
        <time>2018-03-04T09:04:36Z</time>
      </trkpt>
      <trkpt lat="45.96418" lon="6.33633">
        <ele>1421.9505185414</ele>
        <time>2018-03-04T09:04:40Z</time>
      </trkpt>
      <trkpt lat="45.96414" lon="6.33616">
        <ele>1424.9505607042</ele>
        <time>2018-03-04T09:04:45Z</time>
      </trkpt>
      <trkpt lat="45.96412" lon="6.336">
        <ele>1426.9506246687</ele>
        <time>2018-03-04T09:04:50Z</time>
      </trkpt>
      <trkpt lat="45.96407" lon="6.33586">
        <ele>1429.9506445617</ele>
        <time>2018-03-04T09:04:54Z</time>
      </trkpt>
      <trkpt lat="45.96404" lon="6.33574">
        <ele>1430.9506743145</ele>
        <time>2018-03-04T09:04:58Z</time>
      </trkpt>
      <trkpt lat="45.96402" lon="6.3356">
        <ele>1430.9507193463</ele>
        <time>2018-03-04T09:05:02Z</time>
      </trkpt>
      <trkpt lat="45.96398" lon="6.33543">
        <ele>1429.9507595014</ele>
        <time>2018-03-04T09:05:07Z</time>
      </trkpt>
      <trkpt lat="45.96396" lon="6.33515">
        <ele>1430.9509011749</ele>
        <time>2018-03-04T09:05:12Z</time>
      </trkpt>
      <trkpt lat="45.96397" lon="6.33497">
        <ele>1430.9510153061</ele>
        <time>2018-03-04T09:05:17Z</time>
      </trkpt>
      <trkpt lat="45.96397" lon="6.3348">
        <ele>1432.9511200479</ele>
        <time>2018-03-04T09:05:21Z</time>
      </trkpt>
      <trkpt lat="45.96396" lon="6.33467">
        <ele>1432.9511764434</ele>
        <time>2018-03-04T09:05:25Z</time>
      </trkpt>
      <trkpt lat="45.96394" lon="6.33447">
        <ele>1435.951259211</ele>
        <time>2018-03-04T09:05:30Z</time>
      </trkpt>
      <trkpt lat="45.96392" lon="6.33431">
        <ele>1437.9513349557</ele>
        <time>2018-03-04T09:05:34Z</time>
      </trkpt>
      <trkpt lat="45.96391" lon="6.33417">
        <ele>1439.9514005322</ele>
        <time>2018-03-04T09:05:38Z</time>
      </trkpt>
      <trkpt lat="45.96387" lon="6.33405">
        <ele>1436.9514161097</ele>
        <time>2018-03-04T09:05:42Z</time>
      </trkpt>
      <trkpt lat="45.96383" lon="6.33388">
        <ele>1437.9514549191</ele>
        <time>2018-03-04T09:05:47Z</time>
      </trkpt>
      <trkpt lat="45.96393" lon="6.33364">
        <ele>1433.9517332911</ele>
        <time>2018-03-04T09:05:52Z</time>
      </trkpt>
      <trkpt lat="45.96398" lon="6.33354">
        <ele>1430.951857345</ele>
        <time>2018-03-04T09:05:56Z</time>
      </trkpt>
      <trkpt lat="45.96394" lon="6.33336">
        <ele>1428.9519063673</ele>
        <time>2018-03-04T09:06:01Z</time>
      </trkpt>
      <trkpt lat="45.96406" lon="6.33326">
        <ele>1430.9521214121</ele>
        <time>2018-03-04T09:06:05Z</time>
      </trkpt>
      <trkpt lat="45.96401" lon="6.33312">
        <ele>1431.9521398511</ele>
        <time>2018-03-04T09:06:09Z</time>
      </trkpt>
      <trkpt lat="45.96397" lon="6.33275">
        <ele>1427.9522954657</ele>
        <time>2018-03-04T09:06:13Z</time>
      </trkpt>
      <trkpt lat="45.96389" lon="6.33209">
        <ele>1427.9525780986</ele>
        <time>2018-03-04T09:06:17Z</time>
      </trkpt>
      <trkpt lat="45.9638" lon="6.3313">
        <ele>1425.9529097175</ele>
        <time>2018-03-04T09:06:22Z</time>
      </trkpt>
      <trkpt lat="45.96376" lon="6.33066">
        <ele>1425.953233112</ele>
        <time>2018-03-04T09:06:26Z</time>
      </trkpt>
      <trkpt lat="45.96382" lon="6.33021">
        <ele>1419.9535755368</ele>
        <time>2018-03-04T09:06:30Z</time>
      </trkpt>
      <trkpt lat="45.96386" lon="6.32994">
        <ele>1419.9537713807</ele>
        <time>2018-03-04T09:06:34Z</time>
      </trkpt>
      <trkpt lat="45.96379" lon="6.32991">
        <ele>1419.9536991017</ele>
        <time>2018-03-04T09:07:02Z</time>
      </trkpt>
      <trkpt lat="45.96369" lon="6.32992">
        <ele>1415.9535709641</ele>
        <time>2018-03-04T09:07:06Z</time>
      </trkpt>
      <trkpt lat="45.96345" lon="6.32986">
        <ele>1412.9532978409</ele>
        <time>2018-03-04T09:07:11Z</time>
      </trkpt>
      <trkpt lat="45.96312" lon="6.32969">
        <ele>1410.952972667</ele>
        <time>2018-03-04T09:07:16Z</time>
      </trkpt>
      <trkpt lat="45.9629" lon="6.32961">
        <ele>1407.9527467131</ele>
        <time>2018-03-04T09:07:20Z</time>
      </trkpt>
      <trkpt lat="45.96272" lon="6.3295">
        <ele>1405.9525808166</ele>
        <time>2018-03-04T09:07:24Z</time>
      </trkpt>
      <trkpt lat="45.96254" lon="6.32942">
        <ele>1405.9523984233</ele>
        <time>2018-03-04T09:07:28Z</time>
      </trkpt>
      <trkpt lat="45.96241" lon="6.32936">
        <ele>1404.9522665867</ele>
        <time>2018-03-04T09:07:32Z</time>
      </trkpt>
      <trkpt lat="45.96227" lon="6.3293">
        <ele>1405.952119397</ele>
        <time>2018-03-04T09:07:37Z</time>
      </trkpt>
      <trkpt lat="45.96216" lon="6.32925">
        <ele>1404.9520141987</ele>
        <time>2018-03-04T09:07:41Z</time>
      </trkpt>
      <trkpt lat="45.96208" lon="6.32921">
        <ele>1407.9519418328</ele>
        <time>2018-03-04T09:07:43Z</time>
      </trkpt>
      <trkpt lat="45.96127" lon="6.32797">
        <ele>1416.9516851497</ele>
        <time>2018-03-04T09:08:14Z</time>
      </trkpt>
      <trkpt lat="45.96108" lon="6.32784">
        <ele>1408.9515198218</ele>
        <time>2018-03-04T09:08:19Z</time>
      </trkpt>
      <trkpt lat="45.96098" lon="6.32777">
        <ele>1406.9514466693</ele>
        <time>2018-03-04T09:08:23Z</time>
      </trkpt>
      <trkpt lat="45.96091" lon="6.32769">
        <ele>1407.9514031712</ele>
        <time>2018-03-04T09:08:27Z</time>
      </trkpt>
      <trkpt lat="45.96084" lon="6.3276">
        <ele>1407.9513828556</ele>
        <time>2018-03-04T09:08:31Z</time>
      </trkpt>
      <trkpt lat="45.96076" lon="6.32746">
        <ele>1406.9513709573</ele>
        <time>2018-03-04T09:08:35Z</time>
      </trkpt>
      <trkpt lat="45.96069" lon="6.32728">
        <ele>1408.951395926</ele>
        <time>2018-03-04T09:08:40Z</time>
      </trkpt>
      <trkpt lat="45.96061" lon="6.32707">
        <ele>1404.9514228373</ele>
        <time>2018-03-04T09:08:45Z</time>
      </trkpt>
      <trkpt lat="45.96051" lon="6.32687">
        <ele>1401.9514234827</ele>
        <time>2018-03-04T09:08:49Z</time>
      </trkpt>
      <trkpt lat="45.96047" lon="6.32661">
        <ele>1402.9515388852</ele>
        <time>2018-03-04T09:08:53Z</time>
      </trkpt>
      <trkpt lat="45.96043" lon="6.32634">
        <ele>1401.9516652768</ele>
        <time>2018-03-04T09:08:57Z</time>
      </trkpt>
      <trkpt lat="45.96028" lon="6.326">
        <ele>1403.9517004214</ele>
        <time>2018-03-04T09:09:02Z</time>
      </trkpt>
      <trkpt lat="45.96015" lon="6.32577">
        <ele>1403.9516919495</ele>
        <time>2018-03-04T09:09:07Z</time>
      </trkpt>
      <trkpt lat="45.96005" lon="6.32562">
        <ele>1401.9516640754</ele>
        <time>2018-03-04T09:09:11Z</time>
      </trkpt>
      <trkpt lat="45.95996" lon="6.32537">
        <ele>1397.9517111081</ele>
        <time>2018-03-04T09:09:15Z</time>
      </trkpt>
      <trkpt lat="45.95982" lon="6.32498">
        <ele>1392.9517981217</ele>
        <time>2018-03-04T09:09:20Z</time>
      </trkpt>
      <trkpt lat="45.95965" lon="6.3248">
        <ele>1392.9517088682</ele>
        <time>2018-03-04T09:09:24Z</time>
      </trkpt>
      <trkpt lat="45.95947" lon="6.32459">
        <ele>1394.9516330513</ele>
        <time>2018-03-04T09:09:29Z</time>
      </trkpt>
      <trkpt lat="45.95936" lon="6.32443">
        <ele>1394.9516030131</ele>
        <time>2018-03-04T09:09:33Z</time>
      </trkpt>
      <trkpt lat="45.95923" lon="6.3243">
        <ele>1393.9515361225</ele>
        <time>2018-03-04T09:09:37Z</time>
      </trkpt>
      <trkpt lat="45.9591" lon="6.32409">
        <ele>1393.9515143643</ele>
        <time>2018-03-04T09:09:42Z</time>
      </trkpt>
      <trkpt lat="45.95898" lon="6.32395">
        <ele>1394.9514716593</ele>
        <time>2018-03-04T09:09:46Z</time>
      </trkpt>
      <trkpt lat="45.9588" lon="6.3239">
        <ele>1392.951288357</ele>
        <time>2018-03-04T09:09:51Z</time>
      </trkpt>
      <trkpt lat="45.95873" lon="6.32387">
        <ele>1391.9512199273</ele>
        <time>2018-03-04T09:09:55Z</time>
      </trkpt>
      <trkpt lat="45.95864" lon="6.32378">
        <ele>1391.9511710016</ele>
        <time>2018-03-04T09:09:59Z</time>
      </trkpt>
      <trkpt lat="45.95854" lon="6.32368">
        <ele>1395.9511252177</ele>
        <time>2018-03-04T09:10:03Z</time>
      </trkpt>
      <trkpt lat="45.95842" lon="6.32361">
        <ele>1396.9510323319</ele>
        <time>2018-03-04T09:10:08Z</time>
      </trkpt>
      <trkpt lat="45.95829" lon="6.32352">
        <ele>1399.9509372072</ele>
        <time>2018-03-04T09:10:13Z</time>
      </trkpt>
      <trkpt lat="45.9582" lon="6.3234">
        <ele>1398.9509114968</ele>
        <time>2018-03-04T09:10:17Z</time>
      </trkpt>
      <trkpt lat="45.95804" lon="6.32323">
        <ele>1401.9508362037</ele>
        <time>2018-03-04T09:10:22Z</time>
      </trkpt>
      <trkpt lat="45.95793" lon="6.32315">
        <ele>1401.9507642673</ele>
        <time>2018-03-04T09:10:26Z</time>
      </trkpt>
      <trkpt lat="45.95781" lon="6.32305">
        <ele>1398.9506901927</ele>
        <time>2018-03-04T09:10:31Z</time>
      </trkpt>
      <trkpt lat="45.95769" lon="6.32295">
        <ele>1398.9506133709</ele>
        <time>2018-03-04T09:10:36Z</time>
      </trkpt>
      <trkpt lat="45.95761" lon="6.32283">
        <ele>1396.950599211</ele>
        <time>2018-03-04T09:10:40Z</time>
      </trkpt>
      <trkpt lat="45.95752" lon="6.32272">
        <ele>1398.9505723963</ele>
        <time>2018-03-04T09:10:44Z</time>
      </trkpt>
      <trkpt lat="45.95739" lon="6.32261">
        <ele>1402.9504916394</ele>
        <time>2018-03-04T09:10:49Z</time>
      </trkpt>
      <trkpt lat="45.95732" lon="6.32258">
        <ele>1401.9504319095</ele>
        <time>2018-03-04T09:10:53Z</time>
      </trkpt>
      <trkpt lat="45.95724" lon="6.32252">
        <ele>1399.9503814316</ele>
        <time>2018-03-04T09:10:58Z</time>
      </trkpt>
      <trkpt lat="45.95717" lon="6.32245">
        <ele>1402.9503533405</ele>
        <time>2018-03-04T09:11:02Z</time>
      </trkpt>
      <trkpt lat="45.95708" lon="6.32233">
        <ele>1403.9503312579</ele>
        <time>2018-03-04T09:11:06Z</time>
      </trkpt>
      <trkpt lat="45.95696" lon="6.3222">
        <ele>1400.9502791759</ele>
        <time>2018-03-04T09:11:11Z</time>
      </trkpt>
      <trkpt lat="45.95685" lon="6.32205">
        <ele>1396.9502560576</ele>
        <time>2018-03-04T09:11:15Z</time>
      </trkpt>
      <trkpt lat="45.95673" lon="6.32183">
        <ele>1395.9502701911</ele>
        <time>2018-03-04T09:11:19Z</time>
      </trkpt>
      <trkpt lat="45.95638" lon="6.32173">
        <ele>1395.9499373648</ele>
        <time>2018-03-04T09:11:24Z</time>
      </trkpt>
      <trkpt lat="45.95615" lon="6.32193">
        <ele>1393.9495289023</ele>
        <time>2018-03-04T09:11:28Z</time>
      </trkpt>
      <trkpt lat="45.95592" lon="6.32219">
        <ele>1392.9490810079</ele>
        <time>2018-03-04T09:11:32Z</time>
      </trkpt>
      <trkpt lat="45.95564" lon="6.32226">
        <ele>1390.9487115594</ele>
        <time>2018-03-04T09:11:36Z</time>
      </trkpt>
      <trkpt lat="45.95528" lon="6.32255">
        <ele>1390.9480955869</ele>
        <time>2018-03-04T09:11:41Z</time>
      </trkpt>
      <trkpt lat="45.95511" lon="6.32278">
        <ele>1389.9477216361</ele>
        <time>2018-03-04T09:11:46Z</time>
      </trkpt>
      <trkpt lat="45.955" lon="6.32286">
        <ele>1389.9475357046</ele>
        <time>2018-03-04T09:11:50Z</time>
      </trkpt>
      <trkpt lat="45.95488" lon="6.32298">
        <ele>1390.9473172309</ele>
        <time>2018-03-04T09:11:54Z</time>
      </trkpt>
      <trkpt lat="45.95478" lon="6.32305">
        <ele>1391.947147596</ele>
        <time>2018-03-04T09:11:58Z</time>
      </trkpt>
      <trkpt lat="45.95462" lon="6.32313">
        <ele>1391.9469011474</ele>
        <time>2018-03-04T09:12:03Z</time>
      </trkpt>
      <trkpt lat="45.95446" lon="6.32302">
        <ele>1386.9467942334</ele>
        <time>2018-03-04T09:12:08Z</time>
      </trkpt>
      <trkpt lat="45.95429" lon="6.32298">
        <ele>1388.9466269659</ele>
        <time>2018-03-04T09:12:13Z</time>
      </trkpt>
      <trkpt lat="45.95415" lon="6.32303">
        <ele>1389.9464288239</ele>
        <time>2018-03-04T09:12:17Z</time>
      </trkpt>
      <trkpt lat="45.95397" lon="6.32312">
        <ele>1390.9461433762</ele>
        <time>2018-03-04T09:12:22Z</time>
      </trkpt>
      <trkpt lat="45.95381" lon="6.32318">
        <ele>1391.9459217067</ele>
        <time>2018-03-04T09:12:26Z</time>
      </trkpt>
      <trkpt lat="45.9536" lon="6.32327">
        <ele>1393.9456054272</ele>
        <time>2018-03-04T09:12:30Z</time>
      </trkpt>
      <trkpt lat="45.95352" lon="6.32308">
        <ele>1383.9456429664</ele>
        <time>2018-03-04T09:12:35Z</time>
      </trkpt>
      <trkpt lat="45.95366" lon="6.32272">
        <ele>1377.9460833513</ele>
        <time>2018-03-04T09:12:39Z</time>
      </trkpt>
      <trkpt lat="45.95355" lon="6.32247">
        <ele>1375.9461457289</ele>
        <time>2018-03-04T09:12:44Z</time>
      </trkpt>
      <trkpt lat="45.95349" lon="6.32238">
        <ele>1374.9461347204</ele>
        <time>2018-03-04T09:12:50Z</time>
      </trkpt>
      <trkpt lat="45.95342" lon="6.32232">
        <ele>1373.9461018136</ele>
        <time>2018-03-04T09:12:58Z</time>
      </trkpt>
      <trkpt lat="45.95337" lon="6.32231">
        <ele>1370.9460446244</ele>
        <time>2018-03-04T09:13:02Z</time>
      </trkpt>
      <trkpt lat="45.95327" lon="6.32235">
        <ele>1371.945909518</ele>
        <time>2018-03-04T09:13:06Z</time>
      </trkpt>
      <trkpt lat="45.95318" lon="6.32233">
        <ele>1372.9458181656</ele>
        <time>2018-03-04T09:13:12Z</time>
      </trkpt>
      <trkpt lat="45.95312" lon="6.32229">
        <ele>1373.9457773779</ele>
        <time>2018-03-04T09:13:16Z</time>
      </trkpt>
      <trkpt lat="45.953" lon="6.32218">
        <ele>1375.9457161599</ele>
        <time>2018-03-04T09:13:21Z</time>
      </trkpt>
      <trkpt lat="45.95294" lon="6.3221">
        <ele>1378.9457201197</ele>
        <time>2018-03-04T09:13:25Z</time>
      </trkpt>
      <trkpt lat="45.95285" lon="6.32198">
        <ele>1383.9457008052</ele>
        <time>2018-03-04T09:13:30Z</time>
      </trkpt>
      <trkpt lat="45.95276" lon="6.32192">
        <ele>1385.9456485762</ele>
        <time>2018-03-04T09:13:35Z</time>
      </trkpt>
      <trkpt lat="45.9527" lon="6.32187">
        <ele>1383.945608019</ele>
        <time>2018-03-04T09:13:40Z</time>
      </trkpt>
      <trkpt lat="45.95262" lon="6.32178">
        <ele>1384.9455889999</ele>
        <time>2018-03-04T09:13:44Z</time>
      </trkpt>
      <trkpt lat="45.95255" lon="6.32167">
        <ele>1385.9455949642</ele>
        <time>2018-03-04T09:13:49Z</time>
      </trkpt>
      <trkpt lat="45.95249" lon="6.32154">
        <ele>1391.9456229728</ele>
        <time>2018-03-04T09:13:53Z</time>
      </trkpt>
      <trkpt lat="45.95245" lon="6.32141">
        <ele>1392.9456667719</ele>
        <time>2018-03-04T09:13:58Z</time>
      </trkpt>
      <trkpt lat="45.95246" lon="6.32129">
        <ele>1394.9457739521</ele>
        <time>2018-03-04T09:14:03Z</time>
      </trkpt>
      <trkpt lat="45.95242" lon="6.32116">
        <ele>1395.9458284812</ele>
        <time>2018-03-04T09:14:07Z</time>
      </trkpt>
      <trkpt lat="45.95231" lon="6.32102">
        <ele>1396.9458088718</ele>
        <time>2018-03-04T09:14:12Z</time>
      </trkpt>
      <trkpt lat="45.9523" lon="6.32089">
        <ele>1395.9458989075</ele>
        <time>2018-03-04T09:14:17Z</time>
      </trkpt>
      <trkpt lat="45.9523" lon="6.32078">
        <ele>1396.9459846847</ele>
        <time>2018-03-04T09:14:21Z</time>
      </trkpt>
      <trkpt lat="45.95232" lon="6.32066">
        <ele>1395.9460925614</ele>
        <time>2018-03-04T09:14:26Z</time>
      </trkpt>
      <trkpt lat="45.95232" lon="6.32053">
        <ele>1393.9461955735</ele>
        <time>2018-03-04T09:14:33Z</time>
      </trkpt>
      <trkpt lat="45.95231" lon="6.32041">
        <ele>1396.9462732031</ele>
        <time>2018-03-04T09:14:41Z</time>
      </trkpt>
      <trkpt lat="45.95229" lon="6.3203">
        <ele>1397.9463420767</ele>
        <time>2018-03-04T09:14:49Z</time>
      </trkpt>
      <trkpt lat="45.95224" lon="6.32021">
        <ele>1399.9463448101</ele>
        <time>2018-03-04T09:14:55Z</time>
      </trkpt>
      <trkpt lat="45.95216" lon="6.32021">
        <ele>1398.9462491099</ele>
        <time>2018-03-04T09:15:01Z</time>
      </trkpt>
      <trkpt lat="45.95207" lon="6.32023">
        <ele>1402.9461498937</ele>
        <time>2018-03-04T09:15:05Z</time>
      </trkpt>
      <trkpt lat="45.95201" lon="6.3203">
        <ele>1401.9460224601</ele>
        <time>2018-03-04T09:15:10Z</time>
      </trkpt>
      <trkpt lat="45.95195" lon="6.32039">
        <ele>1399.945881106</ele>
        <time>2018-03-04T09:15:15Z</time>
      </trkpt>
      <trkpt lat="45.9519" lon="6.32046">
        <ele>1398.9457690895</ele>
        <time>2018-03-04T09:15:20Z</time>
      </trkpt>
      <trkpt lat="45.95179" lon="6.32061">
        <ele>1405.945528981</ele>
        <time>2018-03-04T09:15:25Z</time>
      </trkpt>
      <trkpt lat="45.9517" lon="6.32069">
        <ele>1406.9453705711</ele>
        <time>2018-03-04T09:15:30Z</time>
      </trkpt>
      <trkpt lat="45.95162" lon="6.32073">
        <ele>1407.9452465787</ele>
        <time>2018-03-04T09:15:34Z</time>
      </trkpt>
      <trkpt lat="45.95152" lon="6.32077">
        <ele>1410.9451102808</ele>
        <time>2018-03-04T09:15:38Z</time>
      </trkpt>
      <trkpt lat="45.95145" lon="6.32078">
        <ele>1409.9450191593</ele>
        <time>2018-03-04T09:15:42Z</time>
      </trkpt>
      <trkpt lat="45.95134" lon="6.32083">
        <ele>1409.9448528573</ele>
        <time>2018-03-04T09:15:47Z</time>
      </trkpt>
      <trkpt lat="45.95125" lon="6.32087">
        <ele>1409.9447214418</ele>
        <time>2018-03-04T09:15:52Z</time>
      </trkpt>
      <trkpt lat="45.95116" lon="6.32088">
        <ele>1409.9446205012</ele>
        <time>2018-03-04T09:15:56Z</time>
      </trkpt>
      <trkpt lat="45.95106" lon="6.32092">
        <ele>1409.9444713896</ele>
        <time>2018-03-04T09:16:00Z</time>
      </trkpt>
      <trkpt lat="45.95097" lon="6.32098">
        <ele>1409.9443132873</ele>
        <time>2018-03-04T09:16:05Z</time>
      </trkpt>
      <trkpt lat="45.95089" lon="6.32106">
        <ele>1410.9441675245</ele>
        <time>2018-03-04T09:16:09Z</time>
      </trkpt>
      <trkpt lat="45.95085" lon="6.32117">
        <ele>1410.9440291338</ele>
        <time>2018-03-04T09:16:13Z</time>
      </trkpt>
      <trkpt lat="45.95083" lon="6.32127">
        <ele>1409.9439254336</ele>
        <time>2018-03-04T09:16:17Z</time>
      </trkpt>
      <trkpt lat="45.95077" lon="6.32143">
        <ele>1412.9437394698</ele>
        <time>2018-03-04T09:16:21Z</time>
      </trkpt>
      <trkpt lat="45.95074" lon="6.32156">
        <ele>1412.9435986471</ele>
        <time>2018-03-04T09:16:25Z</time>
      </trkpt>
      <trkpt lat="45.95071" lon="6.32167">
        <ele>1411.9434727212</ele>
        <time>2018-03-04T09:16:29Z</time>
      </trkpt>
      <trkpt lat="45.95066" lon="6.32179">
        <ele>1411.9433303049</ele>
        <time>2018-03-04T09:16:33Z</time>
      </trkpt>
      <trkpt lat="45.95062" lon="6.32193">
        <ele>1410.9431697638</ele>
        <time>2018-03-04T09:16:38Z</time>
      </trkpt>
      <trkpt lat="45.95059" lon="6.32205">
        <ele>1408.9430407939</ele>
        <time>2018-03-04T09:16:42Z</time>
      </trkpt>
      <trkpt lat="45.95053" lon="6.3222">
        <ele>1412.9428563872</ele>
        <time>2018-03-04T09:16:46Z</time>
      </trkpt>
      <trkpt lat="45.95048" lon="6.32233">
        <ele>1412.9426938915</ele>
        <time>2018-03-04T09:16:50Z</time>
      </trkpt>
      <trkpt lat="45.95044" lon="6.32246">
        <ele>1413.9425383498</ele>
        <time>2018-03-04T09:16:54Z</time>
      </trkpt>
      <trkpt lat="45.95039" lon="6.32262">
        <ele>1414.9423590109</ele>
        <time>2018-03-04T09:16:59Z</time>
      </trkpt>
      <trkpt lat="45.95033" lon="6.32269">
        <ele>1413.942235761</ele>
        <time>2018-03-04T09:17:03Z</time>
      </trkpt>
      <trkpt lat="45.95025" lon="6.32269">
        <ele>1411.9421319945</ele>
        <time>2018-03-04T09:17:09Z</time>
      </trkpt>
      <trkpt lat="45.95017" lon="6.32264">
        <ele>1411.9420828447</ele>
        <time>2018-03-04T09:17:13Z</time>
      </trkpt>
      <trkpt lat="45.95008" lon="6.32256">
        <ele>1412.9420424753</ele>
        <time>2018-03-04T09:17:18Z</time>
      </trkpt>
      <trkpt lat="45.95" lon="6.32245">
        <ele>1413.9420447406</ele>
        <time>2018-03-04T09:17:23Z</time>
      </trkpt>
      <trkpt lat="45.94996" lon="6.32234">
        <ele>1413.9420750821</ele>
        <time>2018-03-04T09:17:27Z</time>
      </trkpt>
      <trkpt lat="45.94989" lon="6.32223">
        <ele>1412.9420970371</ele>
        <time>2018-03-04T09:17:31Z</time>
      </trkpt>
      <trkpt lat="45.94983" lon="6.32208">
        <ele>1413.9421360556</ele>
        <time>2018-03-04T09:17:35Z</time>
      </trkpt>
      <trkpt lat="45.94978" lon="6.32191">
        <ele>1414.9422177061</ele>
        <time>2018-03-04T09:17:39Z</time>
      </trkpt>
      <trkpt lat="45.94973" lon="6.32176">
        <ele>1412.942276292</ele>
        <time>2018-03-04T09:17:44Z</time>
      </trkpt>
      <trkpt lat="45.94968" lon="6.32167">
        <ele>1417.9422925832</ele>
        <time>2018-03-04T09:21:07Z</time>
      </trkpt>
      <trkpt lat="45.94962" lon="6.32154">
        <ele>1416.9423368684</ele>
        <time>2018-03-04T09:21:12Z</time>
      </trkpt>
      <trkpt lat="45.9495" lon="6.32137">
        <ele>1415.9423367182</ele>
        <time>2018-03-04T09:21:16Z</time>
      </trkpt>
      <trkpt lat="45.94927" lon="6.32124">
        <ele>1413.9421711916</ele>
        <time>2018-03-04T09:21:20Z</time>
      </trkpt>
      <trkpt lat="45.94892" lon="6.32125">
        <ele>1410.9417619721</ele>
        <time>2018-03-04T09:21:25Z</time>
      </trkpt>
      <trkpt lat="45.94871" lon="6.32131">
        <ele>1410.9414776389</ele>
        <time>2018-03-04T09:21:29Z</time>
      </trkpt>
      <trkpt lat="45.94858" lon="6.32138">
        <ele>1410.9412723687</ele>
        <time>2018-03-04T09:21:34Z</time>
      </trkpt>
      <trkpt lat="45.94846" lon="6.32143">
        <ele>1411.9411022986</ele>
        <time>2018-03-04T09:21:38Z</time>
      </trkpt>
      <trkpt lat="45.94833" lon="6.32146">
        <ele>1412.9409237783</ele>
        <time>2018-03-04T09:21:42Z</time>
      </trkpt>
      <trkpt lat="45.94818" lon="6.32151">
        <ele>1414.9407106975</ele>
        <time>2018-03-04T09:21:47Z</time>
      </trkpt>
      <trkpt lat="45.94805" lon="6.3215">
        <ele>1412.9405617103</ele>
        <time>2018-03-04T09:21:51Z</time>
      </trkpt>
      <trkpt lat="45.94791" lon="6.32148">
        <ele>1410.9404271167</ele>
        <time>2018-03-04T09:21:55Z</time>
      </trkpt>
      <trkpt lat="45.94776" lon="6.32144">
        <ele>1412.9402811015</ele>
        <time>2018-03-04T09:21:59Z</time>
      </trkpt>
      <trkpt lat="45.94761" lon="6.3214">
        <ele>1414.9401467547</ele>
        <time>2018-03-04T09:22:03Z</time>
      </trkpt>
      <trkpt lat="45.94745" lon="6.32132">
        <ele>1413.9400297279</ele>
        <time>2018-03-04T09:22:08Z</time>
      </trkpt>
      <trkpt lat="45.94733" lon="6.32123">
        <ele>1411.9399692381</ele>
        <time>2018-03-04T09:22:12Z</time>
      </trkpt>
      <trkpt lat="45.94722" lon="6.32113">
        <ele>1410.9399311351</ele>
        <time>2018-03-04T09:22:16Z</time>
      </trkpt>
      <trkpt lat="45.94708" lon="6.32092">
        <ele>1410.9399467006</ele>
        <time>2018-03-04T09:22:21Z</time>
      </trkpt>
      <trkpt lat="45.94696" lon="6.32074">
        <ele>1409.9399585485</ele>
        <time>2018-03-04T09:22:25Z</time>
      </trkpt>
      <trkpt lat="45.94684" lon="6.32055">
        <ele>1409.9399963741</ele>
        <time>2018-03-04T09:22:29Z</time>
      </trkpt>
      <trkpt lat="45.94674" lon="6.32035">
        <ele>1407.9400557828</ele>
        <time>2018-03-04T09:22:34Z</time>
      </trkpt>
      <trkpt lat="45.94665" lon="6.32027">
        <ele>1407.9400122619</ele>
        <time>2018-03-04T09:22:38Z</time>
      </trkpt>
      <trkpt lat="45.9465" lon="6.3202">
        <ele>1407.9399160182</ele>
        <time>2018-03-04T09:22:43Z</time>
      </trkpt>
      <trkpt lat="45.94641" lon="6.32018">
        <ele>1406.9398273617</ele>
        <time>2018-03-04T09:22:47Z</time>
      </trkpt>
      <trkpt lat="45.94628" lon="6.32015">
        <ele>1406.9397020514</ele>
        <time>2018-03-04T09:22:52Z</time>
      </trkpt>
      <trkpt lat="45.94618" lon="6.32013">
        <ele>1406.9396083136</ele>
        <time>2018-03-04T09:22:56Z</time>
      </trkpt>
      <trkpt lat="45.94607" lon="6.3201">
        <ele>1408.9395132493</ele>
        <time>2018-03-04T09:23:00Z</time>
      </trkpt>
      <trkpt lat="45.94597" lon="6.32008">
        <ele>1406.9394178543</ele>
        <time>2018-03-04T09:23:04Z</time>
      </trkpt>
      <trkpt lat="45.94587" lon="6.32004">
        <ele>1407.9393382535</ele>
        <time>2018-03-04T09:23:08Z</time>
      </trkpt>
      <trkpt lat="45.94576" lon="6.32001">
        <ele>1407.9392364087</ele>
        <time>2018-03-04T09:23:12Z</time>
      </trkpt>
      <trkpt lat="45.94564" lon="6.31999">
        <ele>1407.939126968</ele>
        <time>2018-03-04T09:23:16Z</time>
      </trkpt>
      <trkpt lat="45.94555" lon="6.31996">
        <ele>1407.9390502217</ele>
        <time>2018-03-04T09:23:20Z</time>
      </trkpt>
      <trkpt lat="45.94545" lon="6.31993">
        <ele>1408.9389572223</ele>
        <time>2018-03-04T09:23:24Z</time>
      </trkpt>
      <trkpt lat="45.9453" lon="6.31988">
        <ele>1409.9388490636</ele>
        <time>2018-03-04T09:23:29Z</time>
      </trkpt>
      <trkpt lat="45.94519" lon="6.31977">
        <ele>1410.9388131155</ele>
        <time>2018-03-04T09:23:33Z</time>
      </trkpt>
      <trkpt lat="45.94511" lon="6.31963">
        <ele>1409.9388482206</ele>
        <time>2018-03-04T09:23:37Z</time>
      </trkpt>
      <trkpt lat="45.94502" lon="6.31948">
        <ele>1409.9388732973</ele>
        <time>2018-03-04T09:23:41Z</time>
      </trkpt>
      <trkpt lat="45.94491" lon="6.31935">
        <ele>1409.9388743644</ele>
        <time>2018-03-04T09:23:45Z</time>
      </trkpt>
      <trkpt lat="45.94477" lon="6.31927">
        <ele>1409.9387926354</ele>
        <time>2018-03-04T09:23:50Z</time>
      </trkpt>
      <trkpt lat="45.94466" lon="6.31925">
        <ele>1411.9386916167</ele>
        <time>2018-03-04T09:23:54Z</time>
      </trkpt>
      <trkpt lat="45.94455" lon="6.31921">
        <ele>1412.9385880441</ele>
        <time>2018-03-04T09:23:58Z</time>
      </trkpt>
      <trkpt lat="45.94444" lon="6.31918">
        <ele>1413.9385070313</ele>
        <time>2018-03-04T09:24:02Z</time>
      </trkpt>
      <trkpt lat="45.94431" lon="6.31914">
        <ele>1415.9383886297</ele>
        <time>2018-03-04T09:24:07Z</time>
      </trkpt>
      <trkpt lat="45.9442" lon="6.31911">
        <ele>1414.9383046943</ele>
        <time>2018-03-04T09:24:11Z</time>
      </trkpt>
      <trkpt lat="45.94411" lon="6.31909">
        <ele>1413.938218642</ele>
        <time>2018-03-04T09:24:15Z</time>
      </trkpt>
      <trkpt lat="45.94398" lon="6.31904">
        <ele>1414.9381105349</ele>
        <time>2018-03-04T09:24:20Z</time>
      </trkpt>
      <trkpt lat="45.94383" lon="6.31901">
        <ele>1415.9379839951</ele>
        <time>2018-03-04T09:24:25Z</time>
      </trkpt>
      <trkpt lat="45.94373" lon="6.31897">
        <ele>1413.93789543</ele>
        <time>2018-03-04T09:24:29Z</time>
      </trkpt>
      <trkpt lat="45.94356" lon="6.31895">
        <ele>1413.937732227</ele>
        <time>2018-03-04T09:24:34Z</time>
      </trkpt>
      <trkpt lat="45.94343" lon="6.31892">
        <ele>1414.9376159784</ele>
        <time>2018-03-04T09:24:38Z</time>
      </trkpt>
      <trkpt lat="45.9433" lon="6.3189">
        <ele>1412.9374940659</ele>
        <time>2018-03-04T09:24:42Z</time>
      </trkpt>
      <trkpt lat="45.94312" lon="6.31887">
        <ele>1411.9373239133</ele>
        <time>2018-03-04T09:24:47Z</time>
      </trkpt>
      <trkpt lat="45.943" lon="6.31885">
        <ele>1413.9372006788</ele>
        <time>2018-03-04T09:24:52Z</time>
      </trkpt>
      <trkpt lat="45.94292" lon="6.31884">
        <ele>1410.9371338188</ele>
        <time>2018-03-04T09:24:56Z</time>
      </trkpt>
      <trkpt lat="45.94284" lon="6.31882">
        <ele>1412.9370568902</ele>
        <time>2018-03-04T09:25:00Z</time>
      </trkpt>
      <trkpt lat="45.94275" lon="6.3188">
        <ele>1413.9369818348</ele>
        <time>2018-03-04T09:25:04Z</time>
      </trkpt>
      <trkpt lat="45.94266" lon="6.31879">
        <ele>1414.9368911015</ele>
        <time>2018-03-04T09:25:09Z</time>
      </trkpt>
      <trkpt lat="45.94259" lon="6.31879">
        <ele>1412.9368118666</ele>
        <time>2018-03-04T09:25:15Z</time>
      </trkpt>
      <trkpt lat="45.9425" lon="6.31879">
        <ele>1413.9367166861</ele>
        <time>2018-03-04T09:25:21Z</time>
      </trkpt>
      <trkpt lat="45.94242" lon="6.3188">
        <ele>1414.9366069275</ele>
        <time>2018-03-04T09:25:27Z</time>
      </trkpt>
      <trkpt lat="45.94234" lon="6.31885">
        <ele>1415.9364809547</ele>
        <time>2018-03-04T09:25:34Z</time>
      </trkpt>
      <trkpt lat="45.94227" lon="6.31891">
        <ele>1417.936352891</ele>
        <time>2018-03-04T09:25:41Z</time>
      </trkpt>
      <trkpt lat="45.94221" lon="6.31898">
        <ele>1416.9362091281</ele>
        <time>2018-03-04T09:25:52Z</time>
      </trkpt>
      <trkpt lat="45.94215" lon="6.31908">
        <ele>1420.9360564934</ele>
        <time>2018-03-04T09:26:01Z</time>
      </trkpt>
      <trkpt lat="45.9421" lon="6.31917">
        <ele>1421.9359186067</ele>
        <time>2018-03-04T09:26:09Z</time>
      </trkpt>
      <trkpt lat="45.9421" lon="6.31929">
        <ele>1421.9358068672</ele>
        <time>2018-03-04T09:26:15Z</time>
      </trkpt>
      <trkpt lat="45.94214" lon="6.31938">
        <ele>1414.9357704033</ele>
        <time>2018-03-04T09:26:23Z</time>
      </trkpt>
      <trkpt lat="45.94219" lon="6.31948">
        <ele>1411.935734562</ele>
        <time>2018-03-04T09:26:28Z</time>
      </trkpt>
      <trkpt lat="45.94223" lon="6.3196">
        <ele>1410.9356674119</ele>
        <time>2018-03-04T09:26:34Z</time>
      </trkpt>
      <trkpt lat="45.94226" lon="6.31969">
        <ele>1411.9356126425</ele>
        <time>2018-03-04T09:26:39Z</time>
      </trkpt>
      <trkpt lat="45.9423" lon="6.3198">
        <ele>1414.935565907</ele>
        <time>2018-03-04T09:26:44Z</time>
      </trkpt>
      <trkpt lat="45.94235" lon="6.3199">
        <ele>1416.9355235692</ele>
        <time>2018-03-04T09:26:50Z</time>
      </trkpt>
      <trkpt lat="45.94241" lon="6.31998">
        <ele>1417.9355145608</ele>
        <time>2018-03-04T09:26:56Z</time>
      </trkpt>
      <trkpt lat="45.94246" lon="6.32007">
        <ele>1419.9354965416</ele>
        <time>2018-03-04T09:27:02Z</time>
      </trkpt>
      <trkpt lat="45.94251" lon="6.32016">
        <ele>1420.9354650019</ele>
        <time>2018-03-04T09:27:09Z</time>
      </trkpt>
      <trkpt lat="45.94255" lon="6.32027">
        <ele>1420.9354062637</ele>
        <time>2018-03-04T09:27:17Z</time>
      </trkpt>
      <trkpt lat="45.94257" lon="6.32039">
        <ele>1421.9353167153</ele>
        <time>2018-03-04T09:27:25Z</time>
      </trkpt>
      <trkpt lat="45.9426" lon="6.3205">
        <ele>1421.9352560497</ele>
        <time>2018-03-04T09:27:32Z</time>
      </trkpt>
      <trkpt lat="45.94264" lon="6.32058">
        <ele>1420.9352260181</ele>
        <time>2018-03-04T09:27:37Z</time>
      </trkpt>
      <trkpt lat="45.94267" lon="6.3207">
        <ele>1422.9351497219</ele>
        <time>2018-03-04T09:27:41Z</time>
      </trkpt>
      <trkpt lat="45.94271" lon="6.32084">
        <ele>1423.9350641091</ele>
        <time>2018-03-04T09:27:46Z</time>
      </trkpt>
      <trkpt lat="45.94272" lon="6.32095">
        <ele>1423.9349724783</ele>
        <time>2018-03-04T09:27:51Z</time>
      </trkpt>
      <trkpt lat="45.94271" lon="6.32109">
        <ele>1424.9348354789</ele>
        <time>2018-03-04T09:27:55Z</time>
      </trkpt>
      <trkpt lat="45.9427" lon="6.32122">
        <ele>1424.9347115303</ele>
        <time>2018-03-04T09:27:59Z</time>
      </trkpt>
      <trkpt lat="45.94271" lon="6.32133">
        <ele>1423.9346100041</ele>
        <time>2018-03-04T09:28:03Z</time>
      </trkpt>
      <trkpt lat="45.94273" lon="6.32148">
        <ele>1421.9344966858</ele>
        <time>2018-03-04T09:28:08Z</time>
      </trkpt>
      <trkpt lat="45.94278" lon="6.32166">
        <ele>1421.9343948116</ele>
        <time>2018-03-04T09:28:13Z</time>
      </trkpt>
      <trkpt lat="45.94279" lon="6.32182">
        <ele>1423.9342538668</ele>
        <time>2018-03-04T09:28:18Z</time>
      </trkpt>
      <trkpt lat="45.94274" lon="6.32198">
        <ele>1426.9340536132</ele>
        <time>2018-03-04T09:28:23Z</time>
      </trkpt>
      <trkpt lat="45.94269" lon="6.32215">
        <ele>1431.9338422645</ele>
        <time>2018-03-04T09:28:28Z</time>
      </trkpt>
      <trkpt lat="45.94262" lon="6.32227">
        <ele>1437.933649654</ele>
        <time>2018-03-04T09:28:32Z</time>
      </trkpt>
      <trkpt lat="45.94257" lon="6.32236">
        <ele>1438.9335130692</ele>
        <time>2018-03-04T09:28:36Z</time>
      </trkpt>
      <trkpt lat="45.94251" lon="6.32244">
        <ele>1440.9333674687</ele>
        <time>2018-03-04T09:28:40Z</time>
      </trkpt>
      <trkpt lat="45.94242" lon="6.3225">
        <ele>1442.9332023303</ele>
        <time>2018-03-04T09:28:45Z</time>
      </trkpt>
      <trkpt lat="45.94234" lon="6.32254">
        <ele>1443.9330715535</ele>
        <time>2018-03-04T09:28:50Z</time>
      </trkpt>
      <trkpt lat="45.94225" lon="6.32257">
        <ele>1443.9329491879</ele>
        <time>2018-03-04T09:28:56Z</time>
      </trkpt>
      <trkpt lat="45.94216" lon="6.32259">
        <ele>1444.9328286872</ele>
        <time>2018-03-04T09:29:01Z</time>
      </trkpt>
      <trkpt lat="45.9421" lon="6.32259">
        <ele>1446.9327466429</ele>
        <time>2018-03-04T09:29:05Z</time>
      </trkpt>
      <trkpt lat="45.94202" lon="6.32258">
        <ele>1447.9326695894</ele>
        <time>2018-03-04T09:29:09Z</time>
      </trkpt>
      <trkpt lat="45.94194" lon="6.32253">
        <ele>1447.9326195932</ele>
        <time>2018-03-04T09:29:15Z</time>
      </trkpt>
      <trkpt lat="45.94186" lon="6.3225">
        <ele>1445.9325524033</ele>
        <time>2018-03-04T09:29:22Z</time>
      </trkpt>
      <trkpt lat="45.94177" lon="6.32249">
        <ele>1450.9324649663</ele>
        <time>2018-03-04T09:29:27Z</time>
      </trkpt>
      <trkpt lat="45.94169" lon="6.32249">
        <ele>1451.9323631196</ele>
        <time>2018-03-04T09:29:33Z</time>
      </trkpt>
      <trkpt lat="45.9416" lon="6.3225">
        <ele>1452.9322565874</ele>
        <time>2018-03-04T09:29:40Z</time>
      </trkpt>
      <trkpt lat="45.94152" lon="6.32249">
        <ele>1453.9321743776</ele>
        <time>2018-03-04T09:29:46Z</time>
      </trkpt>
      <trkpt lat="45.94144" lon="6.32252">
        <ele>1454.9320501073</ele>
        <time>2018-03-04T09:29:54Z</time>
      </trkpt>
      <trkpt lat="45.94135" lon="6.3225">
        <ele>1456.9319678647</ele>
        <time>2018-03-04T09:30:02Z</time>
      </trkpt>
      <trkpt lat="45.94127" lon="6.3225">
        <ele>1455.9318677834</ele>
        <time>2018-03-04T09:30:11Z</time>
      </trkpt>
      <trkpt lat="45.94119" lon="6.32251">
        <ele>1455.9317652312</ele>
        <time>2018-03-04T09:30:17Z</time>
      </trkpt>
      <trkpt lat="45.9411" lon="6.3225">
        <ele>1456.9316751228</ele>
        <time>2018-03-04T09:30:24Z</time>
      </trkpt>
      <trkpt lat="45.94101" lon="6.32249">
        <ele>1458.931582646</ele>
        <time>2018-03-04T09:30:31Z</time>
      </trkpt>
      <trkpt lat="45.94093" lon="6.3225">
        <ele>1459.9314777127</ele>
        <time>2018-03-04T09:30:36Z</time>
      </trkpt>
      <trkpt lat="45.94084" lon="6.32251">
        <ele>1460.931360436</ele>
        <time>2018-03-04T09:30:50Z</time>
      </trkpt>
      <trkpt lat="45.94075" lon="6.3225">
        <ele>1462.9312764578</ele>
        <time>2018-03-04T09:32:05Z</time>
      </trkpt>
      <trkpt lat="45.94067" lon="6.32249">
        <ele>1461.9311846893</ele>
        <time>2018-03-04T09:32:28Z</time>
      </trkpt>
      <trkpt lat="45.94055" lon="6.32247">
        <ele>1461.9310720295</ele>
        <time>2018-03-04T09:32:33Z</time>
      </trkpt>
      <trkpt lat="45.94036" lon="6.32238">
        <ele>1457.9309315829</ele>
        <time>2018-03-04T09:32:38Z</time>
      </trkpt>
      <trkpt lat="45.9401" lon="6.32228">
        <ele>1452.9307326372</ele>
        <time>2018-03-04T09:32:42Z</time>
      </trkpt>
      <trkpt lat="45.93968" lon="6.32215">
        <ele>1450.9303713592</ele>
        <time>2018-03-04T09:32:47Z</time>
      </trkpt>
      <trkpt lat="45.93926" lon="6.32194">
        <ele>1447.9300870404</ele>
        <time>2018-03-04T09:32:52Z</time>
      </trkpt>
      <trkpt lat="45.93908" lon="6.32187">
        <ele>1444.9299491859</ele>
        <time>2018-03-04T09:32:56Z</time>
      </trkpt>
      <trkpt lat="45.93892" lon="6.32177">
        <ele>1445.9298576619</ele>
        <time>2018-03-04T09:33:00Z</time>
      </trkpt>
      <trkpt lat="45.93873" lon="6.32168">
        <ele>1445.9297272484</ele>
        <time>2018-03-04T09:33:05Z</time>
      </trkpt>
      <trkpt lat="45.93858" lon="6.32159">
        <ele>1444.9296407867</ele>
        <time>2018-03-04T09:33:10Z</time>
      </trkpt>
      <trkpt lat="45.93846" lon="6.32155">
        <ele>1445.9295471082</ele>
        <time>2018-03-04T09:33:14Z</time>
      </trkpt>
      <trkpt lat="45.93835" lon="6.3215">
        <ele>1445.9294794857</ele>
        <time>2018-03-04T09:33:18Z</time>
      </trkpt>
      <trkpt lat="45.93823" lon="6.32146">
        <ele>1444.9293748187</ele>
        <time>2018-03-04T09:33:23Z</time>
      </trkpt>
      <trkpt lat="45.93814" lon="6.32144">
        <ele>1444.9292951308</ele>
        <time>2018-03-04T09:33:27Z</time>
      </trkpt>
      <trkpt lat="45.93805" lon="6.3214">
        <ele>1444.9292257522</ele>
        <time>2018-03-04T09:33:31Z</time>
      </trkpt>
      <trkpt lat="45.93795" lon="6.32137">
        <ele>1444.9291506253</ele>
        <time>2018-03-04T09:33:35Z</time>
      </trkpt>
      <trkpt lat="45.93785" lon="6.32132">
        <ele>1445.9290723372</ele>
        <time>2018-03-04T09:33:40Z</time>
      </trkpt>
      <trkpt lat="45.93777" lon="6.32128">
        <ele>1447.929022325</ele>
        <time>2018-03-04T09:33:47Z</time>
      </trkpt>
      <trkpt lat="45.93768" lon="6.32125">
        <ele>1449.9289579696</ele>
        <time>2018-03-04T09:33:55Z</time>
      </trkpt>
      <trkpt lat="45.9376" lon="6.32122">
        <ele>1450.9288865824</ele>
        <time>2018-03-04T09:34:02Z</time>
      </trkpt>
      <trkpt lat="45.93751" lon="6.32118">
        <ele>1452.92883392</ele>
        <time>2018-03-04T09:34:07Z</time>
      </trkpt>
      <trkpt lat="45.93743" lon="6.32115">
        <ele>1454.9287649043</ele>
        <time>2018-03-04T09:34:12Z</time>
      </trkpt>
      <trkpt lat="45.93735" lon="6.32113">
        <ele>1455.928699989</ele>
        <time>2018-03-04T09:34:17Z</time>
      </trkpt>
      <trkpt lat="45.93727" lon="6.32109">
        <ele>1454.9286516802</ele>
        <time>2018-03-04T09:34:21Z</time>
      </trkpt>
      <trkpt lat="45.93718" lon="6.32084">
        <ele>1452.9287989525</ele>
        <time>2018-03-04T09:34:26Z</time>
      </trkpt>
      <trkpt lat="45.93709" lon="6.32049">
        <ele>1449.9290489555</ele>
        <time>2018-03-04T09:34:30Z</time>
      </trkpt>
      <trkpt lat="45.93698" lon="6.32008">
        <ele>1448.9293378043</ele>
        <time>2018-03-04T09:34:34Z</time>
      </trkpt>
      <trkpt lat="45.93689" lon="6.31972">
        <ele>1447.9296066814</ele>
        <time>2018-03-04T09:34:38Z</time>
      </trkpt>
      <trkpt lat="45.93682" lon="6.31938">
        <ele>1446.9298723482</ele>
        <time>2018-03-04T09:34:43Z</time>
      </trkpt>
      <trkpt lat="45.93674" lon="6.31906">
        <ele>1447.9300990979</ele>
        <time>2018-03-04T09:34:48Z</time>
      </trkpt>
      <trkpt lat="45.93667" lon="6.31886">
        <ele>1445.9302203695</ele>
        <time>2018-03-04T09:34:52Z</time>
      </trkpt>
      <trkpt lat="45.93656" lon="6.31864">
        <ele>1444.9303344331</ele>
        <time>2018-03-04T09:34:57Z</time>
      </trkpt>
      <trkpt lat="45.93642" lon="6.31845">
        <ele>1446.9303710424</ele>
        <time>2018-03-04T09:35:02Z</time>
      </trkpt>
      <trkpt lat="45.93632" lon="6.31836">
        <ele>1446.9303483651</ele>
        <time>2018-03-04T09:35:06Z</time>
      </trkpt>
      <trkpt lat="45.93621" lon="6.31831">
        <ele>1446.9302857933</ele>
        <time>2018-03-04T09:35:10Z</time>
      </trkpt>
      <trkpt lat="45.9361" lon="6.31826">
        <ele>1447.9302177295</ele>
        <time>2018-03-04T09:35:14Z</time>
      </trkpt>
      <trkpt lat="45.93598" lon="6.31829">
        <ele>1446.9300406153</ele>
        <time>2018-03-04T09:35:19Z</time>
      </trkpt>
      <trkpt lat="45.93586" lon="6.31835">
        <ele>1447.9298591267</ele>
        <time>2018-03-04T09:35:23Z</time>
      </trkpt>
      <trkpt lat="45.93575" lon="6.31844">
        <ele>1448.9296476621</ele>
        <time>2018-03-04T09:35:27Z</time>
      </trkpt>
      <trkpt lat="45.93564" lon="6.31858">
        <ele>1450.9293780405</ele>
        <time>2018-03-04T09:35:32Z</time>
      </trkpt>
      <trkpt lat="45.93553" lon="6.3187">
        <ele>1450.929134175</ele>
        <time>2018-03-04T09:35:36Z</time>
      </trkpt>
      <trkpt lat="45.93541" lon="6.31883">
        <ele>1451.9288702137</ele>
        <time>2018-03-04T09:35:41Z</time>
      </trkpt>
      <trkpt lat="45.93531" lon="6.31893">
        <ele>1450.9286567944</ele>
        <time>2018-03-04T09:35:45Z</time>
      </trkpt>
      <trkpt lat="45.93521" lon="6.31899">
        <ele>1448.9284901614</ele>
        <time>2018-03-04T09:35:50Z</time>
      </trkpt>
      <trkpt lat="45.93513" lon="6.31901">
        <ele>1448.9283828958</ele>
        <time>2018-03-04T09:35:54Z</time>
      </trkpt>
      <trkpt lat="45.93505" lon="6.31899">
        <ele>1447.9283072209</ele>
        <time>2018-03-04T09:35:59Z</time>
      </trkpt>
      <trkpt lat="45.93498" lon="6.31889">
        <ele>1448.9283423191</ele>
        <time>2018-03-04T09:36:04Z</time>
      </trkpt>
      <trkpt lat="45.93495" lon="6.31878">
        <ele>1448.9284151197</ele>
        <time>2018-03-04T09:36:09Z</time>
      </trkpt>
      <trkpt lat="45.93493" lon="6.31867">
        <ele>1447.9285033274</ele>
        <time>2018-03-04T09:36:14Z</time>
      </trkpt>
      <trkpt lat="45.93492" lon="6.31858">
        <ele>1447.9285875632</ele>
        <time>2018-03-04T09:36:18Z</time>
      </trkpt>
      <trkpt lat="45.9349" lon="6.31845">
        <ele>1449.9287026372</ele>
        <time>2018-03-04T09:36:22Z</time>
      </trkpt>
      <trkpt lat="45.93486" lon="6.31834">
        <ele>1449.928777137</ele>
        <time>2018-03-04T09:36:27Z</time>
      </trkpt>
      <trkpt lat="45.9348" lon="6.31809">
        <ele>1446.928966102</ele>
        <time>2018-03-04T09:36:31Z</time>
      </trkpt>
      <trkpt lat="45.9346" lon="6.3177">
        <ele>1443.9291599997</ele>
        <time>2018-03-04T09:36:36Z</time>
      </trkpt>
      <trkpt lat="45.9343" lon="6.3173">
        <ele>1440.9292514336</ele>
        <time>2018-03-04T09:36:41Z</time>
      </trkpt>
      <trkpt lat="45.93397" lon="6.31687">
        <ele>1435.9293517803</ele>
        <time>2018-03-04T09:36:45Z</time>
      </trkpt>
      <trkpt lat="45.93355" lon="6.31635">
        <ele>1431.9294557645</ele>
        <time>2018-03-04T09:36:50Z</time>
      </trkpt>
      <trkpt lat="45.9333" lon="6.31603">
        <ele>1430.9295359361</ele>
        <time>2018-03-04T09:36:54Z</time>
      </trkpt>
      <trkpt lat="45.93312" lon="6.31583">
        <ele>1429.9295526649</ele>
        <time>2018-03-04T09:36:58Z</time>
      </trkpt>
      <trkpt lat="45.93295" lon="6.31564">
        <ele>1430.9295907408</ele>
        <time>2018-03-04T09:37:02Z</time>
      </trkpt>
      <trkpt lat="45.93283" lon="6.31549">
        <ele>1429.9296144005</ele>
        <time>2018-03-04T09:37:06Z</time>
      </trkpt>
      <trkpt lat="45.93289" lon="6.3152">
        <ele>1424.9299924391</ele>
        <time>2018-03-04T09:37:11Z</time>
      </trkpt>
      <trkpt lat="45.93312" lon="6.31517">
        <ele>1420.9302597786</ele>
        <time>2018-03-04T09:37:15Z</time>
      </trkpt>
      <trkpt lat="45.93321" lon="6.31528">
        <ele>1419.930238174</ele>
        <time>2018-03-04T09:37:19Z</time>
      </trkpt>
      <trkpt lat="45.93328" lon="6.31539">
        <ele>1416.9301991168</ele>
        <time>2018-03-04T09:37:24Z</time>
      </trkpt>
      <trkpt lat="45.93334" lon="6.31548">
        <ele>1413.930163728</ele>
        <time>2018-03-04T09:37:28Z</time>
      </trkpt>
      <trkpt lat="45.9334" lon="6.31558">
        <ele>1414.9301134893</ele>
        <time>2018-03-04T09:37:32Z</time>
      </trkpt>
      <trkpt lat="45.93348" lon="6.31572">
        <ele>1416.9300550822</ele>
        <time>2018-03-04T09:37:37Z</time>
      </trkpt>
      <trkpt lat="45.93356" lon="6.3158">
        <ele>1416.930044849</ele>
        <time>2018-03-04T09:37:42Z</time>
      </trkpt>
      <trkpt lat="45.93364" lon="6.31588">
        <ele>1418.9300481734</ele>
        <time>2018-03-04T09:37:46Z</time>
      </trkpt>
      <trkpt lat="45.93375" lon="6.31583">
        <ele>1415.930227597</ele>
        <time>2018-03-04T09:37:50Z</time>
      </trkpt>
      <trkpt lat="45.93396" lon="6.31569">
        <ele>1415.9305890135</ele>
        <time>2018-03-04T09:37:55Z</time>
      </trkpt>
      <trkpt lat="45.93404" lon="6.31562">
        <ele>1418.9307543605</ele>
        <time>2018-03-04T09:38:00Z</time>
      </trkpt>
      <trkpt lat="45.9341" lon="6.31559">
        <ele>1417.9308482427</ele>
        <time>2018-03-04T09:38:05Z</time>
      </trkpt>
      <trkpt lat="45.9342" lon="6.31553">
        <ele>1423.9310097421</ele>
        <time>2018-03-04T09:38:10Z</time>
      </trkpt>
      <trkpt lat="45.93428" lon="6.31547">
        <ele>1423.9311565173</ele>
        <time>2018-03-04T09:38:18Z</time>
      </trkpt>
      <trkpt lat="45.93436" lon="6.3154">
        <ele>1424.9313070593</ele>
        <time>2018-03-04T09:38:24Z</time>
      </trkpt>
      <trkpt lat="45.93444" lon="6.31536">
        <ele>1423.9314431535</ele>
        <time>2018-03-04T09:38:31Z</time>
      </trkpt>
      <trkpt lat="45.9345" lon="6.31534">
        <ele>1427.9315313866</ele>
        <time>2018-03-04T09:38:35Z</time>
      </trkpt>
      <trkpt lat="45.93459" lon="6.31537">
        <ele>1431.9315886875</ele>
        <time>2018-03-04T09:38:41Z</time>
      </trkpt>
      <trkpt lat="45.93466" lon="6.31544">
        <ele>1432.9315862859</ele>
        <time>2018-03-04T09:38:48Z</time>
      </trkpt>
      <trkpt lat="45.9347" lon="6.31554">
        <ele>1430.9315246645</ele>
        <time>2018-03-04T09:38:56Z</time>
      </trkpt>
      <trkpt lat="45.93476" lon="6.31563">
        <ele>1426.9314863778</ele>
        <time>2018-03-04T09:39:07Z</time>
      </trkpt>
      <trkpt lat="45.93484" lon="6.31578">
        <ele>1427.9314190905</ele>
        <time>2018-03-04T09:39:11Z</time>
      </trkpt>
      <trkpt lat="45.9349" lon="6.31588">
        <ele>1425.9313886277</ele>
        <time>2018-03-04T09:39:16Z</time>
      </trkpt>
      <trkpt lat="45.93496" lon="6.31597">
        <ele>1427.9313493416</ele>
        <time>2018-03-04T09:39:21Z</time>
      </trkpt>
      <trkpt lat="45.93503" lon="6.31603">
        <ele>1432.9313537718</ele>
        <time>2018-03-04T09:39:28Z</time>
      </trkpt>
      <trkpt lat="45.93509" lon="6.31608">
        <ele>1434.9313687114</ele>
        <time>2018-03-04T09:39:34Z</time>
      </trkpt>
      <trkpt lat="45.93516" lon="6.31613">
        <ele>1437.9313994942</ele>
        <time>2018-03-04T09:39:40Z</time>
      </trkpt>
      <trkpt lat="45.93523" lon="6.31618">
        <ele>1437.9314158546</ele>
        <time>2018-03-04T09:39:46Z</time>
      </trkpt>
      <trkpt lat="45.9353" lon="6.31619">
        <ele>1437.9314823539</ele>
        <time>2018-03-04T09:39:52Z</time>
      </trkpt>
      <trkpt lat="45.9354" lon="6.31617">
        <ele>1438.9316046067</ele>
        <time>2018-03-04T09:39:57Z</time>
      </trkpt>
      <trkpt lat="45.93551" lon="6.31619">
        <ele>1438.9317004483</ele>
        <time>2018-03-04T09:40:02Z</time>
      </trkpt>
      <trkpt lat="45.93563" lon="6.31623">
        <ele>1441.9317851442</ele>
        <time>2018-03-04T09:40:06Z</time>
      </trkpt>
      <trkpt lat="45.93575" lon="6.31631">
        <ele>1442.9318351018</ele>
        <time>2018-03-04T09:40:10Z</time>
      </trkpt>
      <trkpt lat="45.93584" lon="6.31639">
        <ele>1444.9318463234</ele>
        <time>2018-03-04T09:40:14Z</time>
      </trkpt>
      <trkpt lat="45.93591" lon="6.31646">
        <ele>1445.9318544555</ele>
        <time>2018-03-04T09:40:19Z</time>
      </trkpt>
      <trkpt lat="45.93599" lon="6.31653">
        <ele>1444.9318621443</ele>
        <time>2018-03-04T09:40:24Z</time>
      </trkpt>
      <trkpt lat="45.93608" lon="6.31662">
        <ele>1446.9318623892</ele>
        <time>2018-03-04T09:40:28Z</time>
      </trkpt>
      <trkpt lat="45.93616" lon="6.31666">
        <ele>1445.9319133012</ele>
        <time>2018-03-04T09:40:32Z</time>
      </trkpt>
      <trkpt lat="45.93628" lon="6.31666">
        <ele>1444.9320446838</ele>
        <time>2018-03-04T09:40:37Z</time>
      </trkpt>
      <trkpt lat="45.93646" lon="6.31675">
        <ele>1445.932138352</ele>
        <time>2018-03-04T09:40:41Z</time>
      </trkpt>
      <trkpt lat="45.93664" lon="6.31687">
        <ele>1442.9322078253</ele>
        <time>2018-03-04T09:40:45Z</time>
      </trkpt>
      <trkpt lat="45.93679" lon="6.31701">
        <ele>1439.9322384325</ele>
        <time>2018-03-04T09:40:50Z</time>
      </trkpt>
      <trkpt lat="45.93695" lon="6.31724">
        <ele>1438.9321614801</ele>
        <time>2018-03-04T09:40:54Z</time>
      </trkpt>
      <trkpt lat="45.93711" lon="6.31744">
        <ele>1438.9321361819</ele>
        <time>2018-03-04T09:40:58Z</time>
      </trkpt>
      <trkpt lat="45.93721" lon="6.31724">
        <ele>1436.932450545</ele>
        <time>2018-03-04T09:41:02Z</time>
      </trkpt>
      <trkpt lat="45.93717" lon="6.31704">
        <ele>1436.9326138164</ele>
        <time>2018-03-04T09:41:06Z</time>
      </trkpt>
      <trkpt lat="45.93712" lon="6.31685">
        <ele>1435.9327423052</ele>
        <time>2018-03-04T09:41:11Z</time>
      </trkpt>
      <trkpt lat="45.93708" lon="6.3167">
        <ele>1435.9328525095</ele>
        <time>2018-03-04T09:41:15Z</time>
      </trkpt>
      <trkpt lat="45.93704" lon="6.31657">
        <ele>1437.9329497226</ele>
        <time>2018-03-04T09:41:19Z</time>
      </trkpt>
      <trkpt lat="45.93704" lon="6.31645">
        <ele>1438.9330600812</ele>
        <time>2018-03-04T09:41:24Z</time>
      </trkpt>
      <trkpt lat="45.93702" lon="6.31633">
        <ele>1438.9331656048</ele>
        <time>2018-03-04T09:41:29Z</time>
      </trkpt>
      <trkpt lat="45.93702" lon="6.31622">
        <ele>1437.9332760105</ele>
        <time>2018-03-04T09:41:33Z</time>
      </trkpt>
      <trkpt lat="45.93704" lon="6.31607">
        <ele>1439.9334487181</ele>
        <time>2018-03-04T09:41:37Z</time>
      </trkpt>
      <trkpt lat="45.93707" lon="6.31592">
        <ele>1440.9336208362</ele>
        <time>2018-03-04T09:41:42Z</time>
      </trkpt>
      <trkpt lat="45.93709" lon="6.3158">
        <ele>1439.9337677594</ele>
        <time>2018-03-04T09:41:48Z</time>
      </trkpt>
      <trkpt lat="45.93712" lon="6.31568">
        <ele>1440.9339188916</ele>
        <time>2018-03-04T09:41:52Z</time>
      </trkpt>
      <trkpt lat="45.93714" lon="6.31555">
        <ele>1440.9340732676</ele>
        <time>2018-03-04T09:41:56Z</time>
      </trkpt>
      <trkpt lat="45.93717" lon="6.31542">
        <ele>1439.9342308203</ele>
        <time>2018-03-04T09:42:01Z</time>
      </trkpt>
      <trkpt lat="45.93717" lon="6.31532">
        <ele>1439.9343309073</ele>
        <time>2018-03-04T09:42:05Z</time>
      </trkpt>
      <trkpt lat="45.93711" lon="6.31512">
        <ele>1439.9344802671</ele>
        <time>2018-03-04T09:42:09Z</time>
      </trkpt>
      <trkpt lat="45.93712" lon="6.31486">
        <ele>1437.9347491925</ele>
        <time>2018-03-04T09:42:13Z</time>
      </trkpt>
      <trkpt lat="45.93732" lon="6.31431">
        <ele>1432.9354987683</ele>
        <time>2018-03-04T09:42:17Z</time>
      </trkpt>
      <trkpt lat="45.93749" lon="6.31386">
        <ele>1428.9361327165</ele>
        <time>2018-03-04T09:42:21Z</time>
      </trkpt>
      <trkpt lat="45.93772" lon="6.31358">
        <ele>1424.9366470852</ele>
        <time>2018-03-04T09:42:26Z</time>
      </trkpt>
      <trkpt lat="45.93792" lon="6.31364">
        <ele>1423.9367861557</ele>
        <time>2018-03-04T09:42:30Z</time>
      </trkpt>
      <trkpt lat="45.93824" lon="6.3138">
        <ele>1425.9369617434</ele>
        <time>2018-03-04T09:42:35Z</time>
      </trkpt>
      <trkpt lat="45.93838" lon="6.3139">
        <ele>1428.9370061713</ele>
        <time>2018-03-04T09:42:39Z</time>
      </trkpt>
      <trkpt lat="45.93848" lon="6.31404">
        <ele>1429.9369636401</ele>
        <time>2018-03-04T09:42:44Z</time>
      </trkpt>
      <trkpt lat="45.93856" lon="6.31419">
        <ele>1428.9368995577</ele>
        <time>2018-03-04T09:42:48Z</time>
      </trkpt>
      <trkpt lat="45.93863" lon="6.31436">
        <ele>1428.9368023907</ele>
        <time>2018-03-04T09:42:53Z</time>
      </trkpt>
      <trkpt lat="45.9387" lon="6.31446">
        <ele>1425.9367706803</ele>
        <time>2018-03-04T09:42:58Z</time>
      </trkpt>
      <trkpt lat="45.93874" lon="6.31457">
        <ele>1421.9367028449</ele>
        <time>2018-03-04T09:43:02Z</time>
      </trkpt>
      <trkpt lat="45.93875" lon="6.31469">
        <ele>1420.9366001027</ele>
        <time>2018-03-04T09:43:06Z</time>
      </trkpt>
      <trkpt lat="45.93874" lon="6.31488">
        <ele>1420.9364049402</ele>
        <time>2018-03-04T09:43:10Z</time>
      </trkpt>
      <trkpt lat="45.93866" lon="6.31513">
        <ele>1421.9360813552</ele>
        <time>2018-03-04T09:43:15Z</time>
      </trkpt>
      <trkpt lat="45.93866" lon="6.31565">
        <ele>1425.9355671394</ele>
        <time>2018-03-04T09:43:19Z</time>
      </trkpt>
      <trkpt lat="45.93885" lon="6.3161">
        <ele>1419.9353283203</ele>
        <time>2018-03-04T09:43:23Z</time>
      </trkpt>
      <trkpt lat="45.93915" lon="6.31639">
        <ele>1421.9353626794</ele>
        <time>2018-03-04T09:43:28Z</time>
      </trkpt>
      <trkpt lat="45.93934" lon="6.31642">
        <ele>1417.9355392036</ele>
        <time>2018-03-04T09:43:32Z</time>
      </trkpt>
      <trkpt lat="45.93946" lon="6.31643">
        <ele>1416.9356536286</ele>
        <time>2018-03-04T09:43:37Z</time>
      </trkpt>
      <trkpt lat="45.93959" lon="6.31645">
        <ele>1413.9357754825</ele>
        <time>2018-03-04T09:43:42Z</time>
      </trkpt>
      <trkpt lat="45.93972" lon="6.31648">
        <ele>1414.9358830699</ele>
        <time>2018-03-04T09:43:46Z</time>
      </trkpt>
      <trkpt lat="45.93988" lon="6.31648">
        <ele>1415.9360467829</ele>
        <time>2018-03-04T09:43:51Z</time>
      </trkpt>
      <trkpt lat="45.94003" lon="6.31651">
        <ele>1417.9361828815</ele>
        <time>2018-03-04T09:43:55Z</time>
      </trkpt>
      <trkpt lat="45.94015" lon="6.31655">
        <ele>1416.9362739452</ele>
        <time>2018-03-04T09:43:59Z</time>
      </trkpt>
      <trkpt lat="45.94031" lon="6.31659">
        <ele>1418.9364038988</ele>
        <time>2018-03-04T09:44:04Z</time>
      </trkpt>
      <trkpt lat="45.94046" lon="6.31664">
        <ele>1415.9365238305</ele>
        <time>2018-03-04T09:44:09Z</time>
      </trkpt>
      <trkpt lat="45.94062" lon="6.31668">
        <ele>1416.9366528536</ele>
        <time>2018-03-04T09:44:13Z</time>
      </trkpt>
      <trkpt lat="45.94071" lon="6.31671">
        <ele>1416.9367165331</ele>
        <time>2018-03-04T09:44:17Z</time>
      </trkpt>
      <trkpt lat="45.94085" lon="6.31672">
        <ele>1415.9368609288</ele>
        <time>2018-03-04T09:44:21Z</time>
      </trkpt>
      <trkpt lat="45.94106" lon="6.31672">
        <ele>1417.9370747674</ele>
        <time>2018-03-04T09:44:25Z</time>
      </trkpt>
      <trkpt lat="45.94128" lon="6.31668">
        <ele>1415.9373576997</ele>
        <time>2018-03-04T09:44:30Z</time>
      </trkpt>
      <trkpt lat="45.94147" lon="6.31654">
        <ele>1412.9376902316</ele>
        <time>2018-03-04T09:44:35Z</time>
      </trkpt>
      <trkpt lat="45.94157" lon="6.31641">
        <ele>1409.9379183988</ele>
        <time>2018-03-04T09:44:39Z</time>
      </trkpt>
      <trkpt lat="45.94163" lon="6.3162">
        <ele>1410.9381819942</ele>
        <time>2018-03-04T09:44:44Z</time>
      </trkpt>
      <trkpt lat="45.9417" lon="6.31596">
        <ele>1411.9384706434</ele>
        <time>2018-03-04T09:44:49Z</time>
      </trkpt>
      <trkpt lat="45.94172" lon="6.31576">
        <ele>1411.9386826227</ele>
        <time>2018-03-04T09:44:53Z</time>
      </trkpt>
      <trkpt lat="45.94174" lon="6.31559">
        <ele>1413.9388621827</ele>
        <time>2018-03-04T09:44:57Z</time>
      </trkpt>
      <trkpt lat="45.94177" lon="6.31543">
        <ele>1415.939040257</ele>
        <time>2018-03-04T09:45:01Z</time>
      </trkpt>
      <trkpt lat="45.9418" lon="6.31529">
        <ele>1416.9391982862</ele>
        <time>2018-03-04T09:45:05Z</time>
      </trkpt>
      <trkpt lat="45.94182" lon="6.31517">
        <ele>1419.9393303869</ele>
        <time>2018-03-04T09:45:09Z</time>
      </trkpt>
      <trkpt lat="45.94181" lon="6.31503">
        <ele>1419.9394598656</ele>
        <time>2018-03-04T09:45:13Z</time>
      </trkpt>
      <trkpt lat="45.94181" lon="6.31492">
        <ele>1419.9395571441</ele>
        <time>2018-03-04T09:45:17Z</time>
      </trkpt>
      <trkpt lat="45.9418" lon="6.3148">
        <ele>1420.9396552077</ele>
        <time>2018-03-04T09:45:22Z</time>
      </trkpt>
      <trkpt lat="45.94182" lon="6.31468">
        <ele>1423.9397825894</ele>
        <time>2018-03-04T09:45:27Z</time>
      </trkpt>
      <trkpt lat="45.94186" lon="6.31457">
        <ele>1424.9399295885</ele>
        <time>2018-03-04T09:45:31Z</time>
      </trkpt>
      <trkpt lat="45.94196" lon="6.31447">
        <ele>1424.9401311713</ele>
        <time>2018-03-04T09:45:36Z</time>
      </trkpt>
      <trkpt lat="45.94208" lon="6.3144">
        <ele>1424.9403218754</ele>
        <time>2018-03-04T09:45:40Z</time>
      </trkpt>
      <trkpt lat="45.94218" lon="6.31434">
        <ele>1425.9404781434</ele>
        <time>2018-03-04T09:45:44Z</time>
      </trkpt>
      <trkpt lat="45.94225" lon="6.31425">
        <ele>1422.9406341182</ele>
        <time>2018-03-04T09:45:49Z</time>
      </trkpt>
      <trkpt lat="45.94232" lon="6.31418">
        <ele>1422.9407656836</ele>
        <time>2018-03-04T09:45:53Z</time>
      </trkpt>
      <trkpt lat="45.94237" lon="6.3141">
        <ele>1421.9408912845</ele>
        <time>2018-03-04T09:45:58Z</time>
      </trkpt>
      <trkpt lat="45.94244" lon="6.31404">
        <ele>1424.9410246975</ele>
        <time>2018-03-04T09:46:02Z</time>
      </trkpt>
      <trkpt lat="45.94252" lon="6.31398">
        <ele>1428.9411586097</ele>
        <time>2018-03-04T09:46:07Z</time>
      </trkpt>
      <trkpt lat="45.9426" lon="6.31393">
        <ele>1425.9412826278</ele>
        <time>2018-03-04T09:46:14Z</time>
      </trkpt>
      <trkpt lat="45.94268" lon="6.31392">
        <ele>1425.9413793515</ele>
        <time>2018-03-04T09:46:18Z</time>
      </trkpt>
      <trkpt lat="45.94277" lon="6.31393">
        <ele>1426.9414630184</ele>
        <time>2018-03-04T09:46:22Z</time>
      </trkpt>
      <trkpt lat="45.94286" lon="6.31396">
        <ele>1426.9415227769</ele>
        <time>2018-03-04T09:46:26Z</time>
      </trkpt>
      <trkpt lat="45.94297" lon="6.31399">
        <ele>1428.9416136653</ele>
        <time>2018-03-04T09:46:31Z</time>
      </trkpt>
      <trkpt lat="45.9431" lon="6.31404">
        <ele>1428.9416964337</ele>
        <time>2018-03-04T09:46:36Z</time>
      </trkpt>
      <trkpt lat="45.94323" lon="6.31411">
        <ele>1426.9417629352</ele>
        <time>2018-03-04T09:46:40Z</time>
      </trkpt>
      <trkpt lat="45.94334" lon="6.31445">
        <ele>1422.9415717189</ele>
        <time>2018-03-04T09:46:44Z</time>
      </trkpt>
      <trkpt lat="45.94336" lon="6.31465">
        <ele>1419.9414140997</ele>
        <time>2018-03-04T09:46:48Z</time>
      </trkpt>
      <trkpt lat="45.94334" lon="6.31484">
        <ele>1419.9412146316</ele>
        <time>2018-03-04T09:46:52Z</time>
      </trkpt>
      <trkpt lat="45.94326" lon="6.31527">
        <ele>1416.9407449116</ele>
        <time>2018-03-04T09:46:57Z</time>
      </trkpt>
      <trkpt lat="45.94323" lon="6.31559">
        <ele>1414.9404211401</ele>
        <time>2018-03-04T09:47:02Z</time>
      </trkpt>
      <trkpt lat="45.94327" lon="6.31596">
        <ele>1407.9401318169</ele>
        <time>2018-03-04T09:47:06Z</time>
      </trkpt>
      <trkpt lat="45.94355" lon="6.31642">
        <ele>1407.9400126427</ele>
        <time>2018-03-04T09:47:11Z</time>
      </trkpt>
      <trkpt lat="45.94383" lon="6.31639">
        <ele>1407.9403334978</ele>
        <time>2018-03-04T09:47:15Z</time>
      </trkpt>
      <trkpt lat="45.94403" lon="6.31635">
        <ele>1407.94058212</ele>
        <time>2018-03-04T09:47:19Z</time>
      </trkpt>
      <trkpt lat="45.94423" lon="6.31629">
        <ele>1408.9408460211</ele>
        <time>2018-03-04T09:47:23Z</time>
      </trkpt>
      <trkpt lat="45.94447" lon="6.31623">
        <ele>1406.9411567347</ele>
        <time>2018-03-04T09:47:28Z</time>
      </trkpt>
      <trkpt lat="45.94464" lon="6.31623">
        <ele>1404.9413394423</ele>
        <time>2018-03-04T09:47:32Z</time>
      </trkpt>
      <trkpt lat="45.94484" lon="6.31626">
        <ele>1405.9415154053</ele>
        <time>2018-03-04T09:47:36Z</time>
      </trkpt>
      <trkpt lat="45.94499" lon="6.31632">
        <ele>1404.9416270097</ele>
        <time>2018-03-04T09:47:40Z</time>
      </trkpt>
      <trkpt lat="45.94518" lon="6.31641">
        <ele>1404.9417468294</ele>
        <time>2018-03-04T09:47:45Z</time>
      </trkpt>
      <trkpt lat="45.94533" lon="6.31646">
        <ele>1403.9418656346</ele>
        <time>2018-03-04T09:47:49Z</time>
      </trkpt>
      <trkpt lat="45.94555" lon="6.31644">
        <ele>1404.9421178181</ele>
        <time>2018-03-04T09:47:54Z</time>
      </trkpt>
      <trkpt lat="45.9457" lon="6.31634">
        <ele>1403.94235763</ele>
        <time>2018-03-04T09:47:59Z</time>
      </trkpt>
      <trkpt lat="45.94584" lon="6.31626">
        <ele>1402.9425791279</ele>
        <time>2018-03-04T09:48:03Z</time>
      </trkpt>
      <trkpt lat="45.94602" lon="6.31616">
        <ele>1402.9428553091</ele>
        <time>2018-03-04T09:48:08Z</time>
      </trkpt>
      <trkpt lat="45.94621" lon="6.31603">
        <ele>1403.9431714616</ele>
        <time>2018-03-04T09:48:13Z</time>
      </trkpt>
      <trkpt lat="45.94637" lon="6.31592">
        <ele>1403.9434369061</ele>
        <time>2018-03-04T09:48:17Z</time>
      </trkpt>
      <trkpt lat="45.94655" lon="6.31581">
        <ele>1404.9437202328</ele>
        <time>2018-03-04T09:48:21Z</time>
      </trkpt>
      <trkpt lat="45.94678" lon="6.31568">
        <ele>1403.9440738872</ele>
        <time>2018-03-04T09:48:26Z</time>
      </trkpt>
      <trkpt lat="45.94699" lon="6.31558">
        <ele>1403.9443714881</ele>
        <time>2018-03-04T09:48:30Z</time>
      </trkpt>
      <trkpt lat="45.94722" lon="6.31552">
        <ele>1404.9446698594</ele>
        <time>2018-03-04T09:48:34Z</time>
      </trkpt>
      <trkpt lat="45.94741" lon="6.31551">
        <ele>1403.9448703478</ele>
        <time>2018-03-04T09:48:38Z</time>
      </trkpt>
      <trkpt lat="45.94762" lon="6.31558">
        <ele>1402.9450318171</ele>
        <time>2018-03-04T09:48:43Z</time>
      </trkpt>
      <trkpt lat="45.9478" lon="6.31571">
        <ele>1400.9451135704</ele>
        <time>2018-03-04T09:48:47Z</time>
      </trkpt>
      <trkpt lat="45.94796" lon="6.31594">
        <ele>1398.9450966032</ele>
        <time>2018-03-04T09:48:52Z</time>
      </trkpt>
      <trkpt lat="45.94801" lon="6.31613">
        <ele>1396.9449966811</ele>
        <time>2018-03-04T09:48:56Z</time>
      </trkpt>
      <trkpt lat="45.94808" lon="6.31631">
        <ele>1394.9449174367</ele>
        <time>2018-03-04T09:49:01Z</time>
      </trkpt>
      <trkpt lat="45.94815" lon="6.31645">
        <ele>1393.9448675102</ele>
        <time>2018-03-04T09:49:05Z</time>
      </trkpt>
      <trkpt lat="45.94821" lon="6.31659">
        <ele>1393.9448252554</ele>
        <time>2018-03-04T09:49:09Z</time>
      </trkpt>
      <trkpt lat="45.9483" lon="6.31673">
        <ele>1394.9447990776</ele>
        <time>2018-03-04T09:49:13Z</time>
      </trkpt>
      <trkpt lat="45.94837" lon="6.31687">
        <ele>1395.9447560371</ele>
        <time>2018-03-04T09:49:17Z</time>
      </trkpt>
      <trkpt lat="45.94844" lon="6.31698">
        <ele>1396.9447409786</ele>
        <time>2018-03-04T09:49:21Z</time>
      </trkpt>
      <trkpt lat="45.9485" lon="6.31713">
        <ele>1399.9446820269</ele>
        <time>2018-03-04T09:49:26Z</time>
      </trkpt>
      <trkpt lat="45.94856" lon="6.31721">
        <ele>1398.9446838818</ele>
        <time>2018-03-04T09:49:30Z</time>
      </trkpt>
      <trkpt lat="45.94859" lon="6.31732">
        <ele>1400.944630285</ele>
        <time>2018-03-04T09:49:34Z</time>
      </trkpt>
      <trkpt lat="45.94862" lon="6.31743">
        <ele>1401.944566674</ele>
        <time>2018-03-04T09:49:39Z</time>
      </trkpt>
      <trkpt lat="45.94861" lon="6.31755">
        <ele>1402.9444618985</ele>
        <time>2018-03-04T09:49:44Z</time>
      </trkpt>
      <trkpt lat="45.9486" lon="6.31767">
        <ele>1401.94434394</ele>
        <time>2018-03-04T09:49:49Z</time>
      </trkpt>
      <trkpt lat="45.94856" lon="6.31775">
        <ele>1399.9442312719</ele>
        <time>2018-03-04T09:49:53Z</time>
      </trkpt>
      <trkpt lat="45.9485" lon="6.31786">
        <ele>1399.9440823651</ele>
        <time>2018-03-04T09:49:57Z</time>
      </trkpt>
      <trkpt lat="45.94841" lon="6.31799">
        <ele>1401.9438773125</ele>
        <time>2018-03-04T09:50:02Z</time>
      </trkpt>
      <trkpt lat="45.94832" lon="6.3181">
        <ele>1402.9436863002</ele>
        <time>2018-03-04T09:50:06Z</time>
      </trkpt>
      <trkpt lat="45.94819" lon="6.31819">
        <ele>1402.943476161</ele>
        <time>2018-03-04T09:50:11Z</time>
      </trkpt>
      <trkpt lat="45.94807" lon="6.31827">
        <ele>1407.9432701793</ele>
        <time>2018-03-04T09:50:15Z</time>
      </trkpt>
      <trkpt lat="45.94794" lon="6.31832">
        <ele>1409.9430866895</ele>
        <time>2018-03-04T09:50:20Z</time>
      </trkpt>
      <trkpt lat="45.94779" lon="6.31833">
        <ele>1407.9429247517</ele>
        <time>2018-03-04T09:50:24Z</time>
      </trkpt>
      <trkpt lat="45.94765" lon="6.31836">
        <ele>1407.9427495103</ele>
        <time>2018-03-04T09:50:28Z</time>
      </trkpt>
      <trkpt lat="45.94751" lon="6.31845">
        <ele>1406.9425185509</ele>
        <time>2018-03-04T09:50:33Z</time>
      </trkpt>
      <trkpt lat="45.94741" lon="6.31855">
        <ele>1404.9423201829</ele>
        <time>2018-03-04T09:50:37Z</time>
      </trkpt>
      <trkpt lat="45.94734" lon="6.31876">
        <ele>1402.9420690069</ele>
        <time>2018-03-04T09:50:42Z</time>
      </trkpt>
      <trkpt lat="45.94732" lon="6.31897">
        <ele>1401.941869466</ele>
        <time>2018-03-04T09:50:47Z</time>
      </trkpt>
      <trkpt lat="45.94736" lon="6.3191">
        <ele>1398.9417938307</ele>
        <time>2018-03-04T09:50:51Z</time>
      </trkpt>
      <trkpt lat="45.94744" lon="6.31925">
        <ele>1390.9417618505</ele>
        <time>2018-03-04T09:50:56Z</time>
      </trkpt>
      <trkpt lat="45.94758" lon="6.31945">
        <ele>1386.9417559158</ele>
        <time>2018-03-04T09:51:01Z</time>
      </trkpt>
      <trkpt lat="45.94769" lon="6.31972">
        <ele>1391.9416507305</ele>
        <time>2018-03-04T09:51:05Z</time>
      </trkpt>
      <trkpt lat="45.94787" lon="6.32">
        <ele>1393.9416208067</ele>
        <time>2018-03-04T09:51:10Z</time>
      </trkpt>
      <trkpt lat="45.94805" lon="6.32015">
        <ele>1394.9416879187</ele>
        <time>2018-03-04T09:51:15Z</time>
      </trkpt>
      <trkpt lat="45.94817" lon="6.32022">
        <ele>1397.941768223</ele>
        <time>2018-03-04T09:51:19Z</time>
      </trkpt>
      <trkpt lat="45.94809" lon="6.32018">
        <ele>1402.9417122605</ele>
        <time>2018-03-04T09:52:03Z</time>
      </trkpt>
      <trkpt lat="45.94797" lon="6.32011">
        <ele>1402.9416385857</ele>
        <time>2018-03-04T09:52:07Z</time>
      </trkpt>
      <trkpt lat="45.94785" lon="6.32003">
        <ele>1403.9415756593</ele>
        <time>2018-03-04T09:52:11Z</time>
      </trkpt>
      <trkpt lat="45.94775" lon="6.31993">
        <ele>1404.9415393161</ele>
        <time>2018-03-04T09:52:15Z</time>
      </trkpt>
      <trkpt lat="45.94761" lon="6.31978">
        <ele>1404.9415092761</ele>
        <time>2018-03-04T09:52:20Z</time>
      </trkpt>
      <trkpt lat="45.94753" lon="6.31967">
        <ele>1404.9415169935</ele>
        <time>2018-03-04T09:52:24Z</time>
      </trkpt>
      <trkpt lat="45.94745" lon="6.31947">
        <ele>1404.9415862421</ele>
        <time>2018-03-04T09:52:29Z</time>
      </trkpt>
      <trkpt lat="45.9475" lon="6.31956">
        <ele>1401.9415724436</ele>
        <time>2018-03-04T09:53:28Z</time>
      </trkpt>
      <trkpt lat="45.94757" lon="6.31965">
        <ele>1398.9415759982</ele>
        <time>2018-03-04T09:53:32Z</time>
      </trkpt>
      <trkpt lat="45.94764" lon="6.31978">
        <ele>1398.941539674</ele>
        <time>2018-03-04T09:53:37Z</time>
      </trkpt>
      <trkpt lat="45.94775" lon="6.31993">
        <ele>1395.9415404208</ele>
        <time>2018-03-04T09:53:42Z</time>
      </trkpt>
      <trkpt lat="45.94786" lon="6.32003">
        <ele>1395.9415827546</ele>
        <time>2018-03-04T09:53:46Z</time>
      </trkpt>
      <trkpt lat="45.94797" lon="6.32011">
        <ele>1395.9416361002</ele>
        <time>2018-03-04T09:53:50Z</time>
      </trkpt>
      <trkpt lat="45.94809" lon="6.32019">
        <ele>1396.9417012846</ele>
        <time>2018-03-04T09:53:54Z</time>
      </trkpt>
      <trkpt lat="45.94819" lon="6.32024">
        <ele>1394.9417689959</ele>
        <time>2018-03-04T09:53:58Z</time>
      </trkpt>
      <trkpt lat="45.94829" lon="6.32031">
        <ele>1390.941824024</ele>
        <time>2018-03-04T09:54:03Z</time>
      </trkpt>
      <trkpt lat="45.94842" lon="6.32033">
        <ele>1393.9419640127</ele>
        <time>2018-03-04T09:54:07Z</time>
      </trkpt>
      <trkpt lat="45.94855" lon="6.32034">
        <ele>1395.9420999555</ele>
        <time>2018-03-04T09:54:12Z</time>
      </trkpt>
      <trkpt lat="45.94864" lon="6.32036">
        <ele>1394.9421841885</ele>
        <time>2018-03-04T09:54:17Z</time>
      </trkpt>
      <trkpt lat="45.94878" lon="6.32031">
        <ele>1395.9423829903</ele>
        <time>2018-03-04T09:54:22Z</time>
      </trkpt>
      <trkpt lat="45.94888" lon="6.3202">
        <ele>1395.9425797589</ele>
        <time>2018-03-04T09:54:26Z</time>
      </trkpt>
      <trkpt lat="45.94894" lon="6.32009">
        <ele>1394.9427452451</ele>
        <time>2018-03-04T09:54:30Z</time>
      </trkpt>
      <trkpt lat="45.94902" lon="6.31995">
        <ele>1394.9429391343</ele>
        <time>2018-03-04T09:54:34Z</time>
      </trkpt>
      <trkpt lat="45.94911" lon="6.31981">
        <ele>1394.9431654573</ele>
        <time>2018-03-04T09:54:38Z</time>
      </trkpt>
      <trkpt lat="45.94926" lon="6.31955">
        <ele>1395.9435392101</ele>
        <time>2018-03-04T09:54:43Z</time>
      </trkpt>
      <trkpt lat="45.94943" lon="6.31934">
        <ele>1394.9438992015</ele>
        <time>2018-03-04T09:54:47Z</time>
      </trkpt>
      <trkpt lat="45.94975" lon="6.31914">
        <ele>1394.9444072195</ele>
        <time>2018-03-04T09:54:52Z</time>
      </trkpt>
      <trkpt lat="45.95001" lon="6.31908">
        <ele>1395.9447496999</ele>
        <time>2018-03-04T09:54:56Z</time>
      </trkpt>
      <trkpt lat="45.95024" lon="6.31909">
        <ele>1391.9450006193</ele>
        <time>2018-03-04T09:55:00Z</time>
      </trkpt>
      <trkpt lat="45.95049" lon="6.31911">
        <ele>1389.9452618503</ele>
        <time>2018-03-04T09:55:05Z</time>
      </trkpt>
      <trkpt lat="45.95057" lon="6.31912">
        <ele>1385.9453280371</ele>
        <time>2018-03-04T09:55:09Z</time>
      </trkpt>
      <trkpt lat="45.95066" lon="6.31912">
        <ele>1387.9454342982</ele>
        <time>2018-03-04T09:55:13Z</time>
      </trkpt>
      <trkpt lat="45.95075" lon="6.31915">
        <ele>1388.9455040424</ele>
        <time>2018-03-04T09:55:19Z</time>
      </trkpt>
      <trkpt lat="45.95083" lon="6.31916">
        <ele>1384.9455953406</ele>
        <time>2018-03-04T09:55:26Z</time>
      </trkpt>
      <trkpt lat="45.95093" lon="6.31914">
        <ele>1387.9457197512</ele>
        <time>2018-03-04T09:55:31Z</time>
      </trkpt>
      <trkpt lat="45.95102" lon="6.31917">
        <ele>1394.945789467</ele>
        <time>2018-03-04T09:55:37Z</time>
      </trkpt>
      <trkpt lat="45.9511" lon="6.31916">
        <ele>1393.9458935857</ele>
        <time>2018-03-04T09:55:41Z</time>
      </trkpt>
      <trkpt lat="45.95118" lon="6.31919">
        <ele>1393.9459569025</ele>
        <time>2018-03-04T09:55:47Z</time>
      </trkpt>
      <trkpt lat="45.95129" lon="6.3192">
        <ele>1394.9460654405</ele>
        <time>2018-03-04T09:55:52Z</time>
      </trkpt>
      <trkpt lat="45.95138" lon="6.31923">
        <ele>1393.9461499402</ele>
        <time>2018-03-04T09:55:56Z</time>
      </trkpt>
      <trkpt lat="45.95146" lon="6.31931">
        <ele>1395.9461704312</ele>
        <time>2018-03-04T09:56:00Z</time>
      </trkpt>
      <trkpt lat="45.95154" lon="6.3193">
        <ele>1396.9462667212</ele>
        <time>2018-03-04T09:56:05Z</time>
      </trkpt>
      <trkpt lat="45.95162" lon="6.31931">
        <ele>1395.946353552</ele>
        <time>2018-03-04T09:56:09Z</time>
      </trkpt>
      <trkpt lat="45.95179" lon="6.31931">
        <ele>1390.9465362157</ele>
        <time>2018-03-04T09:56:14Z</time>
      </trkpt>
      <trkpt lat="45.95227" lon="6.3194">
        <ele>1386.9470047539</ele>
        <time>2018-03-04T09:56:19Z</time>
      </trkpt>
      <trkpt lat="45.95252" lon="6.3194">
        <ele>1391.9472817921</ele>
        <time>2018-03-04T09:56:23Z</time>
      </trkpt>
      <trkpt lat="45.95271" lon="6.31942">
        <ele>1392.9474671777</ele>
        <time>2018-03-04T09:56:28Z</time>
      </trkpt>
      <trkpt lat="45.95291" lon="6.3195">
        <ele>1394.9476322781</ele>
        <time>2018-03-04T09:56:32Z</time>
      </trkpt>
      <trkpt lat="45.95309" lon="6.31986">
        <ele>1391.9475605493</ele>
        <time>2018-03-04T09:56:37Z</time>
      </trkpt>
      <trkpt lat="45.95334" lon="6.32013">
        <ele>1389.9476466209</ele>
        <time>2018-03-04T09:56:41Z</time>
      </trkpt>
      <trkpt lat="45.95365" lon="6.3204">
        <ele>1389.9477885557</ele>
        <time>2018-03-04T09:56:45Z</time>
      </trkpt>
      <trkpt lat="45.95354" lon="6.32078">
        <ele>1384.9473881658</ele>
        <time>2018-03-04T09:56:49Z</time>
      </trkpt>
      <trkpt lat="45.95327" lon="6.32123">
        <ele>1386.9467433994</ele>
        <time>2018-03-04T09:56:54Z</time>
      </trkpt>
      <trkpt lat="45.95317" lon="6.32154">
        <ele>1387.9463960209</ele>
        <time>2018-03-04T09:56:58Z</time>
      </trkpt>
      <trkpt lat="45.95318" lon="6.32186">
        <ele>1387.9461724317</ele>
        <time>2018-03-04T09:57:02Z</time>
      </trkpt>
      <trkpt lat="45.95334" lon="6.32198">
        <ele>1382.946259059</ele>
        <time>2018-03-04T09:57:06Z</time>
      </trkpt>
      <trkpt lat="45.95354" lon="6.32198">
        <ele>1375.9464959019</ele>
        <time>2018-03-04T09:57:11Z</time>
      </trkpt>
      <trkpt lat="45.95382" lon="6.32182">
        <ele>1372.9469372162</ele>
        <time>2018-03-04T09:57:16Z</time>
      </trkpt>
      <trkpt lat="45.95406" lon="6.32198">
        <ele>1374.9470964437</ele>
        <time>2018-03-04T09:57:20Z</time>
      </trkpt>
      <trkpt lat="45.95415" lon="6.3221">
        <ele>1371.947103164</ele>
        <time>2018-03-04T09:57:24Z</time>
      </trkpt>
      <trkpt lat="45.95416" lon="6.32225">
        <ele>1369.9470053031</ele>
        <time>2018-03-04T09:57:29Z</time>
      </trkpt>
      <trkpt lat="45.9542" lon="6.32237">
        <ele>1367.9469633586</ele>
        <time>2018-03-04T09:57:35Z</time>
      </trkpt>
      <trkpt lat="45.95426" lon="6.32242">
        <ele>1366.9470012041</ele>
        <time>2018-03-04T09:57:40Z</time>
      </trkpt>
      <trkpt lat="45.95434" lon="6.32246">
        <ele>1367.9470646695</ele>
        <time>2018-03-04T09:57:44Z</time>
      </trkpt>
      <trkpt lat="45.95433" lon="6.32259">
        <ele>1365.9469554777</ele>
        <time>2018-03-04T09:57:48Z</time>
      </trkpt>
      <trkpt lat="45.95438" lon="6.32268">
        <ele>1365.9469464244</ele>
        <time>2018-03-04T09:57:53Z</time>
      </trkpt>
      <trkpt lat="45.95439" lon="6.3228">
        <ele>1363.9468667667</ele>
        <time>2018-03-04T09:57:59Z</time>
      </trkpt>
      <trkpt lat="45.95443" lon="6.32285">
        <ele>1366.9468819756</ele>
        <time>2018-03-04T09:58:03Z</time>
      </trkpt>
      <trkpt lat="45.95452" lon="6.3229">
        <ele>1372.9469469825</ele>
        <time>2018-03-04T09:58:07Z</time>
      </trkpt>
      <trkpt lat="45.95456" lon="6.32299">
        <ele>1376.9469354957</ele>
        <time>2018-03-04T09:58:12Z</time>
      </trkpt>
      <trkpt lat="45.95465" lon="6.32304">
        <ele>1379.9470024018</ele>
        <time>2018-03-04T09:58:16Z</time>
      </trkpt>
      <trkpt lat="45.95473" lon="6.32301">
        <ele>1378.9471088744</ele>
        <time>2018-03-04T09:58:22Z</time>
      </trkpt>
      <trkpt lat="45.9548" lon="6.32295">
        <ele>1375.9472391802</ele>
        <time>2018-03-04T09:58:30Z</time>
      </trkpt>
      <trkpt lat="45.95487" lon="6.32289">
        <ele>1376.9473703575</ele>
        <time>2018-03-04T09:58:42Z</time>
      </trkpt>
      <trkpt lat="45.95493" lon="6.32283">
        <ele>1376.947485794</ele>
        <time>2018-03-04T09:58:50Z</time>
      </trkpt>
      <trkpt lat="45.95501" lon="6.32277">
        <ele>1377.9476223613</ele>
        <time>2018-03-04T09:58:54Z</time>
      </trkpt>
      <trkpt lat="45.95512" lon="6.32267">
        <ele>1377.9478197111</ele>
        <time>2018-03-04T09:58:59Z</time>
      </trkpt>
      <trkpt lat="45.95523" lon="6.32254">
        <ele>1375.9480433353</ele>
        <time>2018-03-04T09:59:03Z</time>
      </trkpt>
      <trkpt lat="45.95532" lon="6.32242">
        <ele>1376.9482349775</ele>
        <time>2018-03-04T09:59:07Z</time>
      </trkpt>
      <trkpt lat="45.9554" lon="6.32234">
        <ele>1376.9483798753</ele>
        <time>2018-03-04T09:59:12Z</time>
      </trkpt>
      <trkpt lat="45.95547" lon="6.32228">
        <ele>1375.9485055752</ele>
        <time>2018-03-04T09:59:18Z</time>
      </trkpt>
      <trkpt lat="45.95557" lon="6.32226">
        <ele>1376.9486306214</ele>
        <time>2018-03-04T09:59:23Z</time>
      </trkpt>
      <trkpt lat="45.95565" lon="6.32224">
        <ele>1379.9487409184</ele>
        <time>2018-03-04T09:59:29Z</time>
      </trkpt>
      <trkpt lat="45.95579" lon="6.32222">
        <ele>1382.9489110994</ele>
        <time>2018-03-04T09:59:34Z</time>
      </trkpt>
      <trkpt lat="45.95586" lon="6.32218">
        <ele>1383.9490231797</ele>
        <time>2018-03-04T09:59:38Z</time>
      </trkpt>
      <trkpt lat="45.95594" lon="6.32212">
        <ele>1383.949157603</ele>
        <time>2018-03-04T09:59:43Z</time>
      </trkpt>
      <trkpt lat="45.956" lon="6.32207">
        <ele>1386.9492652152</ele>
        <time>2018-03-04T09:59:47Z</time>
      </trkpt>
      <trkpt lat="45.95608" lon="6.32199">
        <ele>1386.9494056919</ele>
        <time>2018-03-04T09:59:52Z</time>
      </trkpt>
      <trkpt lat="45.95613" lon="6.32191">
        <ele>1386.9495315035</ele>
        <time>2018-03-04T09:59:57Z</time>
      </trkpt>
      <trkpt lat="45.9562" lon="6.32183">
        <ele>1388.9496538745</ele>
        <time>2018-03-04T10:00:01Z</time>
      </trkpt>
      <trkpt lat="45.95627" lon="6.32176">
        <ele>1386.9497898949</ele>
        <time>2018-03-04T10:00:06Z</time>
      </trkpt>
      <trkpt lat="45.95636" lon="6.32169">
        <ele>1387.9499386635</ele>
        <time>2018-03-04T10:00:10Z</time>
      </trkpt>
      <trkpt lat="45.95646" lon="6.32159">
        <ele>1387.9501259736</ele>
        <time>2018-03-04T10:00:14Z</time>
      </trkpt>
      <trkpt lat="45.95658" lon="6.32144">
        <ele>1387.9503638374</ele>
        <time>2018-03-04T10:00:18Z</time>
      </trkpt>
      <trkpt lat="45.95671" lon="6.32135">
        <ele>1388.950584252</ele>
        <time>2018-03-04T10:00:22Z</time>
      </trkpt>
      <trkpt lat="45.95686" lon="6.32139">
        <ele>1389.950728263</ele>
        <time>2018-03-04T10:00:26Z</time>
      </trkpt>
      <trkpt lat="45.95689" lon="6.32154">
        <ele>1389.9506541421</ele>
        <time>2018-03-04T10:00:31Z</time>
      </trkpt>
      <trkpt lat="45.95684" lon="6.32164">
        <ele>1391.9505249521</ele>
        <time>2018-03-04T10:00:42Z</time>
      </trkpt>
      <trkpt lat="45.95683" lon="6.32177">
        <ele>1390.9504260319</ele>
        <time>2018-03-04T10:00:48Z</time>
      </trkpt>
      <trkpt lat="45.95685" lon="6.32187">
        <ele>1391.9503816218</ele>
        <time>2018-03-04T10:00:53Z</time>
      </trkpt>
      <trkpt lat="45.95692" lon="6.32198">
        <ele>1392.9503819116</ele>
        <time>2018-03-04T10:00:57Z</time>
      </trkpt>
      <trkpt lat="45.957" lon="6.32209">
        <ele>1390.9503995416</ele>
        <time>2018-03-04T10:01:02Z</time>
      </trkpt>
      <trkpt lat="45.95706" lon="6.3222">
        <ele>1390.9503979842</ele>
        <time>2018-03-04T10:01:06Z</time>
      </trkpt>
      <trkpt lat="45.95713" lon="6.3223">
        <ele>1389.9504028804</ele>
        <time>2018-03-04T10:01:10Z</time>
      </trkpt>
      <trkpt lat="45.95725" lon="6.32248">
        <ele>1390.9504292317</ele>
        <time>2018-03-04T10:01:15Z</time>
      </trkpt>
      <trkpt lat="45.95741" lon="6.32262">
        <ele>1389.9505072431</ele>
        <time>2018-03-04T10:01:20Z</time>
      </trkpt>
      <trkpt lat="45.95755" lon="6.32273">
        <ele>1390.9505979083</ele>
        <time>2018-03-04T10:01:24Z</time>
      </trkpt>
      <trkpt lat="45.95776" lon="6.32283">
        <ele>1388.9507781821</ele>
        <time>2018-03-04T10:01:28Z</time>
      </trkpt>
      <trkpt lat="45.95807" lon="6.32298">
        <ele>1388.9510324345</ele>
        <time>2018-03-04T10:01:32Z</time>
      </trkpt>
      <trkpt lat="45.95827" lon="6.32325">
        <ele>1389.9510907948</ele>
        <time>2018-03-04T10:01:37Z</time>
      </trkpt>
      <trkpt lat="45.95835" lon="6.32335">
        <ele>1387.9511147363</ele>
        <time>2018-03-04T10:01:41Z</time>
      </trkpt>
      <trkpt lat="45.95843" lon="6.32347">
        <ele>1385.9511273845</ele>
        <time>2018-03-04T10:01:45Z</time>
      </trkpt>
      <trkpt lat="45.95856" lon="6.32362">
        <ele>1388.9511813641</ele>
        <time>2018-03-04T10:01:49Z</time>
      </trkpt>
      <trkpt lat="45.95872" lon="6.32377">
        <ele>1387.9512772791</ele>
        <time>2018-03-04T10:01:54Z</time>
      </trkpt>
      <trkpt lat="45.95888" lon="6.32387">
        <ele>1387.9514039873</ele>
        <time>2018-03-04T10:01:58Z</time>
      </trkpt>
      <trkpt lat="45.95903" lon="6.32399">
        <ele>1388.951501604</ele>
        <time>2018-03-04T10:02:02Z</time>
      </trkpt>
      <trkpt lat="45.95919" lon="6.32418">
        <ele>1389.9515562218</ele>
        <time>2018-03-04T10:02:07Z</time>
      </trkpt>
      <trkpt lat="45.95933" lon="6.32438">
        <ele>1388.951591464</ele>
        <time>2018-03-04T10:02:12Z</time>
      </trkpt>
      <trkpt lat="45.95947" lon="6.32453">
        <ele>1390.9516599149</ele>
        <time>2018-03-04T10:02:16Z</time>
      </trkpt>
      <trkpt lat="45.95963" lon="6.32475">
        <ele>1389.9517213217</ele>
        <time>2018-03-04T10:02:21Z</time>
      </trkpt>
      <trkpt lat="45.95978" lon="6.32487">
        <ele>1387.951818572</ele>
        <time>2018-03-04T10:02:25Z</time>
      </trkpt>
      <trkpt lat="45.95999" lon="6.32487">
        <ele>1387.9520671449</ele>
        <time>2018-03-04T10:02:29Z</time>
      </trkpt>
      <trkpt lat="45.96021" lon="6.32495">
        <ele>1387.9522877219</ele>
        <time>2018-03-04T10:02:34Z</time>
      </trkpt>
      <trkpt lat="45.96032" lon="6.32501">
        <ele>1387.9523819447</ele>
        <time>2018-03-04T10:02:38Z</time>
      </trkpt>
      <trkpt lat="45.96041" lon="6.32509">
        <ele>1389.9524385519</ele>
        <time>2018-03-04T10:02:42Z</time>
      </trkpt>
      <trkpt lat="45.96048" lon="6.32516">
        <ele>1388.952479573</ele>
        <time>2018-03-04T10:02:46Z</time>
      </trkpt>
      <trkpt lat="45.96057" lon="6.32536">
        <ele>1387.9524522607</ele>
        <time>2018-03-04T10:02:51Z</time>
      </trkpt>
      <trkpt lat="45.96062" lon="6.32552">
        <ele>1387.9524107708</ele>
        <time>2018-03-04T10:02:55Z</time>
      </trkpt>
      <trkpt lat="45.96066" lon="6.32575">
        <ele>1386.9523173572</ele>
        <time>2018-03-04T10:03:00Z</time>
      </trkpt>
      <trkpt lat="45.96071" lon="6.32592">
        <ele>1387.9522708902</ele>
        <time>2018-03-04T10:03:04Z</time>
      </trkpt>
      <trkpt lat="45.96075" lon="6.32607">
        <ele>1388.9522276273</ele>
        <time>2018-03-04T10:03:08Z</time>
      </trkpt>
      <trkpt lat="45.96082" lon="6.3263">
        <ele>1389.9521709178</ele>
        <time>2018-03-04T10:03:13Z</time>
      </trkpt>
      <trkpt lat="45.96088" lon="6.32647">
        <ele>1386.952131969</ele>
        <time>2018-03-04T10:03:18Z</time>
      </trkpt>
      <trkpt lat="45.96091" lon="6.32661">
        <ele>1385.9520925647</ele>
        <time>2018-03-04T10:03:22Z</time>
      </trkpt>
      <trkpt lat="45.96096" lon="6.32673">
        <ele>1384.9520732827</ele>
        <time>2018-03-04T10:03:27Z</time>
      </trkpt>
      <trkpt lat="45.96106" lon="6.32691">
        <ele>1386.9520795933</ele>
        <time>2018-03-04T10:03:32Z</time>
      </trkpt>
      <trkpt lat="45.96113" lon="6.32706">
        <ele>1388.9520753205</ele>
        <time>2018-03-04T10:03:36Z</time>
      </trkpt>
      <trkpt lat="45.96122" lon="6.32723">
        <ele>1389.9520775192</ele>
        <time>2018-03-04T10:03:40Z</time>
      </trkpt>
      <trkpt lat="45.96132" lon="6.32739">
        <ele>1388.9521020294</ele>
        <time>2018-03-04T10:03:45Z</time>
      </trkpt>
      <trkpt lat="45.9614" lon="6.32754">
        <ele>1389.9521048719</ele>
        <time>2018-03-04T10:03:50Z</time>
      </trkpt>
      <trkpt lat="45.9615" lon="6.32768">
        <ele>1390.9521406086</ele>
        <time>2018-03-04T10:03:55Z</time>
      </trkpt>
      <trkpt lat="45.96158" lon="6.32777">
        <ele>1391.9521906298</ele>
        <time>2018-03-04T10:03:59Z</time>
      </trkpt>
      <trkpt lat="45.96164" lon="6.32786">
        <ele>1391.9522151296</ele>
        <time>2018-03-04T10:04:03Z</time>
      </trkpt>
      <trkpt lat="45.96171" lon="6.32797">
        <ele>1390.9522352457</ele>
        <time>2018-03-04T10:04:08Z</time>
      </trkpt>
      <trkpt lat="45.96177" lon="6.32805">
        <ele>1390.952252308</ele>
        <time>2018-03-04T10:04:12Z</time>
      </trkpt>
      <trkpt lat="45.96183" lon="6.32815">
        <ele>1391.952272881</ele>
        <time>2018-03-04T10:04:17Z</time>
      </trkpt>
      <trkpt lat="45.9619" lon="6.32821">
        <ele>1395.9523249747</ele>
        <time>2018-03-04T10:04:23Z</time>
      </trkpt>
      <trkpt lat="45.96197" lon="6.32827">
        <ele>1396.9523691378</ele>
        <time>2018-03-04T10:04:27Z</time>
      </trkpt>
      <trkpt lat="45.96206" lon="6.3284">
        <ele>1396.9524103192</ele>
        <time>2018-03-04T10:04:32Z</time>
      </trkpt>
      <trkpt lat="45.96212" lon="6.32848">
        <ele>1399.9524371826</ele>
        <time>2018-03-04T10:04:37Z</time>
      </trkpt>
      <trkpt lat="45.96218" lon="6.32854">
        <ele>1400.952475918</ele>
        <time>2018-03-04T10:04:42Z</time>
      </trkpt>
      <trkpt lat="45.96227" lon="6.32859">
        <ele>1401.9525506579</ele>
        <time>2018-03-04T10:04:47Z</time>
      </trkpt>
      <trkpt lat="45.96237" lon="6.32859">
        <ele>1402.9526892121</ele>
        <time>2018-03-04T10:04:51Z</time>
      </trkpt>
      <trkpt lat="45.96247" lon="6.3286">
        <ele>1403.9528038005</ele>
        <time>2018-03-04T10:04:56Z</time>
      </trkpt>
      <trkpt lat="45.96261" lon="6.32865">
        <ele>1404.9529516616</ele>
        <time>2018-03-04T10:05:01Z</time>
      </trkpt>
      <trkpt lat="45.9627" lon="6.32871">
        <ele>1404.9530199022</ele>
        <time>2018-03-04T10:05:06Z</time>
      </trkpt>
      <trkpt lat="45.96277" lon="6.32875">
        <ele>1406.9530856495</ele>
        <time>2018-03-04T10:05:11Z</time>
      </trkpt>
      <trkpt lat="45.96286" lon="6.3288">
        <ele>1407.9531675501</ele>
        <time>2018-03-04T10:05:16Z</time>
      </trkpt>
      <trkpt lat="45.96293" lon="6.32885">
        <ele>1409.9532288986</ele>
        <time>2018-03-04T10:05:21Z</time>
      </trkpt>
      <trkpt lat="45.96301" lon="6.32889">
        <ele>1409.9533034895</ele>
        <time>2018-03-04T10:05:26Z</time>
      </trkpt>
      <trkpt lat="45.96309" lon="6.32896">
        <ele>1410.9533678247</ele>
        <time>2018-03-04T10:05:31Z</time>
      </trkpt>
      <trkpt lat="45.96319" lon="6.32905">
        <ele>1410.953445123</ele>
        <time>2018-03-04T10:05:36Z</time>
      </trkpt>
      <trkpt lat="45.96327" lon="6.32912">
        <ele>1410.9535036457</ele>
        <time>2018-03-04T10:05:40Z</time>
      </trkpt>
      <trkpt lat="45.96335" lon="6.32917">
        <ele>1412.9535773295</ele>
        <time>2018-03-04T10:05:44Z</time>
      </trkpt>
      <trkpt lat="45.96341" lon="6.32926">
        <ele>1414.9535914663</ele>
        <time>2018-03-04T10:05:48Z</time>
      </trkpt>
      <trkpt lat="45.96347" lon="6.32935">
        <ele>1416.953622628</ele>
        <time>2018-03-04T10:05:52Z</time>
      </trkpt>
      <trkpt lat="45.96353" lon="6.32944">
        <ele>1413.953640501</ele>
        <time>2018-03-04T10:05:58Z</time>
      </trkpt>
      <trkpt lat="45.96359" lon="6.32966">
        <ele>1409.9535983784</ele>
        <time>2018-03-04T10:06:03Z</time>
      </trkpt>
      <trkpt lat="45.96376" lon="6.32978">
        <ele>1410.9537342235</ele>
        <time>2018-03-04T10:06:07Z</time>
      </trkpt>
      <trkpt lat="45.96385" lon="6.32991">
        <ele>1413.9537803291</ele>
        <time>2018-03-04T10:06:12Z</time>
      </trkpt>
      <trkpt lat="45.96393" lon="6.32994">
        <ele>1420.953863105</ele>
        <time>2018-03-04T10:09:00Z</time>
      </trkpt>
      <trkpt lat="45.964" lon="6.32988">
        <ele>1420.9539884079</ele>
        <time>2018-03-04T10:21:28Z</time>
      </trkpt>
      <trkpt lat="45.96396" lon="6.32976">
        <ele>1417.9540041783</ele>
        <time>2018-03-04T10:21:33Z</time>
      </trkpt>
      <trkpt lat="45.96392" lon="6.32963">
        <ele>1416.9540356815</ele>
        <time>2018-03-04T10:21:38Z</time>
      </trkpt>
      <trkpt lat="45.96388" lon="6.3295">
        <ele>1417.9540570984</ele>
        <time>2018-03-04T10:21:42Z</time>
      </trkpt>
      <trkpt lat="45.9638" lon="6.3293">
        <ele>1417.9540743557</ele>
        <time>2018-03-04T10:21:47Z</time>
      </trkpt>
      <trkpt lat="45.96374" lon="6.32917">
        <ele>1416.9540675052</ele>
        <time>2018-03-04T10:21:51Z</time>
      </trkpt>
      <trkpt lat="45.96368" lon="6.329">
        <ele>1418.9540936812</ele>
        <time>2018-03-04T10:21:56Z</time>
      </trkpt>
      <trkpt lat="45.96364" lon="6.32885">
        <ele>1417.9541305954</ele>
        <time>2018-03-04T10:22:00Z</time>
      </trkpt>
      <trkpt lat="45.96357" lon="6.32865">
        <ele>1418.9541513511</ele>
        <time>2018-03-04T10:22:05Z</time>
      </trkpt>
      <trkpt lat="45.96351" lon="6.32848">
        <ele>1419.9541790312</ele>
        <time>2018-03-04T10:22:09Z</time>
      </trkpt>
      <trkpt lat="45.96345" lon="6.32828">
        <ele>1420.9542238474</ele>
        <time>2018-03-04T10:22:14Z</time>
      </trkpt>
      <trkpt lat="45.96341" lon="6.32817">
        <ele>1419.9542428524</ele>
        <time>2018-03-04T10:22:18Z</time>
      </trkpt>
      <trkpt lat="45.96339" lon="6.32805">
        <ele>1416.9542839092</ele>
        <time>2018-03-04T10:22:23Z</time>
      </trkpt>
      <trkpt lat="45.96339" lon="6.32793">
        <ele>1417.9543469691</ele>
        <time>2018-03-04T10:22:27Z</time>
      </trkpt>
      <trkpt lat="45.9634" lon="6.32782">
        <ele>1416.9544318538</ele>
        <time>2018-03-04T10:22:32Z</time>
      </trkpt>
      <trkpt lat="45.9634" lon="6.32769">
        <ele>1417.9545068415</ele>
        <time>2018-03-04T10:22:37Z</time>
      </trkpt>
      <trkpt lat="45.96339" lon="6.32758">
        <ele>1417.9545556103</ele>
        <time>2018-03-04T10:22:42Z</time>
      </trkpt>
      <trkpt lat="45.96337" lon="6.32747">
        <ele>1417.9545932464</ele>
        <time>2018-03-04T10:22:46Z</time>
      </trkpt>
      <trkpt lat="45.96338" lon="6.32735">
        <ele>1425.9546765516</ele>
        <time>2018-03-04T10:23:26Z</time>
      </trkpt>
      <trkpt lat="45.96346" lon="6.32738">
        <ele>1429.954765801</ele>
        <time>2018-03-04T10:23:44Z</time>
      </trkpt>
      <trkpt lat="45.96355" lon="6.32733">
        <ele>1430.9548963407</ele>
        <time>2018-03-04T10:23:59Z</time>
      </trkpt>
      <trkpt lat="45.96358" lon="6.32721">
        <ele>1426.9550105948</ele>
        <time>2018-03-04T10:24:16Z</time>
      </trkpt>
      <trkpt lat="45.96354" lon="6.3271">
        <ele>1424.9550188869</ele>
        <time>2018-03-04T10:24:22Z</time>
      </trkpt>
      <trkpt lat="45.96348" lon="6.327">
        <ele>1423.9550087935</ele>
        <time>2018-03-04T10:24:29Z</time>
      </trkpt>
      <trkpt lat="45.96342" lon="6.32692">
        <ele>1418.954978656</ele>
        <time>2018-03-04T10:24:37Z</time>
      </trkpt>
      <trkpt lat="45.96337" lon="6.32683">
        <ele>1418.9549730841</ele>
        <time>2018-03-04T10:24:42Z</time>
      </trkpt>
      <trkpt lat="45.96332" lon="6.32672">
        <ele>1419.954975944</ele>
        <time>2018-03-04T10:24:48Z</time>
      </trkpt>
      <trkpt lat="45.96328" lon="6.32663">
        <ele>1418.9549712521</ele>
        <time>2018-03-04T10:24:53Z</time>
      </trkpt>
      <trkpt lat="45.96324" lon="6.32652">
        <ele>1418.9549964032</ele>
        <time>2018-03-04T10:25:00Z</time>
      </trkpt>
      <trkpt lat="45.96326" lon="6.32641">
        <ele>1433.9550753073</ele>
        <time>2018-03-04T10:29:09Z</time>
      </trkpt>
      <trkpt lat="45.96326" lon="6.32641">
        <ele>1433.9550753073</ele>
        <time>2018-03-04T10:29:10Z</time>
      </trkpt>
    </trkseg>
  </trk>
</gpx>